Provisional Data: Kishacoquillas Creek near Belleville, PA


Please select a monitoring station.
Please select start date.
Please select start date.

Toggle Unit: C/F Toggle Unit: C/F
Sample Time Temperature (C) Temperature (F) Specific Conductivity (mS/cm) pH   Turbidity (NTU+) DO (mg/L)
6/22/2021 12:00:00 AM 17.97 64.346 0.509 7.53 29.38 8.03
6/22/2021 12:15:00 AM 17.81 64.058 0.509 7.53 28.19 8.05
6/22/2021 12:30:00 AM 17.64 63.752 0.509 7.53 30.01 8.07
6/22/2021 12:45:00 AM 17.49 63.482 0.509 7.52 27.48 8.09
6/22/2021 1:00:00 AM 17.34 63.212 0.509 7.52 27.39 8.11
6/22/2021 1:15:00 AM 17.19 62.942 0.509 7.52 28.75 8.13
6/22/2021 1:30:00 AM 17.04 62.672 0.509 7.52 28.41 8.17
6/22/2021 1:45:00 AM 16.9 62.42 0.509 7.52 28.68 8.17
6/22/2021 2:00:00 AM 16.76 62.168 0.509 7.52 30.22 8.19
6/22/2021 2:15:00 AM 16.62 61.916 0.509 7.51 28.75 8.23
6/22/2021 2:30:00 AM 16.48 61.664 0.509 7.52 29.91 8.25
6/22/2021 2:45:00 AM 16.34 61.412 0.509 7.52 31.87 8.3
6/22/2021 3:00:00 AM 16.2 61.16 0.509 7.52 29.2 8.32
6/22/2021 3:15:00 AM 16.07 60.926 0.508 7.51 33.53 8.35
6/22/2021 3:30:00 AM 15.95 60.71 0.509 7.51 30.85 8.38
6/22/2021 3:45:00 AM 15.83 60.494 0.508 7.52 30.65 8.42
6/22/2021 4:00:00 AM 15.72 60.296 0.509 7.52 31.51 8.45
6/22/2021 4:15:00 AM 15.61 60.098 0.508 7.52 32.59 8.47
6/22/2021 4:30:00 AM 15.5 59.9 0.508 7.52 48.78 8.48
6/22/2021 4:45:00 AM 15.4 59.72 0.507 7.53 31.71 8.53
6/22/2021 5:00:00 AM 15.31 59.558 0.507 7.52 29.9 8.55
6/22/2021 5:15:00 AM 15.21 59.378 0.507 7.52 30.9 8.57
6/22/2021 5:30:00 AM 15.14 59.252 0.508 7.52 32.11 8.57
6/22/2021 5:45:00 AM 15.05 59.09 0.507 7.52 31.14 8.59
6/22/2021 6:00:00 AM 14.96 58.928 0.507 7.52 33.82 8.64
6/22/2021 6:15:00 AM 14.9 58.82 0.507 7.52 33.94 8.66
6/22/2021 6:30:00 AM 14.85 58.73 0.506 7.52 33.86 8.67
6/22/2021 6:45:00 AM 14.79 58.622 0.509 7.51 32.05 8.69
6/22/2021 7:00:00 AM 14.72 58.496 0.526 7.52 32.94 8.7
6/22/2021 7:15:00 AM 14.69 58.442 0.522 7.51 33.61 8.73
6/22/2021 7:30:00 AM 14.63 58.334 0.516 7.51 34.24 8.74
6/22/2021 7:45:00 AM 14.58 58.244 0.509 7.51 32.97 8.77
6/22/2021 8:00:00 AM 14.52 58.136 0.506 7.51 32.27 8.8
6/22/2021 8:15:00 AM 14.49 58.082 0.505 7.52 30.78 8.81
6/22/2021 8:30:00 AM 14.44 57.992 0.504 7.51 30.42 8.86
6/22/2021 8:45:00 AM 14.4 57.92 0.501 7.51 31.94 8.89
6/22/2021 9:00:00 AM 14.37 57.866 0.499 7.51 30.65 8.91
6/22/2021 9:15:00 AM 14.36 57.848 0.498 7.51 31.36 8.92
6/22/2021 9:30:00 AM 14.35 57.83 0.496 7.51 31.34 8.96
6/22/2021 9:45:00 AM 14.35 57.83 0.495 7.51 31.78 9.03
6/22/2021 10:00:00 AM 14.35 57.83 0.495 7.52 32.12 9.15
6/22/2021 10:15:00 AM 14.33 57.794 0.494 7.52 31.45 9.21
6/22/2021 10:30:00 AM 14.31 57.758 0.494 7.52 30.76 9.27
6/22/2021 10:45:00 AM 14.3 57.74 0.493 7.53 32.18 9.33
6/22/2021 11:00:00 AM 14.29 57.722 0.493 7.54 30.84 9.41
6/22/2021 11:15:00 AM 14.3 57.74 0.494 7.55 31.57 9.56
6/22/2021 11:30:00 AM 14.31 57.758 0.494 7.56 31.56 9.68
6/22/2021 11:45:00 AM 14.3 57.74 0.493 7.57 32.57 9.73
6/22/2021 12:00:00 PM 14.3 57.74 0.493 7.57 32.79 9.79
6/22/2021 12:15:00 PM 14.32 57.776 0.492 7.58 31.72 9.86
6/22/2021 12:30:00 PM 14.34 57.812 0.492 7.58 32.8 9.93
6/22/2021 12:45:00 PM 14.35 57.83 0.491 7.59 32.1 9.93
6/22/2021 1:00:00 PM 14.36 57.848 0.491 7.59 32.5 9.96
6/22/2021 1:15:00 PM 14.37 57.866 0.49 7.6 29.77 10.01
6/22/2021 1:30:00 PM 14.39 57.902 0.489 7.61 31.24 10.08
6/22/2021 1:45:00 PM 14.42 57.956 0.488 7.62 31.2 10.15
6/22/2021 2:00:00 PM 14.44 57.992 0.488 7.62 30.06 10.19
6/22/2021 2:15:00 PM 14.47 58.046 0.487 7.62 31.35 10.22
6/22/2021 2:30:00 PM 14.51 58.118 0.486 7.63 31.89 10.29
6/22/2021 2:45:00 PM 14.54 58.172 0.485 7.64 31.32 10.31
6/22/2021 3:00:00 PM 14.55 58.19 0.484 7.64 33.52 10.32
6/22/2021 3:15:00 PM 14.58 58.244 0.484 7.65 32.28 10.36
6/22/2021 3:30:00 PM 14.61 58.298 0.484 7.65 32.76 10.38
6/22/2021 3:45:00 PM 14.63 58.334 0.484 7.65 32.41 10.38
6/22/2021 4:00:00 PM 14.72 58.496 0.486 7.66 32.77 10.45
6/22/2021 4:15:00 PM 14.82 58.676 0.707 7.5 38.61 10.46
6/22/2021 4:30:00 PM 14.9 58.82 0.501 7.61 34.94 10.53
6/22/2021 4:45:00 PM 15 59 0.49 7.65 36.31 10.54
6/22/2021 5:00:00 PM 15.02 59.036 0.488 7.66 34.55 10.5
6/22/2021 5:15:00 PM 15.03 59.054 0.487 7.67 35.88 10.5
6/22/2021 5:30:00 PM 15.04 59.072 0.488 7.67 35.39 10.47
6/22/2021 5:45:00 PM 15.07 59.126 0.488 7.68 36.06 10.43
6/22/2021 6:00:00 PM 15.1 59.18 0.488 7.68 35.59 10.46
6/22/2021 6:15:00 PM 15.12 59.216 0.489 7.68 33.54 10.44
6/22/2021 6:30:00 PM 15.09 59.162 0.49 7.68 36.89 10.36
6/22/2021 6:45:00 PM 15.08 59.144 0.49 7.68 35.38 10.29
6/22/2021 7:00:00 PM 15.08 59.144 0.491 7.68 35.84 10.23
6/22/2021 7:15:00 PM 15.07 59.126 0.492 7.68 35.01 10.15
6/22/2021 7:30:00 PM 15.06 59.108 0.492 7.67 34.26 10.1
6/22/2021 7:45:00 PM 15.06 59.108 0.493 7.67 34.75 10.05
6/22/2021 8:00:00 PM 15.05 59.09 0.494 7.67 35.44 10
6/22/2021 8:15:00 PM 15.04 59.072 0.495 7.67 35.32 9.92
6/22/2021 8:30:00 PM 15.01 59.018 0.495 7.66 38.05 9.85
6/22/2021 8:45:00 PM 14.99 58.982 0.496 7.66 36.06 9.78
6/22/2021 9:00:00 PM 14.95 58.91 0.496 7.65 37.43 9.7
6/22/2021 9:15:00 PM 14.91 58.838 0.497 7.65 37.7 9.64
6/22/2021 9:30:00 PM 14.87 58.766 0.497 7.64 38.99 9.56
6/22/2021 9:45:00 PM 14.82 58.676 0.498 7.64 40.11 9.5
6/22/2021 10:00:00 PM 14.78 58.604 0.498 7.63 39.68 9.44
6/22/2021 10:15:00 PM 14.73 58.514 0.499 7.63 41.01 9.38
6/22/2021 10:30:00 PM 14.68 58.424 0.5 7.62 41.15 9.34
6/22/2021 10:45:00 PM 14.62 58.316 0.5 7.62 42.19 9.31
6/22/2021 11:00:00 PM 14.55 58.19 0.5 7.61 44.12 9.27
6/22/2021 11:15:00 PM 14.47 58.046 0.501 7.6 43.32 9.23
6/22/2021 11:30:00 PM 14.39 57.902 0.501 7.6 44.4 9.21
6/22/2021 11:45:00 PM 14.29 57.722 0.501 7.59 44.84 9.18
6/23/2021 12:00:00 AM 14.19 57.542 0.502 7.59 45 9.18
6/23/2021 12:15:00 AM 14.09 57.362 0.503 7.58 43.78 9.17
6/23/2021 12:30:00 AM 13.99 57.182 0.502 7.59 43.14 9.17
6/23/2021 12:45:00 AM 13.89 57.002 0.503 7.58 46.08 9.16
6/23/2021 1:00:00 AM 13.79 56.822 0.503 7.58 46.21 9.17
6/23/2021 1:15:00 AM 13.69 56.642 0.504 7.58 44.63 9.17
6/23/2021 1:30:00 AM 13.6 56.48 0.504 7.57 47 9.18
6/23/2021 1:45:00 AM 13.51 56.318 0.504 7.57 48.15 9.18
6/23/2021 2:00:00 AM 13.42 56.156 0.505 7.57 46.51 9.19
6/23/2021 2:15:00 AM 13.33 55.994 0.505 7.57 47.11 9.19
6/23/2021 2:30:00 AM 13.24 55.832 0.505 7.57 48.94 9.21
6/23/2021 2:45:00 AM 13.15 55.67 0.505 7.57 50.04 9.21
6/23/2021 3:00:00 AM 13.06 55.508 0.505 7.56 50.5 9.24
6/23/2021 3:15:00 AM 12.97 55.346 0.505 7.56 51.09 9.26
6/23/2021 3:30:00 AM 12.87 55.166 0.505 7.56 51.11 9.29
6/23/2021 3:45:00 AM 12.77 54.986 0.505 7.56 51.54 9.31
6/23/2021 4:00:00 AM 12.68 54.824 0.505 7.57 51.04 9.34
6/23/2021 4:15:00 AM 12.58 54.644 0.505 7.57 50.2 9.37
6/23/2021 4:30:00 AM 12.49 54.482 0.505 7.57 50.31 9.4
6/23/2021 4:45:00 AM 12.4 54.32 0.505 7.57 50.66 9.41
6/23/2021 5:00:00 AM 12.3 54.14 0.505 7.57 50.77 9.44
6/23/2021 5:15:00 AM 12.22 53.996 0.505 7.57 49.66 9.47
6/23/2021 5:30:00 AM 12.13 53.834 0.505 7.57 51.43 9.51
6/23/2021 5:45:00 AM 12.05 53.69 0.505 7.57 51.7 9.54
6/23/2021 6:00:00 AM 11.97 53.546 0.505 7.57 51.27 9.56
6/23/2021 6:15:00 AM 11.9 53.42 0.505 7.58 51.55 9.6
6/23/2021 6:30:00 AM 11.83 53.294 0.505 7.58 52.3 9.64
6/23/2021 6:45:00 AM 11.78 53.204 0.505 7.58 51.3 9.69
6/23/2021 7:00:00 AM 11.74 53.132 0.505 7.58 52.77 9.73
6/23/2021 7:15:00 AM 11.71 53.078 0.504 7.58 54.82 9.79
6/23/2021 7:30:00 AM 11.68 53.024 0.505 7.59 54.71 9.85
6/23/2021 7:45:00 AM 11.67 53.006 0.504 7.59 52.25 9.9
6/23/2021 8:00:00 AM 11.67 53.006 0.504 7.59 54.57 9.97
6/23/2021 8:15:00 AM 11.68 53.024 0.504 7.6 52.99 10.04
6/23/2021 8:30:00 AM 11.7 53.06 0.504 7.6 56.03 10.11
6/23/2021 8:45:00 AM 11.74 53.132 0.504 7.61 54.73 10.18
6/23/2021 9:00:00 AM 11.79 53.222 0.504 7.61 53.23 10.26
6/23/2021 9:15:00 AM 11.85 53.33 0.503 7.61 56.41 10.34
6/23/2021 9:30:00 AM 11.93 53.474 0.503 7.62 54.51 10.43
6/23/2021 9:45:00 AM 12.03 53.654 0.503 7.63 52.21 10.51
6/23/2021 10:00:00 AM 12.13 53.834 0.503 7.64 52.86 10.6
6/23/2021 10:15:00 AM 12.26 54.068 0.502 7.64 56.66 10.67
6/23/2021 10:30:00 AM 12.4 54.32 0.502 7.64 54.22 10.75
6/23/2021 10:45:00 AM 12.55 54.59 0.502 7.65 53.84 10.84
6/23/2021 11:00:00 AM 12.7 54.86 0.502 7.66 55.22 10.91
6/23/2021 11:15:00 AM 12.87 55.166 0.502 7.66 53.97 10.97
6/23/2021 11:30:00 AM 13.06 55.508 0.501 7.67 54.67 11.04
6/23/2021 11:45:00 AM 13.26 55.868 0.501 7.68 53.65 11.09
6/23/2021 12:00:00 PM 13.47 56.246 0.5 7.68 53.93 11.16
6/23/2021 12:15:00 PM 13.7 56.66 0.5 7.69 51.82 11.24
6/23/2021 12:30:00 PM 13.87 56.966 0.5 7.7 52.28 11.23
6/23/2021 12:45:00 PM 14.14 57.452 0.5 7.7 54.32 11.33
6/23/2021 1:00:00 PM 14.37 57.866 0.5 7.71 54.9 11.34
6/23/2021 1:15:00 PM 14.59 58.262 0.498 7.72 55.64 11.36
6/23/2021 1:30:00 PM 14.83 58.694 0.499 7.73 55.74 11.35
6/23/2021 1:45:00 PM 15.11 59.198 0.498 7.73 55.9 11.4
6/23/2021 2:00:00 PM 15.28 59.504 0.499 7.73 59 11.36
6/23/2021 2:15:00 PM 15.56 60.008 0.497 7.73 57.16 11.38
6/23/2021 2:30:00 PM 15.82 60.476 0.497 7.74 60.89 11.39
6/23/2021 2:45:00 PM 16 60.8 0.497 7.75 60.16 11.33
6/23/2021 3:00:00 PM 16.07 60.926 0.497 7.74 55.91 11.16
6/23/2021 3:15:00 PM 16.17 61.106 0.499 7.75 53.05 11.1
6/23/2021 3:30:00 PM 16.49 61.682 0.5 7.76 60.56 11.18
6/23/2021 3:45:00 PM 16.76 62.168 0.499 7.77 59.18 11.2
6/23/2021 4:00:00 PM 16.97 62.546 0.5 7.77 52.97 11.17
6/23/2021 4:15:00 PM 17.16 62.888 0.498 7.77 54.78 11.1
6/23/2021 4:30:00 PM 17.31 63.158 0.499 7.77 51.61 11.01
6/23/2021 4:45:00 PM 17.45 63.41 0.499 7.78 55.95 10.94
6/23/2021 5:00:00 PM 17.57 63.626 0.498 7.77 55.86 10.84
6/23/2021 5:15:00 PM 17.64 63.752 0.497 7.77 67.75 10.74
6/23/2021 5:30:00 PM 17.65 63.77 0.495 7.77 66.15 10.56
6/23/2021 5:45:00 PM 17.66 63.788 0.5 7.77 74.36 10.39
6/23/2021 6:00:00 PM 17.64 63.752 0.5 7.76 54.7 10.18
6/23/2021 6:15:00 PM 17.67 63.806 0.501 7.75 59.81 10.13
6/23/2021 6:30:00 PM 17.69 63.842 0.5 7.75 57.01 10.07
6/23/2021 6:45:00 PM 17.73 63.914 0.501 7.74 58.2 10
6/23/2021 7:00:00 PM 17.75 63.95 0.501 7.74 57.94 9.88
6/23/2021 7:15:00 PM 17.76 63.968 0.502 7.73 59.44 9.76
6/23/2021 7:30:00 PM 17.75 63.95 0.502 7.73 60.83 9.65
6/23/2021 7:45:00 PM 17.74 63.932 0.502 7.72 57.88 9.52
6/23/2021 8:00:00 PM 17.72 63.896 0.503 7.71 58.45 9.42
6/23/2021 8:15:00 PM 17.68 63.824 0.503 7.7 57.65 9.33
6/23/2021 8:30:00 PM 17.63 63.734 0.503 7.68 69.83 9.23
6/23/2021 8:45:00 PM 17.56 63.608 0.504 7.68 58.23 9.15
6/23/2021 9:00:00 PM 17.49 63.482 0.504 7.67 58.35 9.08
6/23/2021 9:15:00 PM 17.41 63.338 0.505 7.66 59.55 9
6/23/2021 9:30:00 PM 17.31 63.158 0.505 7.65 60.41 8.94
6/23/2021 9:45:00 PM 17.21 62.978 0.506 7.64 64.6 8.9
6/23/2021 10:00:00 PM 17.1 62.78 0.506 7.64 62.38 8.84
6/23/2021 10:15:00 PM 16.98 62.564 0.507 7.63 63.15 8.81
6/23/2021 10:30:00 PM 16.85 62.33 0.507 7.62 61.85 8.77
6/23/2021 10:45:00 PM 16.71 62.078 0.508 7.61 63.31 8.76
6/23/2021 11:00:00 PM 16.57 61.826 0.509 7.61 64.81 8.73
6/23/2021 11:15:00 PM 16.44 61.592 0.509 7.6 63.65 8.72
6/23/2021 11:30:00 PM 16.3 61.34 0.51 7.6 65.99 8.7
6/23/2021 11:45:00 PM 16.16 61.088 0.51 7.59 66.45 8.7
6/24/2021 12:00:00 AM 16.02 60.836 0.51 7.58 75.82 8.69
6/24/2021 12:15:00 AM 15.88 60.584 0.51 7.58 68.86 8.69
6/24/2021 12:30:00 AM 15.74 60.332 0.51 7.58 68.25 8.69
6/24/2021 12:45:00 AM 15.6 60.08 0.51 7.58 68.8 8.7
6/24/2021 1:00:00 AM 15.45 59.81 0.51 7.57 68.68 8.73
6/24/2021 1:15:00 AM 15.3 59.54 0.51 7.57 68.18 8.73
6/24/2021 1:30:00 AM 15.16 59.288 0.51 7.56 64.59 8.74
6/24/2021 1:45:00 AM 15.02 59.036 0.51 7.56 69.83 8.78
6/24/2021 2:00:00 AM 14.88 58.784 0.51 7.56 65.7 8.79
6/24/2021 2:15:00 AM 14.74 58.532 0.51 7.56 66.04 8.81
6/24/2021 2:30:00 AM 14.61 58.298 0.51 7.56 69.38 8.86
6/24/2021 2:45:00 AM 14.48 58.064 0.51 7.56 65.64 8.87
6/24/2021 3:00:00 AM 14.36 57.848 0.51 7.56 66.58 8.9
6/24/2021 3:15:00 AM 14.24 57.632 0.511 7.56 67.84 8.92
6/24/2021 3:30:00 AM 14.12 57.416 0.511 7.56 67.16 8.96
6/24/2021 3:45:00 AM 14 57.2 0.511 7.55 66.36 8.99
6/24/2021 4:00:00 AM 13.88 56.984 0.511 7.55 69.4 9.02
6/24/2021 4:15:00 AM 13.76 56.768 0.511 7.54 69.8 9.05
6/24/2021 4:30:00 AM 13.65 56.57 0.511 7.54 70.09 9.07
6/24/2021 4:45:00 AM 13.54 56.372 0.511 7.54 70 9.1
6/24/2021 5:00:00 AM 13.43 56.174 0.511 7.55 71.76 9.13
6/24/2021 5:15:00 AM 13.33 55.994 0.511 7.54 73.14 9.18
6/24/2021 5:30:00 AM 13.23 55.814 0.511 7.54 70.06 9.2
6/24/2021 5:45:00 AM 13.12 55.616 0.511 7.54 71.48 9.24
6/24/2021 6:00:00 AM 13.03 55.454 0.511 7.55 77.04 9.27
6/24/2021 6:15:00 AM 12.93 55.274 0.511 7.55 77.06 9.33
6/24/2021 6:30:00 AM 12.85 55.13 0.51 7.55 75.82 9.38
6/24/2021 6:45:00 AM 12.78 55.004 0.51 7.55 74.04 9.44
6/24/2021 7:00:00 AM 12.71 54.878 0.51 7.56 77.73 9.5
6/24/2021 7:15:00 AM 12.66 54.788 0.51 7.56 77.05 9.56
6/24/2021 7:30:00 AM 12.61 54.698 0.51 7.56 77 9.63
6/24/2021 7:45:00 AM 12.57 54.626 0.51 7.57 76.8 9.7
6/24/2021 8:00:00 AM 12.54 54.572 0.51 7.57 77.8 9.79
6/24/2021 8:15:00 AM 12.54 54.572 0.509 7.57 77.14 9.88
6/24/2021 8:30:00 AM 12.55 54.59 0.509 7.59 76.02 9.96
6/24/2021 8:45:00 AM 12.57 54.626 0.509 7.59 76.53 10.05
6/24/2021 9:00:00 AM 12.6 54.68 0.508 7.6 73.31 10.15
6/24/2021 9:15:00 AM 12.66 54.788 0.508 7.6 76.06 10.24
6/24/2021 9:30:00 AM 12.73 54.914 0.508 7.6 75.94 10.34
6/24/2021 9:45:00 AM 12.82 55.076 0.508 7.61 75.96 10.45
6/24/2021 10:00:00 AM 12.93 55.274 0.508 7.62 77.72 10.54
6/24/2021 10:15:00 AM 13.04 55.472 0.508 7.62 77.41 10.65
6/24/2021 10:30:00 AM 13.18 55.724 0.507 7.63 77.33 10.74
6/24/2021 10:45:00 AM 13.33 55.994 0.507 7.64 79.83 10.83
6/24/2021 11:00:00 AM 13.5 56.3 0.506 7.65 76.21 10.92
6/24/2021 11:15:00 AM 13.67 56.606 0.506 7.65 68.62 11.01
6/24/2021 11:30:00 AM 13.85 56.93 0.506 7.67 71.86 11.09
6/24/2021 11:45:00 AM 14.04 57.272 0.505 7.67 76.86 11.19
6/24/2021 12:00:00 PM 14.24 57.632 0.505 7.68 76.59 11.25
6/24/2021 12:15:00 PM 14.44 57.992 0.504 7.69 77.69 11.33
6/24/2021 12:30:00 PM 14.65 58.37 0.504 7.7 78.47 11.36
6/24/2021 12:45:00 PM 14.87 58.766 0.503 7.71 73.89 11.44
6/24/2021 1:00:00 PM 15.11 59.198 0.503 7.71 76.12 11.48
6/24/2021 1:15:00 PM 15.34 59.612 0.502 7.72 83.7 11.5
6/24/2021 1:30:00 PM 15.58 60.044 0.502 7.73 91.37 11.55
6/24/2021 1:45:00 PM 15.82 60.476 0.501 7.73 84.69 11.58
6/24/2021 2:00:00 PM 16.05 60.89 0.502 7.74 89.18 11.63
6/24/2021 2:15:00 PM 16.28 61.304 0.502 7.76 85.61 11.65
6/24/2021 2:30:00 PM 16.51 61.718 0.501 7.77 80.6 11.63
6/24/2021 2:45:00 PM 16.72 62.096 0.502 7.77 76.15 11.61
6/24/2021 3:00:00 PM 16.93 62.474 0.502 7.78 88.03 11.56
6/24/2021 3:15:00 PM 17.13 62.834 0.501 7.78 87.51 11.5
6/24/2021 3:30:00 PM 17.33 63.194 0.501 7.78 79.05 11.45
6/24/2021 3:45:00 PM 17.52 63.536 0.501 7.79 88.38 11.4
6/24/2021 4:00:00 PM 17.69 63.842 0.5 7.79 78.82 11.34
6/24/2021 4:15:00 PM 17.85 64.13 0.498 7.79 91.4 11.25
6/24/2021 4:30:00 PM 18 64.4 0.499 7.79 87.87 11.17
6/24/2021 4:45:00 PM 18.13 64.634 0.499 7.79 81.55 11.08
6/24/2021 5:00:00 PM 18.25 64.85 0.497 7.8 85.96 10.97
6/24/2021 5:15:00 PM 18.35 65.03 0.498 7.79 80.89 10.87
6/24/2021 5:30:00 PM 18.46 65.228 0.498 7.8 101.4 10.76
6/24/2021 5:45:00 PM 18.54 65.372 0.499 7.8 94.44 10.66
6/24/2021 6:00:00 PM 18.6 65.48 0.5 7.79 94.83 10.52
6/24/2021 6:15:00 PM 18.67 65.606 0.5 7.79 90.35 10.41
6/24/2021 6:30:00 PM 18.73 65.714 0.499 7.79 86.23 10.29
6/24/2021 6:45:00 PM 18.75 65.75 0.5 7.77 96.35 10.1
6/24/2021 7:00:00 PM 18.78 65.804 0.501 7.77 91.06 9.95
6/24/2021 7:15:00 PM 18.79 65.82201 0.502 7.75 84.4 9.76
6/24/2021 7:30:00 PM 18.8 65.84 0.503 7.74 84.59 9.61
6/24/2021 7:45:00 PM 18.8 65.84 0.503 7.73 89.3 9.48
6/24/2021 8:00:00 PM 18.78 65.804 0.504 7.73 85.25 9.39
6/24/2021 8:15:00 PM 18.75 65.75 0.504 7.72 94.13 9.29
6/24/2021 8:30:00 PM 18.69 65.642 0.505 7.71 88.14 9.18
6/24/2021 8:45:00 PM 18.63 65.534 0.505 7.7 89.05 9.05
6/24/2021 9:00:00 PM 18.56 65.408 0.506 7.69 87.49 8.92
6/24/2021 9:15:00 PM 18.48 65.264 0.506 7.68 89.31 8.82
6/24/2021 9:30:00 PM 18.41 65.138 0.508 7.67 88.27 8.72
6/24/2021 9:45:00 PM 18.32 64.976 0.509 7.66 87.16 8.65
6/24/2021 10:00:00 PM 18.23 64.814 0.51 7.65 89.34 8.59
6/24/2021 10:15:00 PM 18.13 64.634 0.511 7.64 93.08 8.51
6/24/2021 10:30:00 PM 18.03 64.454 0.511 7.63 86.44 8.46
6/24/2021 10:45:00 PM 17.93 64.274 0.512 7.62 91.68 8.41
6/24/2021 11:00:00 PM 17.82 64.076 0.512 7.62 96.57 8.4
6/24/2021 11:15:00 PM 17.72 63.896 0.512 7.61 106.6 8.36
6/24/2021 11:30:00 PM 17.6 63.68 0.512 7.6 108 8.34
6/24/2021 11:45:00 PM 17.48 63.464 0.512 7.59 96.02 8.32
6/25/2021 12:00:00 AM 17.36 63.248 0.513 7.59 92.23 8.29
6/25/2021 12:15:00 AM 17.21 62.978 0.513 7.59 87.06 8.28
6/25/2021 12:30:00 AM 17.07 62.726 0.513 7.58 88.3 8.29
6/25/2021 12:45:00 AM 16.92 62.456 0.514 7.57 88.86 8.29
6/25/2021 1:00:00 AM 16.77 62.186 0.515 7.57 96.96 8.29
6/25/2021 1:15:00 AM 16.62 61.916 0.515 7.56 101.6 8.31
6/25/2021 1:30:00 AM 16.46 61.628 0.515 7.56 98 8.32
6/25/2021 1:45:00 AM 16.31 61.358 0.516 7.55 97.08 8.36
6/25/2021 2:00:00 AM 16.15 61.07 0.516 7.54 97.48 8.38
6/25/2021 2:15:00 AM 15.99 60.782 0.517 7.55 100.8 8.4
6/25/2021 2:30:00 AM 15.83 60.494 0.517 7.54 99.03 8.44
6/25/2021 2:45:00 AM 15.67 60.206 0.518 7.54 103.6 8.47
6/25/2021 3:00:00 AM 15.52 59.936 0.517 7.54 99.78 8.51
6/25/2021 3:15:00 AM 15.36 59.648 0.518 7.54 105.9 8.53
6/25/2021 3:30:00 AM 15.21 59.378 0.518 7.54 102.8 8.57
6/25/2021 3:45:00 AM 15.06 59.108 0.518 7.54 98.02 8.6
6/25/2021 4:00:00 AM 14.92 58.856 0.518 7.54 101.7 8.65
6/25/2021 4:15:00 AM 14.77 58.586 0.518 7.54 95.34 8.68
6/25/2021 4:30:00 AM 14.63 58.334 0.518 7.54 101.6 8.73
6/25/2021 4:45:00 AM 14.5 58.1 0.518 7.54 96.67 8.76
6/25/2021 5:00:00 AM 14.37 57.866 0.518 7.54 103.2 8.8
6/25/2021 5:15:00 AM 14.24 57.632 0.518 7.54 97.21 8.83
6/25/2021 5:30:00 AM 14.11 57.398 0.518 7.55 99.16 8.88
6/25/2021 5:45:00 AM 13.99 57.182 0.517 7.54 99.8 8.91
6/25/2021 6:00:00 AM 13.88 56.984 0.518 7.55 118.5 8.97
6/25/2021 6:15:00 AM 13.77 56.786 0.518 7.55 100.8 9.02
6/25/2021 6:30:00 AM 13.67 56.606 0.518 7.55 115.5 9.09
6/25/2021 6:45:00 AM 13.58 56.444 0.517 7.55 110.6 9.17
6/25/2021 7:00:00 AM 13.5 56.3 0.517 7.55 101.6 9.27
6/25/2021 7:15:00 AM 13.43 56.174 0.517 7.56 103.3 9.36
6/25/2021 7:30:00 AM 13.37 56.066 0.516 7.57 111.4 9.47
6/25/2021 7:45:00 AM 13.32 55.976 0.516 7.57 121.6 9.55
6/25/2021 8:00:00 AM 13.28 55.904 0.516 7.58 106 9.64
6/25/2021 8:15:00 AM 13.25 55.85 0.516 7.59 109.8 9.77
6/25/2021 8:30:00 AM 13.23 55.814 0.516 7.59 100.5 9.86
6/25/2021 8:45:00 AM 13.21 55.778 0.515 7.6 103.5 9.94
6/25/2021 9:00:00 AM 13.23 55.814 0.515 7.6 106.5 10.07
6/25/2021 9:15:00 AM 13.26 55.868 0.515 7.6 109.7 10.19
6/25/2021 9:30:00 AM 13.32 55.976 0.515 7.61 100.6 10.32
6/25/2021 9:45:00 AM 13.37 56.066 0.514 7.62 126.2 10.45
6/25/2021 10:00:00 AM 13.46 56.228 0.514 7.63 99.4 10.57
6/25/2021 10:15:00 AM 13.56 56.408 0.514 7.63 107.2 10.71
6/25/2021 10:30:00 AM 13.69 56.642 0.513 7.65 114.5 10.84
6/25/2021 10:45:00 AM 13.82 56.876 0.512 7.66 109.1 10.96
6/25/2021 11:00:00 AM 13.95 57.11 0.512 7.67 107.3 11.05
6/25/2021 11:15:00 AM 14.11 57.398 0.511 7.67 111.1 11.17
6/25/2021 11:30:00 AM 14.29 57.722 0.511 7.68 107 11.26
6/25/2021 11:45:00 AM 14.46 58.028 0.51 7.69 110.5 11.35
6/25/2021 12:00:00 PM 14.66 58.388 0.509 7.7 112.9 11.44
6/25/2021 12:15:00 PM 14.86 58.748 0.509 7.71 118 11.54
6/25/2021 12:30:00 PM 15.07 59.126 0.508 7.72 118.2 11.6
6/25/2021 12:45:00 PM 15.29 59.522 0.508 7.73 129.5 11.7
6/25/2021 1:00:00 PM 15.52 59.936 0.508 7.73 138 11.76
6/25/2021 1:15:00 PM 15.76 60.368 0.506 7.74 116 11.83
6/25/2021 1:30:00 PM 15.98 60.764 0.505 7.76 222.4 11.86
6/25/2021 1:45:00 PM 16.21 61.178 0.504 7.77 145.6 11.88
6/25/2021 2:00:00 PM 16.45 61.61 0.506 7.78 228.7 11.93
6/25/2021 2:15:00 PM 16.69 62.042 0.504 7.78 117.6 11.89
6/25/2021 2:30:00 PM 16.92 62.456 0.504 7.79 105.6 11.89
6/25/2021 2:45:00 PM 17.12 62.816 0.503 7.8 111.6 11.87
6/25/2021 3:00:00 PM 17.29 63.122 0.503 7.8 94.42 11.85
6/25/2021 3:15:00 PM 17.47 63.446 0.501 7.81 94.13 11.81
6/25/2021 3:30:00 PM 17.67 63.806 0.502 7.82 135.1 11.78
6/25/2021 3:45:00 PM 17.87 64.166 0.502 7.82 115.8 11.74
6/25/2021 4:00:00 PM 17.99 64.382 0.502 7.82 140.7 11.62
6/25/2021 4:15:00 PM 18.12 64.616 0.502 7.82 162.1 11.54
6/25/2021 4:30:00 PM 18.22 64.796 0.502 7.83 198.5 11.42
6/25/2021 4:45:00 PM 18.36 65.048 0.5 7.83 145 11.37
6/25/2021 5:00:00 PM 18.54 65.372 0.501 7.83 179.3 11.38
6/25/2021 5:15:00 PM 18.66 65.588 0.499 7.84 145.9 11.27
6/25/2021 5:30:00 PM 18.74 65.732 0.499 7.83 162 11.08
6/25/2021 5:45:00 PM 18.78 65.804 0.5 7.82 162.2 10.84
6/25/2021 6:00:00 PM 18.83 65.894 0.5 7.82 165.2 10.68
6/25/2021 6:15:00 PM 18.88 65.984 0.5 7.81 100.7 10.56
6/25/2021 6:30:00 PM 18.97 66.146 0.499 7.81 99.8 10.53
6/25/2021 6:45:00 PM 19.01 66.218 0.5 7.8 103.8 10.34
6/25/2021 7:00:00 PM 19.05 66.29 0.501 7.8 97.54 10.18
6/25/2021 7:15:00 PM 19.07 66.326 0.502 7.78 93.83 9.94
6/25/2021 7:30:00 PM 19.08 66.344 0.502 7.77 113.7 9.76
6/25/2021 7:45:00 PM 19.06 66.308 0.503 7.76 115 9.63
6/25/2021 8:00:00 PM 19.05 66.29 0.505 7.75 112.7 9.46
6/25/2021 8:15:00 PM 19.02 66.236 0.506 7.74 106.1 9.33
6/25/2021 8:30:00 PM 19 66.2 0.505 7.73 109.5 9.2
6/25/2021 8:45:00 PM 18.96 66.128 0.506 7.72 119.1 9.04
6/25/2021 9:00:00 PM 18.9 66.02 0.507 7.71 119.5 8.9
6/25/2021 9:15:00 PM 18.85 65.93 0.507 7.7 127.2 8.75
6/25/2021 9:30:00 PM 18.78 65.804 0.507 7.68 157.3 8.64
6/25/2021 9:45:00 PM 18.72 65.696 0.507 7.67 143.5 8.53
6/25/2021 10:00:00 PM 18.65 65.57 0.508 7.66 120.7 8.46
6/25/2021 10:15:00 PM 18.57 65.426 0.508 7.65 122.2 8.39
6/25/2021 10:30:00 PM 18.49 65.282 0.508 7.65 125.6 8.35
6/25/2021 10:45:00 PM 18.4 65.12 0.509 7.63 120.4 8.29
6/25/2021 11:00:00 PM 18.31 64.958 0.51 7.63 130.3 8.26
6/25/2021 11:15:00 PM 18.22 64.796 0.51 7.62 112.8 8.21
6/25/2021 11:30:00 PM 18.12 64.616 0.511 7.61 142.3 8.18
6/25/2021 11:45:00 PM 18.01 64.418 0.511 7.6 123.6 8.16
6/26/2021 12:00:00 AM 17.9 64.22 0.512 7.59 130.5 8.11
6/26/2021 12:15:00 AM 17.79 64.022 0.513 7.59 127.5 8.1
6/26/2021 12:30:00 AM 17.67 63.806 0.514 7.58 115.6 8.08
6/26/2021 12:45:00 AM 17.55 63.59 0.514 7.57 131.9 8.07
6/26/2021 1:00:00 AM 17.43 63.374 0.515 7.57 129.2 8.07
6/26/2021 1:15:00 AM 17.3 63.14 0.516 7.57 114.9 8.07
6/26/2021 1:30:00 AM 17.17 62.906 0.516 7.56 135 8.09
6/26/2021 1:45:00 AM 17.03 62.654 0.517 7.55 145.1 8.12
6/26/2021 2:00:00 AM 16.89 62.402 0.517 7.55 138.1 8.14
6/26/2021 2:15:00 AM 16.75 62.15 0.518 7.54 129.7 8.15
6/26/2021 2:30:00 AM 16.61 61.898 0.519 7.54 142.6 8.17
6/26/2021 2:45:00 AM 16.48 61.664 0.519 7.54 136.4 8.2
6/26/2021 3:00:00 AM 16.33 61.394 0.52 7.54 158.9 8.22
6/26/2021 3:15:00 AM 16.2 61.16 0.52 7.53 149.9 8.25
6/26/2021 3:30:00 AM 16.06 60.908 0.52 7.53 136.9 8.27
6/26/2021 3:45:00 AM 15.93 60.674 0.52 7.53 139.6 8.31
6/26/2021 4:00:00 AM 15.79 60.422 0.521 7.53 185.4 8.33
6/26/2021 4:15:00 AM 15.65 60.17 0.521 7.53 153.9 8.36
6/26/2021 4:30:00 AM 15.53 59.954 0.522 7.52 140.5 8.4
6/26/2021 4:45:00 AM 15.4 59.72 0.522 7.52 132.2 8.43
6/26/2021 5:00:00 AM 15.28 59.504 0.523 7.52 157.8 8.45
6/26/2021 5:15:00 AM 15.17 59.306 0.522 7.53 148.8 8.5
6/26/2021 5:30:00 AM 15.06 59.108 0.522 7.52 150.5 8.51
6/26/2021 5:45:00 AM 14.96 58.928 0.522 7.52 135.8 8.56
6/26/2021 6:00:00 AM 14.85 58.73 0.522 7.52 145.7 8.61
6/26/2021 6:15:00 AM 14.76 58.568 0.521 7.52 145.4 8.66
6/26/2021 6:30:00 AM 14.67 58.406 0.521 7.52 142.1 8.72
6/26/2021 6:45:00 AM 14.59 58.262 0.521 7.53 148.1 8.79
6/26/2021 7:00:00 AM 14.52 58.136 0.521 7.53 130.7 8.88
6/26/2021 7:15:00 AM 14.45 58.01 0.521 7.53 132 8.98
6/26/2021 7:30:00 AM 14.4 57.92 0.521 7.55 136.3 9.08
6/26/2021 7:45:00 AM 14.36 57.848 0.521 7.55 140.3 9.18
6/26/2021 8:00:00 AM 14.32 57.776 0.521 7.56 149 9.28
6/26/2021 8:15:00 AM 14.31 57.758 0.52 7.56 174.1 9.43
6/26/2021 8:30:00 AM 14.31 57.758 0.52 7.57 160.2 9.54
6/26/2021 8:45:00 AM 14.33 57.794 0.52 7.58 149 9.68
6/26/2021 9:00:00 AM 14.36 57.848 0.519 7.59 142.9 9.82
6/26/2021 9:15:00 AM 14.38 57.884 0.519 7.6 142 9.95
6/26/2021 9:30:00 AM 14.47 58.046 0.519 7.61 127.8 10.11
6/26/2021 9:45:00 AM 14.56 58.208 0.519 7.62 139.7 10.27
6/26/2021 10:00:00 AM 14.69 58.442 0.519 7.63 157.9 10.43
6/26/2021 10:15:00 AM 14.82 58.676 0.518 7.65 149.2 10.56
6/26/2021 10:30:00 AM 14.96 58.928 0.517 7.65 173.7 10.71
6/26/2021 10:45:00 AM 15.11 59.198 0.516 7.66 173.3 10.82
6/26/2021 11:00:00 AM 15.3 59.54 0.515 7.66 168.4 10.97
6/26/2021 11:15:00 AM 15.47 59.846 0.515 7.68 166.6 11.06
6/26/2021 11:30:00 AM 15.66 60.188 0.515 7.68 162.2 11.16
6/26/2021 11:45:00 AM 15.87 60.566 0.514 7.69 282.5 11.29
6/26/2021 12:00:00 PM 16.08 60.944 0.513 7.7 163.7 11.38
6/26/2021 12:15:00 PM 16.27 61.286 0.512 7.71 210.9 11.45
6/26/2021 12:30:00 PM 16.41 61.538 0.51 7.72 282.5 11.51
6/26/2021 12:45:00 PM 16.59 61.862 0.51 7.73 181.8 11.55
6/26/2021 1:00:00 PM 16.79 62.222 0.51 7.74 213.8 11.63
6/26/2021 1:15:00 PM 17.04 62.672 0.509 7.75 260.3 11.73
6/26/2021 1:30:00 PM 17.27 63.086 0.508 7.76 268.5 11.76
6/26/2021 1:45:00 PM 17.48 63.464 0.505 7.77 176.8 11.77
6/26/2021 2:00:00 PM 17.74 63.932 0.506 7.78 147.9 11.87
6/26/2021 2:15:00 PM 18.01 64.418 0.509 7.79 162.8 11.92
6/26/2021 2:30:00 PM 18.23 64.814 0.504 7.8 186.3 11.89
6/26/2021 2:45:00 PM 18.45 65.21 0.508 7.81 187.5 11.89
6/26/2021 3:00:00 PM 18.68 65.624 0.507 7.81 271.9 11.85
6/26/2021 3:15:00 PM 18.9 66.02 0.507 7.82 152.7 11.81
6/26/2021 3:30:00 PM 19.1 66.38 0.503 7.83 289.9 11.78
6/26/2021 3:45:00 PM 19.28 66.704 0.502 7.83 396.3 11.72
6/26/2021 4:00:00 PM 19.41 66.938 0.503 7.83 230.7 11.63
6/26/2021 4:15:00 PM 19.56 67.208 0.501 7.84 333 11.5
6/26/2021 4:30:00 PM 19.74 67.532 0.5 7.84 176.1 11.45
6/26/2021 4:45:00 PM 19.87 67.766 0.499 7.84 190.8 11.39
6/26/2021 5:00:00 PM 20 68 0.497 7.84 181.2 11.2
6/26/2021 5:15:00 PM 20.12 68.216 0.496 7.83 165.4 11.06
6/26/2021 5:30:00 PM 20.22 68.396 0.496 7.83 201.8 10.96
6/26/2021 5:45:00 PM 20.32 68.576 0.495 7.83 224 10.81
6/26/2021 6:00:00 PM 20.39 68.702 0.494 7.83 283.3 10.62
6/26/2021 6:15:00 PM 20.43 68.774 0.494 7.82 248.9 10.42
6/26/2021 6:30:00 PM 20.47 68.846 0.495 7.81 263.5 10.26
6/26/2021 6:45:00 PM 20.49 68.882 0.494 7.81 316.9 10.08
6/26/2021 7:00:00 PM 20.52 68.936 0.495 7.8 175.7 9.94
6/26/2021 7:15:00 PM 20.53 68.954 0.495 7.79 205.2 9.74
6/26/2021 7:30:00 PM 20.55 68.99 0.495 7.78 180 9.55
6/26/2021 7:45:00 PM 20.55 68.99 0.493 7.77 190.3 9.35
6/26/2021 8:00:00 PM 20.54 68.972 0.494 7.75 186.9 9.17
6/26/2021 8:15:00 PM 20.51 68.918 0.494 7.74 156.7 8.99
6/26/2021 8:30:00 PM 20.49 68.882 0.495 7.73 167 8.8
6/26/2021 8:45:00 PM 20.44 68.792 0.496 7.72 171.7 8.63
6/26/2021 9:00:00 PM 20.4 68.72 0.497 7.7 189.9 8.48
6/26/2021 9:15:00 PM 20.35 68.63 0.498 7.68 145.4 8.35
6/26/2021 9:30:00 PM 20.3 68.54 0.499 7.67 207 8.21
6/26/2021 9:45:00 PM 20.26 68.468 0.499 7.66 159.9 8.09
6/26/2021 10:00:00 PM 20.21 68.378 0.5 7.64 159.9 8
6/26/2021 10:15:00 PM 20.15 68.27 0.501 7.63 169.8 7.9
6/26/2021 10:30:00 PM 20.08 68.144 0.502 7.62 162.7 7.82
6/26/2021 10:45:00 PM 20.01 68.018 0.503 7.62 174.7 7.74
6/26/2021 11:00:00 PM 19.93 67.874 0.504 7.6 205 7.67
6/26/2021 11:15:00 PM 19.85 67.73 0.504 7.59 196.6 7.62
6/26/2021 11:30:00 PM 19.77 67.586 0.505 7.58 215.3 7.58
6/26/2021 11:45:00 PM 19.67 67.406 0.506 7.57 241.7 7.56
6/27/2021 12:00:00 AM 19.58 67.244 0.507 7.56 160.2 7.51
6/27/2021 12:15:00 AM 19.47 67.046 0.508 7.55 175.8 7.51
6/27/2021 12:30:00 AM 19.35 66.83 0.51 7.54 178.9 7.47
6/27/2021 12:45:00 AM 19.23 66.614 0.51 7.53 190 7.46
6/27/2021 1:00:00 AM 19.1 66.38 0.511 7.53 208.8 7.46
6/27/2021 1:15:00 AM 18.96 66.128 0.512 7.52 184.5 7.47
6/27/2021 1:30:00 AM 18.82 65.876 0.513 7.51 175.4 7.47
6/27/2021 1:45:00 AM 18.67 65.606 0.514 7.51 166.8 7.49
6/27/2021 2:00:00 AM 18.53 65.354 0.515 7.5 219.6 7.51
6/27/2021 2:15:00 AM 18.39 65.102 0.516 7.49 187.2 7.51
6/27/2021 2:30:00 AM 18.24 64.832 0.517 7.49 247.4 7.55
6/27/2021 2:45:00 AM 18.1 64.58 0.518 7.48 209.8 7.54
6/27/2021 3:00:00 AM 17.97 64.346 0.518 7.49 203.9 7.58
6/27/2021 3:15:00 AM 17.82 64.076 0.519 7.49 171.6 7.59
6/27/2021 3:30:00 AM 17.69 63.842 0.519 7.48 203 7.64
6/27/2021 3:45:00 AM 17.54 63.572 0.52 7.48 146 7.65
6/27/2021 4:00:00 AM 17.4 63.32 0.521 7.48 244.6 7.69
6/27/2021 4:15:00 AM 17.27 63.086 0.522 7.48 196.8 7.71
6/27/2021 4:30:00 AM 17.12 62.816 0.523 7.48 164.3 7.73
6/27/2021 4:45:00 AM 16.99 62.582 0.523 7.48 157.2 7.78
6/27/2021 5:00:00 AM 16.85 62.33 0.524 7.48 150.3 7.82
6/27/2021 5:15:00 AM 16.73 62.114 0.525 7.48 131.9 7.85
6/27/2021 5:30:00 AM 16.58 61.844 0.524 7.47 160.9 7.87
6/27/2021 5:45:00 AM 16.46 61.628 0.524 7.48 213.8 7.92
6/27/2021 6:00:00 AM 16.33 61.394 0.524 7.48 216.3 7.97
6/27/2021 6:15:00 AM 16.21 61.178 0.524 7.48 165.4 8.04
6/27/2021 6:30:00 AM 16.09 60.962 0.524 7.48 210.8 8.11
6/27/2021 6:45:00 AM 15.99 60.782 0.525 7.49 199 8.2
6/27/2021 7:00:00 AM 15.89 60.602 0.525 7.49 241.2 8.3
6/27/2021 7:15:00 AM 15.81 60.458 0.525 7.49 190.7 8.41
6/27/2021 7:30:00 AM 15.73 60.314 0.525 7.5 248.3 8.52
6/27/2021 7:45:00 AM 15.67 60.206 0.525 7.51 186 8.64
6/27/2021 8:00:00 AM 15.62 60.116 0.525 7.51 378.1 8.73
6/27/2021 8:15:00 AM 15.57 60.026 0.525 7.53 195.4 8.86
6/27/2021 8:30:00 AM 15.55 59.99 0.525 7.53 267.1 9.01
6/27/2021 8:45:00 AM 15.53 59.954 0.524 7.54 247.4 9.16
6/27/2021 9:00:00 AM 15.52 59.936 0.525 7.55 227.4 9.28
6/27/2021 9:15:00 AM 15.54 59.972 0.525 7.55 210.1 9.43
6/27/2021 9:30:00 AM 15.58 60.044 0.525 7.57 178.1 9.58
6/27/2021 9:45:00 AM 15.64 60.152 0.524 7.58 219.2 9.75
6/27/2021 10:00:00 AM 15.72 60.296 0.524 7.59 219.8 9.9
6/27/2021 10:15:00 AM 15.8 60.44 0.524 7.6 277.5 10.08
6/27/2021 10:30:00 AM 15.9 60.62 0.524 7.61 284 10.24
6/27/2021 10:45:00 AM 16.04 60.872 0.523 7.62 294.4 10.41
6/27/2021 11:00:00 AM 16.17 61.106 0.523 7.62 265.9 10.52
6/27/2021 11:15:00 AM 16.34 61.412 0.522 7.64 254.8 10.65
6/27/2021 11:30:00 AM 16.51 61.718 0.522 7.65 332 10.78
6/27/2021 11:45:00 AM 16.69 62.042 0.521 7.66 244.1 10.93
6/27/2021 12:00:00 PM 16.91 62.438 0.52 7.66 436.3 11.07
6/27/2021 12:15:00 PM 17.14 62.852 0.518 7.68 498.2 11.2
6/27/2021 12:30:00 PM 17.36 63.248 0.517 7.69 584.3 11.3
6/27/2021 12:45:00 PM 17.56 63.608 0.514 7.7 733.4 11.38
6/27/2021 1:00:00 PM 17.77 63.986 0.514 7.71 660.3 11.42
6/27/2021 1:15:00 PM 17.95 64.31 0.514 7.72 441.8 11.46
6/27/2021 1:30:00 PM 18.18 64.724 0.511 7.73 440.5 11.57
6/27/2021 1:45:00 PM 18.41 65.138 0.509 7.74 453.1 11.65
6/27/2021 2:00:00 PM 18.64 65.552 0.507 7.75 504.4 11.73
6/27/2021 2:15:00 PM 18.88 65.984 0.509 7.76 627.5 11.76
6/27/2021 2:30:00 PM 19.06 66.308 0.509 7.77 466.6 11.76
6/27/2021 2:45:00 PM 19.12 66.416 0.509 7.77 373 11.6
6/27/2021 3:00:00 PM 19.14 66.452 0.507 7.78 462.6 11.46
6/27/2021 3:15:00 PM 19.25 66.65 0.508 7.78 402.2 11.39
6/27/2021 3:30:00 PM 19.44 66.992 0.509 7.79 524.6 11.42
6/27/2021 3:45:00 PM 19.64 67.352 0.505 7.8 413.8 11.4
6/27/2021 4:00:00 PM 19.82 67.676 0.505 7.8 812.5 11.39
6/27/2021 4:15:00 PM 19.91 67.838 0.503 7.8 426.2 11.21
6/27/2021 4:30:00 PM 19.94 67.892 0.502 7.8 383.6 11.03
6/27/2021 4:45:00 PM 20.11 68.198 0.499 7.81 416.2 11.03
6/27/2021 5:00:00 PM 20.23 68.414 0.497 7.81 338.7 10.98
6/27/2021 5:15:00 PM 20.34 68.612 0.498 7.81 560 10.93
6/27/2021 5:30:00 PM 20.44 68.792 0.497 7.81 653.8 10.75
6/27/2021 5:45:00 PM 20.54 68.972 0.493 7.81 602.3 10.64
6/27/2021 6:00:00 PM 20.58 69.044 0.494 7.8 604.7 10.38
6/27/2021 6:15:00 PM 20.63 69.134 0.495 7.79 365.5 10.14
6/27/2021 6:30:00 PM 20.71 69.278 0.495 7.78 516.8 10.04
6/27/2021 6:45:00 PM 20.76 69.368 0.493 7.78 531 9.86
6/27/2021 7:00:00 PM 20.82 69.476 0.493 7.77 375 9.72
6/27/2021 7:15:00 PM 20.86 69.548 0.492 7.76 433.4 9.51
6/27/2021 7:30:00 PM 20.89 69.602 0.492 7.77 430.7 9.34
6/27/2021 7:45:00 PM 20.92 69.656 0.493 7.77 482.3 9.19
6/27/2021 8:00:00 PM 20.92 69.656 0.493 7.75 479.7 8.99
6/27/2021 8:15:00 PM 20.92 69.656 0.493 7.74 470.9 8.8
6/27/2021 8:30:00 PM 20.92 69.656 0.494 7.73 572.4 8.62
6/27/2021 8:45:00 PM 20.9 69.62 0.494 7.72 448.9 8.43
6/27/2021 9:00:00 PM 20.89 69.602 0.495 7.7 604.7 8.26
6/27/2021 9:15:00 PM 20.85 69.53 0.496 7.69 579.9 8.12
6/27/2021 9:30:00 PM 20.82 69.476 0.497 7.67 402.1 7.98
6/27/2021 9:45:00 PM 20.78 69.404 0.498 7.66 384 7.85
6/27/2021 10:00:00 PM 20.73 69.314 0.498 7.65 394.9 7.76
6/27/2021 10:15:00 PM 20.68 69.224 0.499 7.64 354.1 7.65
6/27/2021 10:30:00 PM 20.62 69.116 0.501 7.62 575.6 7.58
6/27/2021 10:45:00 PM 20.56 69.008 0.501 7.61 429.1 7.48
6/27/2021 11:00:00 PM 20.48 68.864 0.502 7.6 459.3 7.4
6/27/2021 11:15:00 PM 20.41 68.738 0.503 7.59 505.6 7.37
6/27/2021 11:30:00 PM 20.33 68.594 0.504 7.58 503.7 7.32
6/27/2021 11:45:00 PM 20.25 68.45 0.506 7.57 387.5 7.3
6/28/2021 12:00:00 AM 20.17 68.306 0.506 7.56 320.6 7.27
6/28/2021 12:15:00 AM 20.09 68.162 0.507 7.56 257.3 7.24
6/28/2021 12:30:00 AM 20.01 68.018 0.509 7.55 622.2 7.2
6/28/2021 12:45:00 AM 19.92 67.856 0.51 7.54 311.4 7.19
6/28/2021 1:00:00 AM 19.83 67.694 0.511 7.54 518.9 7.17
6/28/2021 1:15:00 AM 19.74 67.532 0.512 7.53 449.6 7.16
6/28/2021 1:30:00 AM 19.64 67.352 0.513 7.52 553 7.17
6/28/2021 1:45:00 AM 19.54 67.172 0.513 7.52 730.3 7.16
6/28/2021 2:00:00 AM 19.43 66.974 0.514 7.51 526.9 7.18
6/28/2021 2:15:00 AM 19.32 66.776 0.515 7.5 706.9 7.16
6/28/2021 2:30:00 AM 19.2 66.56 0.517 7.5 768 7.18
6/28/2021 2:45:00 AM 19.08 66.344 0.517 7.49 469.8 7.2
6/28/2021 3:00:00 AM 18.96 66.128 0.518 7.49 782.8 7.2
6/28/2021 3:15:00 AM 18.82 65.876 0.519 7.48 641.3 7.25
6/28/2021 3:30:00 AM 18.68 65.624 0.521 7.48 546.4 7.29
6/28/2021 3:45:00 AM 18.55 65.39 0.521 7.48 767.6 7.3
6/28/2021 4:00:00 AM 18.4 65.12 0.521 7.48 488.4 7.34
6/28/2021 4:15:00 AM 18.26 64.868 0.522 7.47 580.4 7.38
6/28/2021 4:30:00 AM 18.12 64.616 0.522 7.47 732 7.42
6/28/2021 4:45:00 AM 17.98 64.364 0.523 7.47 468.9 7.45
6/28/2021 5:00:00 AM 17.84 64.112 0.523 7.47 606 7.49
6/28/2021 5:15:00 AM 17.7 63.86 0.523 7.47 562.8 7.53
6/28/2021 5:30:00 AM 17.57 63.626 0.524 7.46 699.4 7.56
6/28/2021 5:45:00 AM 17.44 63.392 0.524 7.46 664.3 7.59
6/28/2021 6:00:00 AM 17.32 63.176 0.525 7.46 876.6 7.63
6/28/2021 6:15:00 AM 17.2 62.96 0.525 7.46 749.8 7.71
6/28/2021 6:30:00 AM 17.08 62.744 0.526 7.47 802.3 7.78
6/28/2021 6:45:00 AM 16.96 62.528 0.526 7.47 661.4 7.88
6/28/2021 7:00:00 AM 16.87 62.366 0.526 7.47 760.8 7.95
6/28/2021 7:15:00 AM 16.77 62.186 0.526 7.47 548.2 8.05
6/28/2021 7:30:00 AM 16.68 62.024 0.53 7.48 626.2 8.15
6/28/2021 7:45:00 AM 16.6 61.88 0.53 7.48 804.8 8.25
6/28/2021 8:00:00 AM 16.54 61.772 0.53 7.48 462.4 8.39
6/28/2021 8:15:00 AM 16.48 61.664 0.53 7.48 800.6 8.55
6/28/2021 8:30:00 AM 16.43 61.574 0.53 7.49 934 8.7
6/28/2021 8:45:00 AM 16.4 61.52 0.529 7.5 702.3 8.85
6/28/2021 9:00:00 AM 16.37 61.466 0.529 7.51 831 9
6/28/2021 9:15:00 AM 16.37 61.466 0.529 7.52 856.7 9.17
6/28/2021 9:30:00 AM 16.39 61.502 0.529 7.53 767 9.33
6/28/2021 9:45:00 AM 16.43 61.574 0.529 7.54 744.2 9.51
6/28/2021 10:00:00 AM 16.5 61.7 0.528 7.55 1202 9.66
6/28/2021 10:15:00 AM 16.58 61.844 0.527 7.56 733.2 9.84
6/28/2021 10:30:00 AM 16.68 62.024 0.527 7.57 540.4 10.01
6/28/2021 10:45:00 AM 16.79 62.222 0.526 7.58 641.3 10.18
6/28/2021 11:00:00 AM 16.94 62.492 0.526 7.59 633.7 10.32
6/28/2021 11:15:00 AM 17.1 62.78 0.525 7.61 740 10.48
6/28/2021 11:30:00 AM 17.26 63.068 0.524 7.61 662.5 10.61
6/28/2021 11:45:00 AM 17.44 63.392 0.523 7.62 904.6 10.74
6/28/2021 12:00:00 PM 17.63 63.734 0.523 7.64 786 10.88
6/28/2021 12:15:00 PM 17.82 64.076 0.521 7.65 778.5 11.03
6/28/2021 12:30:00 PM 18.03 64.454 0.521 7.66 1239 11.1
6/28/2021 12:45:00 PM 18.22 64.796 0.521 7.67 1087 11.21
6/28/2021 1:00:00 PM 18.43 65.174 0.519 7.68 956.3 11.31
6/28/2021 1:15:00 PM 18.64 65.552 0.516 7.69 1006 11.4
6/28/2021 1:30:00 PM 18.86 65.948 0.515 7.7 864.6 11.51
6/28/2021 1:45:00 PM 19.06 66.308 0.51 7.71 889 11.57
6/28/2021 2:00:00 PM 19.25 66.65 0.508 7.72 1016 11.59
6/28/2021 2:15:00 PM 19.44 66.992 0.505 7.73 1008 11.65
6/28/2021 2:30:00 PM 19.65 67.37 0.5 7.74 875.2 11.66
6/28/2021 2:45:00 PM 19.82 67.676 0.499 7.75 932.2 11.68
6/28/2021 3:00:00 PM 20.01 68.018 0.5 7.75 896.8 11.65
6/28/2021 3:15:00 PM 20.18 68.324 0.496 7.76 688.1 11.63
6/28/2021 3:30:00 PM 20.34 68.612 0.496 7.77 678.5 11.52
6/28/2021 3:45:00 PM 20.5 68.9 0.491 7.77 799.3 11.53
6/28/2021 4:00:00 PM 20.64 69.152 0.496 7.78 1061 11.42
6/28/2021 4:15:00 PM 20.78 69.404 0.493 7.78 1453 11.34
6/28/2021 4:30:00 PM 20.92 69.656 0.491 7.81 931.9 11.25
6/28/2021 4:45:00 PM 21.05 69.89 0.487 7.81 1091 11.15
6/28/2021 5:00:00 PM 21.19 70.142 0.484 7.82 905.3 11.03
6/28/2021 5:15:00 PM 21.32 70.376 0.495 7.82 1070 10.99
6/28/2021 5:30:00 PM 21.43 70.574 0.496 7.82 1017 10.89
6/28/2021 5:45:00 PM 21.51 70.718 0.493 7.83 1128 10.77
6/28/2021 6:00:00 PM 21.59 70.862 0.494 7.83 1127 10.56
6/28/2021 6:15:00 PM 21.66 70.988 0.49 7.83 1467 10.38
6/28/2021 6:30:00 PM 21.72 71.096 0.488 7.83 1004 10.2
6/28/2021 6:45:00 PM 21.78 71.204 0.486 7.83 763.3 9.96
6/28/2021 7:00:00 PM 21.83 71.294 0.484 7.82 1170 9.75
6/28/2021 7:15:00 PM 21.87 71.366 0.483 7.82 1311 9.54
6/28/2021 7:30:00 PM 21.91 71.438 0.482 7.81 851 9.31
6/28/2021 7:45:00 PM 21.94 71.492 0.482 7.8 1075 9.05
6/28/2021 8:00:00 PM 21.95 71.51 0.49 7.79 1083 8.85
6/28/2021 8:15:00 PM 21.97 71.546 0.49 7.78 1059 8.65
6/28/2021 8:30:00 PM 21.96 71.528 0.492 7.76 1221 8.45
6/28/2021 8:45:00 PM 21.95 71.51 0.493 7.74 1406 8.26
6/28/2021 9:00:00 PM 21.94 71.492 0.493 7.73 843.2 8.07
6/28/2021 9:15:00 PM 21.91 71.438 0.494 7.72 1087 7.91
6/28/2021 9:30:00 PM 21.87 71.366 0.494 7.7 1160 7.79
6/28/2021 9:45:00 PM 21.82 71.276 0.495 7.69 1244 7.66
6/28/2021 10:00:00 PM 21.77 71.186 0.495 7.67 952 7.55
6/28/2021 10:15:00 PM 21.71 71.078 0.496 7.65 1408 7.45
6/28/2021 10:30:00 PM 21.64 70.952 0.497 7.64 1243 7.34
6/28/2021 10:45:00 PM 21.57 70.826 0.498 7.63 1350 7.26
6/28/2021 11:00:00 PM 21.49 70.682 0.499 7.61 1288 7.16
6/28/2021 11:15:00 PM 21.41 70.538 0.501 7.59 1330 7.09
6/28/2021 11:30:00 PM 21.33 70.394 0.502 7.58 1077 7.01
6/28/2021 11:45:00 PM 21.25 70.25 0.503 7.57 1352 6.98
6/29/2021 12:00:00 AM 21.16 70.088 0.504 7.56 1338 6.94
6/29/2021 12:15:00 AM 21.07 69.926 0.505 7.55 1540 6.94
6/29/2021 12:30:00 AM 20.97 69.746 0.506 7.54 1095 6.93
6/29/2021 12:45:00 AM 20.88 69.584 0.508 7.53 965.1 6.89
6/29/2021 1:00:00 AM 20.77 69.386 0.509 7.52 1190 6.9
6/29/2021 1:15:00 AM 20.67 69.206 0.511 7.52 1077 6.86
6/29/2021 1:30:00 AM 20.56 69.008 0.514 7.51 968 6.86
6/29/2021 1:45:00 AM 20.44 68.792 0.516 7.5 1420 6.85
6/29/2021 2:00:00 AM 20.33 68.594 0.517 7.5 959 6.85
6/29/2021 2:15:00 AM 20.21 68.378 0.518 7.49 1199 6.87
6/29/2021 2:30:00 AM 20.08 68.144 0.518 7.49 1008 6.86
6/29/2021 2:45:00 AM 19.95 67.91 0.519 7.48 1331 6.91
6/29/2021 3:00:00 AM 19.83 67.694 0.519 7.48 935.1 6.91
6/29/2021 3:15:00 AM 19.69 67.442 0.52 7.47 1300 6.95
6/29/2021 3:30:00 AM 19.56 67.208 0.52 7.47 1283 6.98
6/29/2021 3:45:00 AM 19.41 66.938 0.521 7.46 1273 7.04
6/29/2021 4:00:00 AM 19.27 66.686 0.522 7.46 1740 7.03
6/29/2021 4:15:00 AM 19.12 66.416 0.523 7.46 1233 7.07
6/29/2021 4:30:00 AM 18.98 66.164 0.524 7.45 1360 7.11
6/29/2021 4:45:00 AM 18.83 65.894 0.525 7.45 1083 7.16
6/29/2021 5:00:00 AM 18.67 65.606 0.525 7.39 925 7.19
6/29/2021 5:15:00 AM 18.53 65.354 0.526 7.4 1284 7.22
6/29/2021 5:30:00 AM 18.39 65.102 0.526 7.4 1400 7.27
6/29/2021 5:45:00 AM 18.24 64.832 0.526 7.4 1028 7.3
6/29/2021 6:00:00 AM 18.11 64.598 0.527 7.4 1217 7.37
6/29/2021 6:15:00 AM 17.98 64.364 0.527 7.41 1205 7.44
6/29/2021 6:30:00 AM 17.86 64.148 0.527 7.41 1384 7.5
6/29/2021 6:45:00 AM 17.74 63.932 0.526 7.41 1134 7.58
6/29/2021 7:00:00 AM 17.62 63.716 0.526 7.41 1628 7.68
6/29/2021 7:15:00 AM 17.53 63.554 0.526 7.42 1372 7.79
6/29/2021 7:30:00 AM 17.44 63.392 0.526 7.43 1007 7.9
6/29/2021 7:45:00 AM 17.36 63.248 0.526 7.44 1901 8.02
6/29/2021 8:00:00 AM 17.29 63.122 0.526 7.45 1466 8.16
6/29/2021 8:15:00 AM 17.23 63.014 0.527 7.46 1688 8.28
6/29/2021 8:30:00 AM 17.18 62.924 0.526 7.46 1530 8.45
6/29/2021 8:45:00 AM 17.14 62.852 0.526 7.48 1263 8.63
6/29/2021 9:00:00 AM 17.12 62.816 0.527 7.49 1401 8.79
6/29/2021 9:15:00 AM 17.11 62.798 0.527 7.5 1571 8.96
6/29/2021 9:30:00 AM 17.11 62.798 0.527 7.51 1295 9.16
6/29/2021 9:45:00 AM 17.14 62.852 0.527 7.52 1573 9.33
6/29/2021 10:00:00 AM 17.19 62.942 0.526 7.53 1710 9.52
6/29/2021 10:15:00 AM 17.27 63.086 0.526 7.54 1002 9.7
6/29/2021 10:30:00 AM 17.37 63.266 0.525 7.56 1167 9.9
6/29/2021 10:45:00 AM 17.47 63.446 0.525 7.57 1118 10.07
6/29/2021 11:00:00 AM 17.6 63.68 0.524 7.58 1700 10.19
6/29/2021 11:15:00 AM 17.73 63.914 0.523 7.59 1770 10.38
6/29/2021 11:30:00 AM 17.89 64.202 0.523 7.6 1323 10.53
6/29/2021 11:45:00 AM 18.04 64.472 0.523 7.61 1348 10.68
6/29/2021 12:00:00 PM 18.2 64.76 0.521 7.62 1700 10.8
6/29/2021 12:15:00 PM 18.35 65.03 0.521 7.64 1599 10.91
6/29/2021 12:30:00 PM 18.52 65.336 0.52 7.65 1784 11
6/29/2021 12:45:00 PM 18.67 65.606 0.516 7.66 1380 11.08
6/29/2021 1:00:00 PM 18.85 65.93 0.516 7.67 1371 11.2
6/29/2021 1:15:00 PM 19.05 66.29 0.517 7.68 1663 11.36
6/29/2021 1:30:00 PM 19.33 66.794 0.515 7.7 1528 11.5
6/29/2021 1:45:00 PM 19.57 67.226 0.509 7.71 1533 11.62
6/29/2021 2:00:00 PM 19.78 67.604 0.505 7.72 1355 11.73
6/29/2021 2:15:00 PM 19.97 67.946 0.5 7.73 2172 11.75
6/29/2021 2:30:00 PM 20.13 68.234 0.51 7.74 1318 11.76
6/29/2021 2:45:00 PM 20.29 68.522 0.508 7.75 1393 11.8
6/29/2021 3:00:00 PM 20.43 68.774 0.501 7.76 1551 11.78
6/29/2021 3:15:00 PM 20.6 69.08 0.5 7.76 1473 11.71
6/29/2021 3:30:00 PM 20.66 69.188 0.502 7.76 1386 11.53
6/29/2021 3:45:00 PM 20.77 69.386 0.499 7.77 1629 11.47
6/29/2021 4:00:00 PM 20.9 69.62 0.503 7.8 972.4 11.43
6/29/2021 4:15:00 PM 20.92 69.656 0.503 7.8 1345 11.23
6/29/2021 4:30:00 PM 20.89 69.602 0.5 7.79 1355 10.95
6/29/2021 4:45:00 PM 20.94 69.692 0.501 7.79 1603 10.76
6/29/2021 5:00:00 PM 20.96 69.728 0.501 7.79 1845 10.61
6/29/2021 5:15:00 PM 21.12 70.016 0.498 7.79 1467 10.64
6/29/2021 5:30:00 PM 21.15 70.07 0.496 7.8 1781 10.42
6/29/2021 5:45:00 PM 21.28 70.304 0.496 7.8 1321 10.34
6/29/2021 6:00:00 PM 21.38 70.484 0.496 7.8 1352 10.26
6/29/2021 6:15:00 PM 21.46 70.628 0.492 7.8 1561 10.15
6/29/2021 6:30:00 PM 21.53 70.754 0.493 7.8 1170 10.01
6/29/2021 6:45:00 PM 21.57 70.826 0.493 7.8 1415 9.79
6/29/2021 7:00:00 PM 21.59 70.862 0.492 7.79 1536 9.55
6/29/2021 7:15:00 PM 21.62 70.916 0.491 7.78 1689 9.32
6/29/2021 7:30:00 PM 21.65 70.97 0.491 7.75 1639 9.07
6/29/2021 7:45:00 PM 21.67 71.006 0.491 7.74 1633 8.76
6/29/2021 8:00:00 PM 21.69 71.042 0.493 7.72 1671 8.48
6/29/2021 8:15:00 PM 21.72 71.096 0.495 7.71 1300 8.34
6/29/2021 8:30:00 PM 21.73 71.114 0.495 7.7 1485 8.19
6/29/2021 8:45:00 PM 21.73 71.114 0.494 7.69 1723 8.07
6/29/2021 9:00:00 PM 21.73 71.114 0.494 7.68 1775 7.93
6/29/2021 9:15:00 PM 21.73 71.114 0.493 7.67 1429 7.82
6/29/2021 9:30:00 PM 21.71 71.078 0.493 7.65 1787 7.68
6/29/2021 9:45:00 PM 21.68 71.024 0.494 7.64 1762 7.54
6/29/2021 10:00:00 PM 21.64 70.952 0.495 7.62 1588 7.45
6/29/2021 10:15:00 PM 21.58 70.844 0.495 7.62 1750 7.32
6/29/2021 10:30:00 PM 21.53 70.754 0.496 7.6 1622 7.25
6/29/2021 10:45:00 PM 21.46 70.628 0.497 7.59 1228 7.16
6/29/2021 11:00:00 PM 21.39 70.502 0.498 7.57 1258 7.11
6/29/2021 11:15:00 PM 21.31 70.358 0.499 7.56 1794 7.06
6/29/2021 11:30:00 PM 21.24 70.232 0.5 7.55 1485 7
6/29/2021 11:45:00 PM 21.17 70.106 0.501 7.54 1511 6.96
6/30/2021 12:00:00 AM 21.09 69.962 0.502 7.54 1627 6.91
6/30/2021 12:15:00 AM 21.02 69.836 0.503 7.52 2090 6.87
6/30/2021 12:30:00 AM 20.94 69.692 0.504 7.52 1088 6.87
6/30/2021 12:45:00 AM 20.86 69.548 0.505 7.51 1430 6.84
6/30/2021 1:00:00 AM 20.78 69.404 0.505 7.51 1623 6.82
6/30/2021 1:15:00 AM 20.69 69.242 0.506 7.5 1812 6.83
6/30/2021 1:30:00 AM 20.6 69.08 0.507 7.5 1898 6.8
6/30/2021 1:45:00 AM 20.51 68.918 0.508 7.5 1720 6.8
6/30/2021 2:00:00 AM 20.41 68.738 0.509 7.49 1687 6.81
6/30/2021 2:15:00 AM 20.31 68.558 0.511 7.48 1648 6.83
6/30/2021 2:30:00 AM 20.2 68.36 0.511 7.48 2086 6.83
6/30/2021 2:45:00 AM 20.09 68.162 0.512 7.48 1033 6.84
6/30/2021 3:00:00 AM 19.98 67.964 0.514 7.48 2402 6.88
6/30/2021 3:15:00 AM 19.87 67.766 0.515 7.47 1347 6.88
6/30/2021 3:30:00 AM 19.76 67.568 0.515 7.47 1968 6.89
6/30/2021 3:45:00 AM 19.63 67.334 0.516 7.46 1353 6.91
6/30/2021 4:00:00 AM 19.5 67.1 0.517 7.43 1402 6.94
6/30/2021 4:15:00 AM 19.38 66.884 0.518 7.42 1768 6.97
6/30/2021 4:30:00 AM 19.25 66.65 0.519 7.43 1886 6.98
6/30/2021 4:45:00 AM 19.12 66.416 0.519 7.42 1433 7.02
6/30/2021 5:00:00 AM 19 66.2 0.519 7.43 1856 7.06
6/30/2021 5:15:00 AM 18.87 65.966 0.52 7.43 1650 7.1
6/30/2021 5:30:00 AM 18.74 65.732 0.521 7.43 1609 7.12
6/30/2021 5:45:00 AM 18.62 65.516 0.521 7.43 1517 7.16
6/30/2021 6:00:00 AM 18.5 65.3 0.521 7.43 1985 7.21
6/30/2021 6:15:00 AM 18.38 65.084 0.521 7.43 1590 7.26
6/30/2021 6:30:00 AM 18.27 64.886 0.522 7.43 1528 7.34
6/30/2021 6:45:00 AM 18.16 64.688 0.522 7.44 1272 7.4
6/30/2021 7:00:00 AM 18.05 64.49 0.523 7.44 1723 7.5
6/30/2021 7:15:00 AM 17.96 64.328 0.523 7.44 1901 7.59
6/30/2021 7:30:00 AM 17.87 64.166 0.523 7.45 1790 7.7
6/30/2021 7:45:00 AM 17.78 64.004 0.524 7.46 1761 7.82
6/30/2021 8:00:00 AM 17.71 63.878 0.524 7.46 1900 7.94
6/30/2021 8:15:00 AM 17.64 63.752 0.525 7.47 1817 8.07
6/30/2021 8:30:00 AM 17.59 63.662 0.525 7.48 1704 8.23
6/30/2021 8:45:00 AM 17.55 63.59 0.526 7.49 1245 8.42
6/30/2021 9:00:00 AM 17.51 63.518 0.526 7.5 1541 8.59
6/30/2021 9:15:00 AM 17.49 63.482 0.526 7.51 1868 8.75
6/30/2021 9:30:00 AM 17.5 63.5 0.527 7.52 1727 8.94
6/30/2021 9:45:00 AM 17.54 63.572 0.526 7.54 1526 9.15
6/30/2021 10:00:00 AM 17.6 63.68 0.524 7.55 1718 9.33
6/30/2021 10:15:00 AM 17.67 63.806 0.525 7.55 1792 9.52
6/30/2021 10:30:00 AM 17.73 63.914 0.524 7.57 1514 9.71
6/30/2021 10:45:00 AM 17.85 64.13 0.523 7.58 1670 9.87
6/30/2021 11:00:00 AM 17.97 64.346 0.521 7.59 1722 10.04
6/30/2021 11:15:00 AM 18.11 64.598 0.521 7.6 1739 10.19
6/30/2021 11:30:00 AM 18.28 64.904 0.52 7.61 1691 10.36
6/30/2021 11:45:00 AM 18.47 65.246 0.52 7.63 1845 10.48
6/30/2021 12:00:00 PM 18.65 65.57 0.519 7.63 1885 10.6
6/30/2021 12:15:00 PM 18.86 65.948 0.517 7.64 1738 10.78
6/30/2021 12:30:00 PM 19.01 66.218 0.515 7.65 1401 10.86
6/30/2021 12:45:00 PM 19.18 66.524 0.514 7.66 2260 10.89
6/30/2021 1:00:00 PM 19.4 66.92 0.514 7.67 2510 10.86
6/30/2021 1:15:00 PM 19.59 67.262 0.513 7.68 2181 10.93
6/30/2021 1:30:00 PM 19.76 67.568 0.511 7.68 1968 11.07
6/30/2021 1:45:00 PM 19.96 67.92799 0.51 7.69 2141 11.14
6/30/2021 2:00:00 PM 20.19 68.342 0.5 7.7 1851 11.24
6/30/2021 2:15:00 PM 20.37 68.666 0.5 7.71 2054 11.3
6/30/2021 2:30:00 PM 20.56 69.008 0.496 7.72 2357 11.37
6/30/2021 2:45:00 PM 20.77 69.386 0.496 7.72 2746 11.4
6/30/2021 3:00:00 PM 20.95 69.71 0.487 7.76 2326 11.37
6/30/2021 3:15:00 PM 21.14 70.052 0.5 7.77 1210 11.36
6/30/2021 3:30:00 PM 21.32 70.376 0.493 7.77 2296 11.31
6/30/2021 3:45:00 PM 21.39 70.502 0.495 7.77 2738 11.03
6/30/2021 4:00:00 PM 21.34 70.412 0.494 7.76 2514 10.63
6/30/2021 4:15:00 PM 21.32 70.376 0.494 7.76 2951 10.38
6/30/2021 4:30:00 PM 21.3 70.34 0.493 7.76 3049 10.22
6/30/2021 4:45:00 PM 21.27 70.286 0.493 7.76 3194 9.94
6/30/2021 5:00:00 PM 21.45 70.61 0.52 7.73 2725 9.66
6/30/2021 5:15:00 PM 21.42 70.556 0.504 7.73 2609 9.6
6/30/2021 5:30:00 PM 21.42 70.556 0.494 7.74 2070 9.52
6/30/2021 5:45:00 PM 21.47 70.646 0.49 7.75 1849 9.49
6/30/2021 6:00:00 PM 21.51 70.718 0.488 7.75 2709 9.45
6/30/2021 6:15:00 PM 21.53 70.754 0.487 7.73 2877 9.31
6/30/2021 6:30:00 PM 21.52 70.736 0.486 7.73 3012 9.19
6/30/2021 6:45:00 PM 21.51 70.718 0.487 7.73 2852 8.93
6/30/2021 7:00:00 PM 21.5 70.7 0.486 7.72 2668 8.71
6/30/2021 7:15:00 PM 21.49 70.682 0.486 7.71 3205 8.53
6/30/2021 7:30:00 PM 21.48 70.664 0.486 7.71 2697 8.36
6/30/2021 7:45:00 PM 21.48 70.664 0.486 7.7 2400 8.28
6/30/2021 8:00:00 PM 21.48 70.664 0.486 7.69 2408 8.16
6/30/2021 8:15:00 PM 21.46 70.628 0.487 7.69 2465 8.07
6/30/2021 8:30:00 PM 21.43 70.574 0.486 7.68 2907 7.97
6/30/2021 8:45:00 PM 21.39 70.502 0.487 7.66 2228 7.83
6/30/2021 9:00:00 PM 21.34 70.412 0.488 7.65 2588 7.7
6/30/2021 9:15:00 PM 21.29 70.32201 0.489 7.63 2423 7.58
6/30/2021 9:30:00 PM 21.23 70.214 0.489 7.62 2705 7.44
6/30/2021 9:45:00 PM 21.17 70.106 0.491 7.61 2463 7.35
6/30/2021 10:00:00 PM 21.11 69.998 0.492 7.6 2684 7.27
6/30/2021 10:15:00 PM 21.04 69.872 0.492 7.58 2740 7.18
6/30/2021 10:30:00 PM 20.97 69.746 0.493 7.57 2608 7.16
6/30/2021 10:45:00 PM 20.89 69.602 0.494 7.57 2968 7.16
6/30/2021 11:00:00 PM 20.82 69.476 0.495 7.56 2605 7.07
6/30/2021 11:15:00 PM 20.73 69.314 0.496 7.55 2668 7.02
6/30/2021 11:30:00 PM 20.66 69.188 0.497 7.55 2866 7
6/30/2021 11:45:00 PM 20.57 69.026 0.498 7.54 3205 6.99
7/1/2021 12:00:00 AM 20.49 68.882 0.499 7.54 2296 6.96
7/1/2021 12:15:00 AM 20.41 68.738 0.5 7.53 2701 6.93
7/1/2021 12:30:00 AM 20.32 68.576 0.501 7.52 2884 6.94
7/1/2021 12:45:00 AM 20.24 68.432 0.503 7.52 2863 6.91
7/1/2021 1:00:00 AM 20.16 68.288 0.504 7.51 1930 6.9
7/1/2021 1:15:00 AM 20.07 68.126 0.505 7.5 2673 6.9
7/1/2021 1:30:00 AM 19.98 67.964 0.507 7.5 2199 6.9
7/1/2021 1:45:00 AM 19.89 67.802 0.509 7.49 2959 6.91
7/1/2021 2:00:00 AM 19.79 67.622 0.511 7.51 2596 6.9
7/1/2021 2:15:00 AM 19.68 67.424 0.514 7.5 3424 6.9
7/1/2021 2:30:00 AM 19.58 67.244 0.516 7.49 2551 6.94
7/1/2021 2:45:00 AM 19.47 67.046 0.518 7.49 2700 6.96
7/1/2021 3:00:00 AM 19.37 66.866 0.52 7.49 3348 6.97
7/1/2021 3:15:00 AM 19.26 66.668 0.521 7.49 3553 7.01
7/1/2021 3:30:00 AM 19.15 66.47 0.521 7.48 3021 7.03
7/1/2021 3:45:00 AM 19.05 66.29 0.521 7.47 3347 7.04
7/1/2021 4:00:00 AM 18.94 66.092 0.521 7.47 3242 7.08
7/1/2021 4:15:00 AM 18.82 65.876 0.521 7.47 2832 7.08
7/1/2021 4:30:00 AM 18.71 65.67799 0.521 7.48 3022 7.1
7/1/2021 4:45:00 AM 18.6 65.48 0.521 7.47 2667 7.12
7/1/2021 5:00:00 AM 18.5 65.3 0.521 7.47 3015 7.19
7/1/2021 5:15:00 AM 18.38 65.084 0.521 7.47 2675 7.2
7/1/2021 5:30:00 AM 18.27 64.886 0.522 7.47 2731 7.24
7/1/2021 5:45:00 AM 18.16 64.688 0.522 7.47 3058 7.29
7/1/2021 6:00:00 AM 18.04 64.472 0.523 7.46 2476 7.29
7/1/2021 6:15:00 AM 17.92 64.256 0.522 7.45 3193 7.35
7/1/2021 6:30:00 AM 17.85 64.13 0.524 7.43 3163 7.31
7/1/2021 6:45:00 AM 17.73 63.914 0.525 7.43 2992 7.34
7/1/2021 7:00:00 AM 17.74 63.932 0.528 7.42 3108 7.35
7/1/2021 7:15:00 AM 17.56 63.608 0.524 7.43 2880 7.43
7/1/2021 7:30:00 AM 17.45 63.41 0.524 7.43 3020 7.5
7/1/2021 7:45:00 AM 17.4 63.32 0.527 7.43 3121 7.56
7/1/2021 8:00:00 AM 17.34 63.212 0.531 7.44 2826 7.71
7/1/2021 8:15:00 AM 17.22 62.996 0.529 7.45 2327 7.8
7/1/2021 8:30:00 AM 17.15 62.87 0.528 7.45 1877 7.88
7/1/2021 8:45:00 AM 17.18 62.924 0.529 7.45 2247 7.91
7/1/2021 9:00:00 AM 17.78 64.004 0.514 7.46 3041 7.88
7/1/2021 9:15:00 AM 17.33 63.194 0.507 7.45 2327 7.96
7/1/2021 9:30:00 AM 17.02 62.636 0.511 7.46 2840 8.09
7/1/2021 9:45:00 AM 16.84 62.312 0.511 7.47 1354 8.25
7/1/2021 10:00:00 AM 16.76 62.168 0.511 7.47 1822 8.36
7/1/2021 10:15:00 AM 16.72 62.096 0.509 7.48 2219 8.51
7/1/2021 10:30:00 AM 16.72 62.096 0.506 7.48 2062 8.49
7/1/2021 10:45:00 AM 16.8 62.24 0.507 7.48 1104 8.48
7/1/2021 11:00:00 AM 16.76 62.168 0.508 7.48 1480 8.53
7/1/2021 11:15:00 AM 16.73 62.114 0.503 7.48 1876 8.59
7/1/2021 11:30:00 AM 16.74 62.132 0.494 7.47 1466 8.64
7/1/2021 11:45:00 AM 16.81 62.258 0.486 7.47 1441 8.57
7/1/2021 12:00:00 PM 16.93 62.474 0.479 7.47 1435 8.58
7/1/2021 12:15:00 PM 17.05 62.69 0.47 7.46 1597 8.61
7/1/2021 12:30:00 PM 17.15 62.87 0.465 7.46 1948 8.66
7/1/2021 12:45:00 PM 17.25 63.05 0.461 7.46 1618 8.69
7/1/2021 1:00:00 PM 17.31 63.158 0.456 7.45 1236 8.62
7/1/2021 1:15:00 PM 17.36 63.248 0.456 7.46 1804 8.65
7/1/2021 1:30:00 PM 17.4 63.32 0.459 7.46 1711 8.83
7/1/2021 1:45:00 PM 17.37 63.266 0.464 7.47 1549 9.05
7/1/2021 2:00:00 PM 17.34 63.212 0.468 7.49 1397 9.3
7/1/2021 2:15:00 PM 17.31 63.158 0.472 7.51 2265 9.36
7/1/2021 2:30:00 PM 17.28 63.104 0.474 7.52 1435 9.5
7/1/2021 2:45:00 PM 17.28 63.104 0.475 7.54 1400 9.66
7/1/2021 3:00:00 PM 17.28 63.104 0.475 7.56 2190 9.78
7/1/2021 3:15:00 PM 17.29 63.122 0.476 7.57 1474 9.86
7/1/2021 3:30:00 PM 17.34 63.212 0.477 7.58 1632 10.01
7/1/2021 3:45:00 PM 17.32 63.176 0.479 7.6 1730 9.97
7/1/2021 4:00:00 PM 17.35 63.23 0.478 7.61 1501 10.02
7/1/2021 4:15:00 PM 17.37 63.266 0.478 7.61 1220 9.97
7/1/2021 4:30:00 PM 17.41 63.338 0.477 7.61 1644 9.95
7/1/2021 4:45:00 PM 17.48 63.464 0.475 7.62 1686 9.95
7/1/2021 5:00:00 PM 17.54 63.572 0.472 7.63 1660 9.95
7/1/2021 5:15:00 PM 17.6 63.68 0.469 7.63 1401 9.85
7/1/2021 5:30:00 PM 17.65 63.77 0.467 7.63 1384 9.68
7/1/2021 5:45:00 PM 17.66 63.788 0.467 7.62 1496 9.51
7/1/2021 6:00:00 PM 17.66 63.788 0.467 7.62 1211 9.39
7/1/2021 6:15:00 PM 17.65 63.77 0.466 7.61 1816 9.33
7/1/2021 6:30:00 PM 17.64 63.752 0.466 7.61 1753 9.23
7/1/2021 6:45:00 PM 17.64 63.752 0.465 7.6 1691 9.14
7/1/2021 7:00:00 PM 17.64 63.752 0.465 7.6 1244 9.12
7/1/2021 7:15:00 PM 17.64 63.752 0.463 7.6 1966 9.05
7/1/2021 7:30:00 PM 17.63 63.734 0.462 7.59 1864 8.97
7/1/2021 7:45:00 PM 17.62 63.716 0.462 7.58 1558 8.84
7/1/2021 8:00:00 PM 17.61 63.698 0.461 7.57 1421 8.73
7/1/2021 8:15:00 PM 17.59 63.662 0.46 7.56 1753 8.65
7/1/2021 8:30:00 PM 17.57 63.626 0.462 7.56 1411 8.59
7/1/2021 8:45:00 PM 17.55 63.59 0.463 7.55 1952 8.52
7/1/2021 9:00:00 PM 17.54 63.572 0.464 7.54 1848 8.45
7/1/2021 9:15:00 PM 17.52 63.536 0.465 7.54 1634 8.39
7/1/2021 9:30:00 PM 17.49 63.482 0.466 7.53 1441 8.34
7/1/2021 9:45:00 PM 17.47 63.446 0.467 7.53 1372 8.28
7/1/2021 10:00:00 PM 17.44 63.392 0.468 7.52 1818 8.22
7/1/2021 10:15:00 PM 17.41 63.338 0.469 7.51 1741 8.16
7/1/2021 10:30:00 PM 17.38 63.284 0.47 7.5 2042 8.1
7/1/2021 10:45:00 PM 17.35 63.23 0.471 7.49 1259 8.06
7/1/2021 11:00:00 PM 17.32 63.176 0.472 7.49 2392 8.01
7/1/2021 11:15:00 PM 17.28 63.104 0.473 7.48 1586 7.96
7/1/2021 11:30:00 PM 17.25 63.05 0.474 7.48 1400 7.93
7/1/2021 11:45:00 PM 17.21 62.978 0.475 7.47 2133 7.9
7/2/2021 12:00:00 AM 17.18 62.924 0.476 7.47 1810 7.87
7/2/2021 12:15:00 AM 17.15 62.87 0.478 7.47 2007 7.87
7/2/2021 12:30:00 AM 17.1 62.78 0.479 7.47 2010 7.83
7/2/2021 12:45:00 AM 17.07 62.726 0.48 7.47 1652 7.83
7/2/2021 1:00:00 AM 17.02 62.636 0.482 7.46 2409 7.78
7/2/2021 1:15:00 AM 16.97 62.546 0.483 7.47 2252 7.79
7/2/2021 1:30:00 AM 16.92 62.456 0.485 7.46 1526 7.79
7/2/2021 1:45:00 AM 16.86 62.348 0.486 7.46 1963 7.78
7/2/2021 2:00:00 AM 16.8 62.24 0.487 7.47 1656 7.79
7/2/2021 2:15:00 AM 16.74 62.132 0.488 7.46 2549 7.79
7/2/2021 2:30:00 AM 16.68 62.024 0.489 7.46 2220 7.8
7/2/2021 2:45:00 AM 16.62 61.916 0.49 7.46 2101 7.79
7/2/2021 3:00:00 AM 16.56 61.808 0.491 7.46 1875 7.78
7/2/2021 3:15:00 AM 16.5 61.7 0.492 7.46 2068 7.82
7/2/2021 3:30:00 AM 16.44 61.592 0.493 7.46 1390 7.82
7/2/2021 3:45:00 AM 16.38 61.484 0.494 7.46 1513 7.84
7/2/2021 4:00:00 AM 16.33 61.394 0.495 7.46 2053 7.84
7/2/2021 4:15:00 AM 16.27 61.286 0.496 7.46 2341 7.86
7/2/2021 4:30:00 AM 16.21 61.178 0.497 7.46 2081 7.88
7/2/2021 4:45:00 AM 16.16 61.088 0.498 7.46 2023 7.88
7/2/2021 5:00:00 AM 16.1 60.98 0.498 7.47 1964 7.9
7/2/2021 5:15:00 AM 16.04 60.872 0.499 7.47 2271 7.92
7/2/2021 5:30:00 AM 15.99 60.782 0.5 7.47 2026 7.94
7/2/2021 5:45:00 AM 15.94 60.692 0.5 7.47 2456 7.97
7/2/2021 6:00:00 AM 15.88 60.584 0.501 7.47 1829 7.99
7/2/2021 6:15:00 AM 15.82 60.476 0.502 7.47 2113 8.04
7/2/2021 6:30:00 AM 15.77 60.386 0.503 7.47 1962 8.06
7/2/2021 6:45:00 AM 15.71 60.278 0.503 7.48 2678 8.12
7/2/2021 7:00:00 AM 15.67 60.206 0.503 7.48 2151 8.18
7/2/2021 7:15:00 AM 15.64 60.152 0.504 7.49 2352 8.31
7/2/2021 7:30:00 AM 15.61 60.098 0.505 7.49 1876 8.44
7/2/2021 7:45:00 AM 15.58 60.044 0.505 7.5 2328 8.57
7/2/2021 8:00:00 AM 15.57 60.026 0.505 7.52 2259 8.72
7/2/2021 8:15:00 AM 15.54 59.972 0.505 7.52 1970 8.83
7/2/2021 8:30:00 AM 15.51 59.918 0.506 7.53 1652 8.89
7/2/2021 8:45:00 AM 15.49 59.882 0.506 7.54 2114 8.93
7/2/2021 9:00:00 AM 15.54 59.972 0.506 7.55 2090 9.1
7/2/2021 9:15:00 AM 15.58 60.044 0.506 7.56 2166 9.27
7/2/2021 9:30:00 AM 15.59 60.062 0.506 7.57 2265 9.38
7/2/2021 9:45:00 AM 15.62 60.116 0.506 7.58 2595 9.54
7/2/2021 10:00:00 AM 15.62 60.116 0.506 7.59 1884 9.62
7/2/2021 10:15:00 AM 15.63 60.134 0.506 7.59 1519 9.7
7/2/2021 10:30:00 AM 15.66 60.188 0.505 7.6 2134 9.84
7/2/2021 10:45:00 AM 15.81 60.458 0.505 7.61 2258 10
7/2/2021 11:00:00 AM 15.91 60.638 0.505 7.62 1632 10.18
7/2/2021 11:15:00 AM 16.03 60.854 0.504 7.63 2347 10.31
7/2/2021 11:30:00 AM 16.19 61.142 0.503 7.64 1790 10.46
7/2/2021 11:45:00 AM 16.37 61.466 0.503 7.65 2234 10.6
7/2/2021 12:00:00 PM 16.57 61.826 0.502 7.66 1816 10.71
7/2/2021 12:15:00 PM 16.71 62.078 0.501 7.67 1726 10.76
7/2/2021 12:30:00 PM 16.87 62.366 0.498 7.67 1827 10.8
7/2/2021 12:45:00 PM 16.93 62.474 0.499 7.68 1882 10.78
7/2/2021 1:00:00 PM 17.01 62.618 0.494 7.69 2214 10.76
7/2/2021 1:15:00 PM 17.2 62.96 0.492 7.7 2292 10.91
7/2/2021 1:30:00 PM 17.48 63.464 0.49 7.71 1981 11.1
7/2/2021 1:45:00 PM 17.55 63.59 0.489 7.71 2188 11.07
7/2/2021 2:00:00 PM 17.78 64.004 0.488 7.72 1820 11.18
7/2/2021 2:15:00 PM 17.84 64.112 0.487 7.73 2513 11.1
7/2/2021 2:30:00 PM 18.1 64.58 0.486 7.73 2119 11.25
7/2/2021 2:45:00 PM 18.27 64.886 0.484 7.74 1668 11.28
7/2/2021 3:00:00 PM 18.45 65.21 0.486 7.75 2026 11.32
7/2/2021 3:15:00 PM 18.61 65.498 0.486 7.75 1623 11.31
7/2/2021 3:30:00 PM 18.68 65.624 0.483 7.75 2057 11.2
7/2/2021 3:45:00 PM 18.79 65.82201 0.493 7.76 2141 11.19
7/2/2021 4:00:00 PM 18.91 66.038 0.491 7.76 2518 11.16
7/2/2021 4:15:00 PM 18.94 66.092 0.488 7.77 2830 11
7/2/2021 4:30:00 PM 19.13 66.434 0.486 7.77 2359 11.02
7/2/2021 4:45:00 PM 19.18 66.524 0.488 7.78 2168 10.93
7/2/2021 5:00:00 PM 19.27 66.686 0.482 7.77 1918 10.9
7/2/2021 5:15:00 PM 19.15 66.47 0.48 7.77 2006 10.54
7/2/2021 5:30:00 PM 19.17 66.506 0.481 7.77 1695 10.39
7/2/2021 5:45:00 PM 19.21 66.578 0.491 7.76 1568 10.36
7/2/2021 6:00:00 PM 19.23 66.614 0.489 7.77 2392 10.24
7/2/2021 6:15:00 PM 19.3 66.74 0.486 7.77 2407 10.2
7/2/2021 6:30:00 PM 19.37 66.866 0.483 7.77 2004 10.12
7/2/2021 6:45:00 PM 19.45 67.01 0.482 7.76 1582 9.98
7/2/2021 7:00:00 PM 19.47 67.046 0.482 7.76 2176 9.83
7/2/2021 7:15:00 PM 19.44 66.992 0.483 7.75 2302 9.53
7/2/2021 7:30:00 PM 19.44 66.992 0.484 7.74 2393 9.34
7/2/2021 7:45:00 PM 19.43 66.974 0.485 7.73 2312 9.18
7/2/2021 8:00:00 PM 19.4 66.92 0.485 7.73 2054 9
7/2/2021 8:15:00 PM 19.36 66.848 0.485 7.71 1880 8.84
7/2/2021 8:30:00 PM 19.32 66.776 0.486 7.71 2104 8.73
7/2/2021 8:45:00 PM 19.28 66.704 0.485 7.69 2350 8.57
7/2/2021 9:00:00 PM 19.24 66.632 0.485 7.69 2012 8.44
7/2/2021 9:15:00 PM 19.19 66.542 0.486 7.67 1900 8.31
7/2/2021 9:30:00 PM 19.14 66.452 0.486 7.66 2119 8.18
7/2/2021 9:45:00 PM 19.07 66.326 0.486 7.65 2131 8.1
7/2/2021 10:00:00 PM 19 66.2 0.485 7.64 2287 7.98
7/2/2021 10:15:00 PM 18.93 66.074 0.49 7.63 2216 7.9
7/2/2021 10:30:00 PM 18.86 65.948 0.49 7.61 2177 7.88
7/2/2021 10:45:00 PM 18.77 65.786 0.49 7.61 2291 7.75
7/2/2021 11:00:00 PM 18.68 65.624 0.491 7.6 2301 7.72
7/2/2021 11:15:00 PM 18.58 65.444 0.491 7.6 2080 7.68
7/2/2021 11:30:00 PM 18.49 65.282 0.492 7.59 2442 7.64
7/2/2021 11:45:00 PM 18.41 65.138 0.493 7.57 2893 7.58
7/3/2021 12:00:00 AM 18.31 64.958 0.494 7.57 1676 7.54
7/3/2021 12:15:00 AM 18.23 64.814 0.494 7.56 2147 7.52
7/3/2021 12:30:00 AM 18.14 64.652 0.495 7.55 2462 7.48
7/3/2021 12:45:00 AM 18.06 64.508 0.495 7.55 2078 7.46
7/3/2021 1:00:00 AM 17.98 64.364 0.495 7.54 2269 7.46
7/3/2021 1:15:00 AM 17.89 64.202 0.496 7.53 2256 7.41
7/3/2021 1:30:00 AM 17.82 64.076 0.496 7.53 2499 7.42
7/3/2021 1:45:00 AM 17.74 63.932 0.497 7.52 2243 7.41
7/3/2021 2:00:00 AM 17.66 63.788 0.498 7.52 2461 7.39
7/3/2021 2:15:00 AM 17.57 63.626 0.499 7.51 2422 7.39
7/3/2021 2:30:00 AM 17.49 63.482 0.5 7.51 2762 7.41
7/3/2021 2:45:00 AM 17.39 63.302 0.501 7.51 2430 7.41
7/3/2021 3:00:00 AM 17.29 63.122 0.502 7.5 1928 7.43
7/3/2021 3:15:00 AM 17.2 62.96 0.503 7.5 2229 7.45
7/3/2021 3:30:00 AM 17.09 62.762 0.505 7.51 2022 7.48
7/3/2021 3:45:00 AM 16.99 62.582 0.505 7.5 2527 7.49
7/3/2021 4:00:00 AM 16.9 62.42 0.506 7.5 2393 7.51
7/3/2021 4:15:00 AM 16.8 62.24 0.507 7.51 2206 7.54
7/3/2021 4:30:00 AM 16.71 62.078 0.507 7.51 2457 7.57
7/3/2021 4:45:00 AM 16.61 61.898 0.508 7.5 2504 7.57
7/3/2021 5:00:00 AM 16.51 61.718 0.508 7.5 2347 7.63
7/3/2021 5:15:00 AM 16.42 61.556 0.509 7.51 2400 7.64
7/3/2021 5:30:00 AM 16.33 61.394 0.51 7.51 2621 7.68
7/3/2021 5:45:00 AM 16.24 61.232 0.511 7.5 2279 7.7
7/3/2021 6:00:00 AM 16.14 61.052 0.511 7.5 1742 7.75
7/3/2021 6:15:00 AM 16.05 60.89 0.512 7.51 2450 7.77
7/3/2021 6:30:00 AM 15.96 60.728 0.512 7.51 2207 7.81
7/3/2021 6:45:00 AM 15.88 60.584 0.513 7.51 2080 7.91
7/3/2021 7:00:00 AM 15.82 60.476 0.513 7.52 2489 8
7/3/2021 7:15:00 AM 15.77 60.386 0.513 7.53 2261 8.1
7/3/2021 7:30:00 AM 15.71 60.278 0.513 7.53 2150 8.17
7/3/2021 7:45:00 AM 15.64 60.152 0.514 7.53 2378 8.24
7/3/2021 8:00:00 AM 15.58 60.044 0.514 7.54 2297 8.33
7/3/2021 8:15:00 AM 15.55 59.99 0.514 7.54 2710 8.49
7/3/2021 8:30:00 AM 15.52 59.936 0.514 7.56 2313 8.7
7/3/2021 8:45:00 AM 15.51 59.918 0.514 7.56 2403 8.92
7/3/2021 9:00:00 AM 15.48 59.864 0.514 7.58 2335 9.12
7/3/2021 9:15:00 AM 15.47 59.846 0.513 7.59 1973 9.28
7/3/2021 9:30:00 AM 15.56 60.008 0.513 7.6 2121 9.51
7/3/2021 9:45:00 AM 15.66 60.188 0.513 7.61 2633 9.73
7/3/2021 10:00:00 AM 15.79 60.422 0.512 7.62 2374 9.97
7/3/2021 10:15:00 AM 15.8 60.44 0.512 7.63 2053 10.07
7/3/2021 10:30:00 AM 15.76 60.368 0.512 7.64 2357 10.1
7/3/2021 10:45:00 AM 15.69 60.242 0.512 7.64 2158 9.95
7/3/2021 11:00:00 AM 15.62 60.116 0.512 7.64 2277 9.9
7/3/2021 11:15:00 AM 15.6 60.08 0.512 7.65 2322 9.85
7/3/2021 11:30:00 AM 15.64 60.152 0.512 7.65 2853 9.99
7/3/2021 11:45:00 AM 15.67 60.206 0.511 7.66 2421 10.14
7/3/2021 12:00:00 PM 15.71 60.278 0.511 7.67 2185 10.31
7/3/2021 12:15:00 PM 15.82 60.476 0.51 7.68 2555 10.55
7/3/2021 12:30:00 PM 16.06 60.908 0.51 7.69 2173 10.77
7/3/2021 12:45:00 PM 16.32 61.376 0.509 7.71 2410 10.99
7/3/2021 1:00:00 PM 16.42 61.556 0.509 7.71 2416 11.08
7/3/2021 1:15:00 PM 16.53 61.754 0.508 7.72 2100 11.16
7/3/2021 1:30:00 PM 16.52 61.736 0.508 7.72 2101 11.19
7/3/2021 1:45:00 PM 16.53 61.754 0.508 7.73 2423 11.25
7/3/2021 2:00:00 PM 16.58 61.844 0.505 7.75 2822 11.35
7/3/2021 2:15:00 PM 16.71 62.078 0.502 7.76 2092 11.48
7/3/2021 2:30:00 PM 16.8 62.24 0.502 7.76 2541 11.52
7/3/2021 2:45:00 PM 16.87 62.366 0.503 7.77 2465 11.49
7/3/2021 3:00:00 PM 17 62.6 0.502 7.79 2570 11.57
7/3/2021 3:15:00 PM 17.07 62.726 0.5 7.8 2208 11.53
7/3/2021 3:30:00 PM 17.32 63.176 0.499 7.8 2659 11.64
7/3/2021 3:45:00 PM 17.47 63.446 0.497 7.81 2779 11.72
7/3/2021 4:00:00 PM 17.52 63.536 0.497 7.81 3364 11.7
7/3/2021 4:15:00 PM 17.7 63.86 0.496 7.82 2388 11.71
7/3/2021 4:30:00 PM 17.79 64.022 0.497 7.81 2220 11.68
7/3/2021 4:45:00 PM 17.88 64.184 0.493 7.82 2218 11.62
7/3/2021 5:00:00 PM 18 64.4 0.492 7.82 2256 11.59
7/3/2021 5:15:00 PM 18.11 64.598 0.49 7.82 1959 11.5
7/3/2021 5:30:00 PM 18.15 64.67 0.49 7.82 2617 11.37
7/3/2021 5:45:00 PM 18.22 64.796 0.489 7.82 2601 11.21
7/3/2021 6:00:00 PM 18.27 64.886 0.487 7.83 2843 11.07
7/3/2021 6:15:00 PM 18.35 65.03 0.488 7.82 2161 10.95
7/3/2021 6:30:00 PM 18.3 64.94 0.488 7.81 2580 10.58
7/3/2021 6:45:00 PM 18.3 64.94 0.488 7.8 2456 10.33
7/3/2021 7:00:00 PM 18.29 64.922 0.488 7.79 2612 10.04
7/3/2021 7:15:00 PM 18.57 65.426 0.509 7.75 3078 9.41
7/3/2021 7:30:00 PM 18.36 65.048 0.496 7.71 2496 9.17
7/3/2021 7:45:00 PM 18.19 64.742 0.485 7.72 2473 9.15
7/3/2021 8:00:00 PM 18.18 64.724 0.481 7.71 2828 9.01
7/3/2021 8:15:00 PM 18.74 65.732 0.456 7.74 2216 8.89
7/3/2021 8:30:00 PM 18.38 65.084 0.451 7.71 2618 8.88
7/3/2021 8:45:00 PM 18.3 64.94 0.456 7.72 2508 8.86
7/3/2021 9:00:00 PM 18.37 65.066 0.425 7.73 2201 8.7
7/3/2021 9:15:00 PM 18.24 64.832 0.456 7.71 1569 8.62
7/3/2021 9:30:00 PM 18.24 64.832 0.461 7.69 1202 8.5
7/3/2021 9:45:00 PM 18.25 64.85 0.447 7.68 670.4 8.38
7/3/2021 10:00:00 PM 18.32 64.976 0.445 7.64 680.2 8.19
7/3/2021 10:15:00 PM 18.39 65.102 0.417 7.61 810.4 7.99
7/3/2021 10:30:00 PM 18.5 65.3 0.398 7.56 700.5 7.81
7/3/2021 10:45:00 PM 18.53 65.354 0.371 7.52 602.6 7.62
7/3/2021 11:00:00 PM 18.53 65.354 0.356 7.48 481.9 7.49
7/3/2021 11:15:00 PM 18.5 65.3 0.349 7.44 604.4 7.37
7/3/2021 11:30:00 PM 18.47 65.246 0.341 7.4 752.4 7.25
7/3/2021 11:45:00 PM 18.44 65.192 0.334 7.37 954.1 7.15
7/4/2021 12:00:00 AM 18.4 65.12 0.331 7.35 712.8 7.1
7/4/2021 12:15:00 AM 18.32 64.976 0.334 7.32 611.1 7.04
7/4/2021 12:30:00 AM 18.23 64.814 0.34 7.31 623.7 7.04
7/4/2021 12:45:00 AM 18.14 64.652 0.349 7.31 697.6 7.04
7/4/2021 1:00:00 AM 18.03 64.454 0.359 7.3 507.2 7.03
7/4/2021 1:15:00 AM 17.92 64.256 0.37 7.31 757.5 7.04
7/4/2021 1:30:00 AM 17.81 64.058 0.382 7.32 588.4 7.05
7/4/2021 1:45:00 AM 17.69 63.842 0.394 7.32 497.1 7.09
7/4/2021 2:00:00 AM 17.57 63.626 0.407 7.33 764.2 7.13
7/4/2021 2:15:00 AM 17.44 63.392 0.419 7.34 762.4 7.17
7/4/2021 2:30:00 AM 17.3 63.14 0.428 7.35 869.8 7.2
7/4/2021 2:45:00 AM 17.18 62.924 0.436 7.36 604.2 7.23
7/4/2021 3:00:00 AM 17.04 62.672 0.444 7.36 914.4 7.25
7/4/2021 3:15:00 AM 16.91 62.438 0.45 7.37 686.1 7.27
7/4/2021 3:30:00 AM 16.79 62.222 0.456 7.37 1109 7.29
7/4/2021 3:45:00 AM 16.66 61.988 0.46 7.38 526.4 7.33
7/4/2021 4:00:00 AM 16.54 61.772 0.463 7.37 692.8 7.37
7/4/2021 4:15:00 AM 16.44 61.592 0.464 7.38 770.8 7.38
7/4/2021 4:30:00 AM 16.35 61.43 0.465 7.38 571.7 7.43
7/4/2021 4:45:00 AM 16.28 61.304 0.465 7.38 981.9 7.44
7/4/2021 5:00:00 AM 16.21 61.178 0.466 7.38 785.3 7.46
7/4/2021 5:15:00 AM 16.17 61.106 0.466 7.38 620.6 7.49
7/4/2021 5:30:00 AM 16.12 61.016 0.468 7.39 656.2 7.52
7/4/2021 5:45:00 AM 16.06 60.908 0.47 7.39 849 7.54
7/4/2021 6:00:00 AM 15.99 60.782 0.472 7.39 715.9 7.56
7/4/2021 6:15:00 AM 15.92 60.656 0.474 7.4 611.6 7.61
7/4/2021 6:30:00 AM 15.84 60.512 0.476 7.39 625.5 7.66
7/4/2021 6:45:00 AM 15.77 60.386 0.478 7.4 934.4 7.71
7/4/2021 7:00:00 AM 15.7 60.26 0.481 7.4 927.6 7.77
7/4/2021 7:15:00 AM 15.64 60.152 0.482 7.41 442.3 7.89
7/4/2021 7:30:00 AM 15.58 60.044 0.484 7.41 589.2 7.99
7/4/2021 7:45:00 AM 15.53 59.954 0.485 7.42 650 8.09
7/4/2021 8:00:00 AM 15.48 59.864 0.486 7.43 747.3 8.25
7/4/2021 8:15:00 AM 15.42 59.756 0.487 7.43 669.4 8.33
7/4/2021 8:30:00 AM 15.39 59.702 0.488 7.44 538 8.44
7/4/2021 8:45:00 AM 15.34 59.612 0.489 7.45 659.2 8.56
7/4/2021 9:00:00 AM 15.32 59.576 0.489 7.46 568.5 8.73
7/4/2021 9:15:00 AM 15.32 59.576 0.489 7.48 1248 8.93
7/4/2021 9:30:00 AM 15.33 59.594 0.49 7.48 874.5 9.11
7/4/2021 9:45:00 AM 15.38 59.684 0.491 7.5 1169 9.31
7/4/2021 10:00:00 AM 15.43 59.774 0.491 7.5 948.7 9.45
7/4/2021 10:15:00 AM 15.49 59.882 0.492 7.52 1578 9.55
7/4/2021 10:30:00 AM 15.57 60.026 0.492 7.52 1670 9.71
7/4/2021 10:45:00 AM 15.67 60.206 0.493 7.53 2213 9.89
7/4/2021 11:00:00 AM 15.8 60.44 0.493 7.54 1665 10.07
7/4/2021 11:15:00 AM 15.95 60.71 0.493 7.55 1197 10.24
7/4/2021 11:30:00 AM 16.11 60.998 0.494 7.56 1024 10.41
7/4/2021 11:45:00 AM 16.28 61.304 0.495 7.57 1582 10.57
7/4/2021 12:00:00 PM 16.46 61.628 0.494 7.59 1060 10.69
7/4/2021 12:15:00 PM 16.64 61.952 0.495 7.59 1844 10.82
7/4/2021 12:30:00 PM 16.83 62.294 0.495 7.61 1900 10.92
7/4/2021 12:45:00 PM 17.02 62.636 0.495 7.61 2218 11.04
7/4/2021 1:00:00 PM 17.21 62.978 0.495 7.62 1656 11.13
7/4/2021 1:15:00 PM 17.39 63.302 0.492 7.63 1718 11.25
7/4/2021 1:30:00 PM 17.58 63.644 0.492 7.64 1878 11.32
7/4/2021 1:45:00 PM 17.77 63.986 0.495 7.65 1415 11.36
7/4/2021 2:00:00 PM 17.96 64.328 0.49 7.65 1373 11.44
7/4/2021 2:15:00 PM 18.15 64.67 0.488 7.67 978 11.5
7/4/2021 2:30:00 PM 18.33 64.994 0.487 7.66 1097 11.49
7/4/2021 2:45:00 PM 18.51 65.318 0.484 7.67 916.3 11.56
7/4/2021 3:00:00 PM 18.66 65.588 0.489 7.69 1044 11.59
7/4/2021 3:15:00 PM 18.81 65.858 0.49 7.69 1240 11.6
7/4/2021 3:30:00 PM 18.97 66.146 0.488 7.7 860.4 11.54
7/4/2021 3:45:00 PM 19.08 66.344 0.488 7.7 851.2 11.48
7/4/2021 4:00:00 PM 19.19 66.542 0.487 7.71 849.3 11.42
7/4/2021 4:15:00 PM 19.28 66.704 0.485 7.71 905.2 11.3
7/4/2021 4:30:00 PM 19.37 66.866 0.482 7.71 1006 11.28
7/4/2021 4:45:00 PM 19.45 67.01 0.482 7.71 932.7 11.17
7/4/2021 5:00:00 PM 19.52 67.136 0.483 7.71 936.3 11.04
7/4/2021 5:15:00 PM 19.59 67.262 0.482 7.71 1058 10.91
7/4/2021 5:30:00 PM 19.66 67.388 0.482 7.71 964 10.77
7/4/2021 5:45:00 PM 19.71 67.478 0.481 7.71 1122 10.62
7/4/2021 6:00:00 PM 19.77 67.586 0.479 7.7 1025 10.45
7/4/2021 6:15:00 PM 19.82 67.676 0.479 7.7 1041 10.27
7/4/2021 6:30:00 PM 19.87 67.766 0.478 7.69 1047 10.1
7/4/2021 6:45:00 PM 19.91 67.838 0.479 7.69 1086 9.91
7/4/2021 7:00:00 PM 19.94 67.892 0.479 7.68 1176 9.71
7/4/2021 7:15:00 PM 19.97 67.946 0.48 7.67 1768 9.51
7/4/2021 7:30:00 PM 19.98 67.964 0.479 7.66 2317 9.26
7/4/2021 7:45:00 PM 20.01 68.018 0.48 7.65 2227 9.08
7/4/2021 8:00:00 PM 20.02 68.036 0.477 7.63 2057 8.87
7/4/2021 8:15:00 PM 20.02 68.036 0.477 7.63 1924 8.69
7/4/2021 8:30:00 PM 20.02 68.036 0.476 7.61 1857 8.54
7/4/2021 8:45:00 PM 20.01 68.018 0.476 7.6 1967 8.38
7/4/2021 9:00:00 PM 19.99 67.982 0.476 7.59 1769 8.22
7/4/2021 9:15:00 PM 19.96 67.92799 0.476 7.58 1670 8.06
7/4/2021 9:30:00 PM 19.92 67.856 0.476 7.56 1696 7.92
7/4/2021 9:45:00 PM 19.87 67.766 0.477 7.55 1548 7.81
7/4/2021 10:00:00 PM 19.82 67.676 0.477 7.54 1744 7.69
7/4/2021 10:15:00 PM 19.76 67.568 0.477 7.53 1712 7.59
7/4/2021 10:30:00 PM 19.69 67.442 0.478 7.51 1859 7.46
7/4/2021 10:45:00 PM 19.62 67.316 0.478 7.5 1494 7.4
7/4/2021 11:00:00 PM 19.54 67.172 0.48 7.49 1564 7.32
7/4/2021 11:15:00 PM 19.47 67.046 0.48 7.48 2052 7.22
7/4/2021 11:30:00 PM 19.39 66.902 0.48 7.47 1366 7.2
7/4/2021 11:45:00 PM 19.31 66.758 0.481 7.46 1560 7.15
7/5/2021 12:00:00 AM 19.22 66.596 0.481 7.46 1617 7.1
7/5/2021 12:15:00 AM 19.14 66.452 0.482 7.45 1229 7.05
7/5/2021 12:30:00 AM 19.06 66.308 0.482 7.45 1309 7.07
7/5/2021 12:45:00 AM 18.98 66.164 0.483 7.44 1318 7
7/5/2021 1:00:00 AM 18.9 66.02 0.484 7.44 1212 7
7/5/2021 1:15:00 AM 18.81 65.858 0.484 7.43 1848 6.98
7/5/2021 1:30:00 AM 18.73 65.714 0.485 7.43 1089 6.94
7/5/2021 1:45:00 AM 18.64 65.552 0.486 7.42 1609 6.95
7/5/2021 2:00:00 AM 18.55 65.39 0.486 7.41 1335 6.93
7/5/2021 2:15:00 AM 18.46 65.228 0.487 7.41 1639 6.94
7/5/2021 2:30:00 AM 18.37 65.066 0.488 7.41 1266 6.95
7/5/2021 2:45:00 AM 18.27 64.886 0.489 7.41 1553 6.96
7/5/2021 3:00:00 AM 18.17 64.706 0.49 7.41 1335 6.96
7/5/2021 3:15:00 AM 18.07 64.526 0.491 7.41 1282 6.97
7/5/2021 3:30:00 AM 17.96 64.328 0.492 7.4 1398 7.02
7/5/2021 3:45:00 AM 17.85 64.13 0.493 7.41 1592 7.01
7/5/2021 4:00:00 AM 17.74 63.932 0.495 7.4 1647 7.04
7/5/2021 4:15:00 AM 17.64 63.752 0.495 7.4 2027 7.05
7/5/2021 4:30:00 AM 17.53 63.554 0.497 7.4 2031 7.08
7/5/2021 4:45:00 AM 17.42 63.356 0.498 7.4 1435 7.11
7/5/2021 5:00:00 AM 17.31 63.158 0.499 7.4 1495 7.13
7/5/2021 5:15:00 AM 17.2 62.96 0.5 7.41 1501 7.18
7/5/2021 5:30:00 AM 17.09 62.762 0.5 7.4 1828 7.21
7/5/2021 5:45:00 AM 16.98 62.564 0.502 7.41 1475 7.24
7/5/2021 6:00:00 AM 16.87 62.366 0.503 7.41 1406 7.27
7/5/2021 6:15:00 AM 16.77 62.186 0.504 7.41 1643 7.31
7/5/2021 6:30:00 AM 16.66 61.988 0.505 7.41 1276 7.4
7/5/2021 6:45:00 AM 16.58 61.844 0.506 7.42 1439 7.49
7/5/2021 7:00:00 AM 16.5 61.7 0.507 7.42 1340 7.56
7/5/2021 7:15:00 AM 16.41 61.538 0.508 7.42 1354 7.67
7/5/2021 7:30:00 AM 16.35 61.43 0.509 7.43 1401 7.78
7/5/2021 7:45:00 AM 16.28 61.304 0.509 7.44 1764 7.9
7/5/2021 8:00:00 AM 16.23 61.214 0.51 7.44 1093 8.03
7/5/2021 8:15:00 AM 16.19 61.142 0.51 7.45 1256 8.19
7/5/2021 8:30:00 AM 16.16 61.088 0.51 7.46 1537 8.33
7/5/2021 8:45:00 AM 16.14 61.052 0.51 7.47 1268 8.51
7/5/2021 9:00:00 AM 16.13 61.034 0.51 7.48 1461 8.7
7/5/2021 9:15:00 AM 16.13 61.034 0.51 7.49 1321 8.85
7/5/2021 9:30:00 AM 16.15 61.07 0.51 7.5 1884 9.05
7/5/2021 9:45:00 AM 16.19 61.142 0.509 7.51 1541 9.23
7/5/2021 10:00:00 AM 16.24 61.232 0.509 7.52 1236 9.45
7/5/2021 10:15:00 AM 16.31 61.358 0.509 7.53 1695 9.62
7/5/2021 10:30:00 AM 16.39 61.502 0.508 7.54 1567 9.82
7/5/2021 10:45:00 AM 16.5 61.7 0.508 7.55 1392 9.98
7/5/2021 11:00:00 AM 16.62 61.916 0.508 7.56 1438 10.2
7/5/2021 11:15:00 AM 16.75 62.15 0.508 7.57 1469 10.38
7/5/2021 11:30:00 AM 16.9 62.42 0.507 7.58 1490 10.51
7/5/2021 11:45:00 AM 17.06 62.708 0.507 7.59 1306 10.7
7/5/2021 12:00:00 PM 17.23 63.014 0.506 7.6 1650 10.8
7/5/2021 12:15:00 PM 17.39 63.302 0.506 7.61 1334 10.94
7/5/2021 12:30:00 PM 17.58 63.644 0.506 7.62 1756 11.1
7/5/2021 12:45:00 PM 17.75 63.95 0.505 7.63 1446 11.16
7/5/2021 1:00:00 PM 17.94 64.292 0.505 7.63 1263 11.32
7/5/2021 1:15:00 PM 18.15 64.67 0.502 7.64 1595 11.42
7/5/2021 1:30:00 PM 18.36 65.048 0.501 7.65 1582 11.49
7/5/2021 1:45:00 PM 18.55 65.39 0.5 7.66 1227 11.62
7/5/2021 2:00:00 PM 18.74 65.732 0.496 7.67 1517 11.64
7/5/2021 2:15:00 PM 18.93 66.074 0.495 7.68 1825 11.72
7/5/2021 2:30:00 PM 19.09 66.362 0.493 7.69 1446 11.78
7/5/2021 2:45:00 PM 19.26 66.668 0.491 7.7 1255 11.85
7/5/2021 3:00:00 PM 19.39 66.902 0.493 7.7 1310 11.79
7/5/2021 3:15:00 PM 19.53 67.154 0.49 7.72 1044 11.81
7/5/2021 3:30:00 PM 19.66 67.388 0.491 7.72 1011 11.83
7/5/2021 3:45:00 PM 19.76 67.568 0.487 7.73 937.3 11.78
7/5/2021 4:00:00 PM 19.87 67.766 0.483 7.73 1052 11.74
7/5/2021 4:15:00 PM 19.95 67.91 0.479 7.72 1308 11.69
7/5/2021 4:30:00 PM 20.02 68.036 0.478 7.73 774.7 11.55
7/5/2021 4:45:00 PM 20.12 68.216 0.473 7.73 917.8 11.46
7/5/2021 5:00:00 PM 20.19 68.342 0.471 7.73 1125 11.31
7/5/2021 5:15:00 PM 20.25 68.45 0.47 7.73 750.3 11.21
7/5/2021 5:30:00 PM 20.31 68.558 0.467 7.73 679.5 11.13
7/5/2021 5:45:00 PM 20.37 68.666 0.466 7.73 888 10.97
7/5/2021 6:00:00 PM 20.42 68.756 0.465 7.73 785.7 10.81
7/5/2021 6:15:00 PM 20.46 68.828 0.459 7.72 1605 10.61
7/5/2021 6:30:00 PM 20.5 68.9 0.46 7.72 1496 10.37
7/5/2021 6:45:00 PM 20.53 68.954 0.457 7.71 668.6 10.14
7/5/2021 7:00:00 PM 20.56 69.008 0.468 7.7 1036 9.92
7/5/2021 7:15:00 PM 20.57 69.026 0.468 7.69 1425 9.71
7/5/2021 7:30:00 PM 20.59 69.062 0.471 7.68 989.7 9.46
7/5/2021 7:45:00 PM 20.6 69.08 0.47 7.67 1071 9.26
7/5/2021 8:00:00 PM 20.61 69.098 0.47 7.66 1140 9.04
7/5/2021 8:15:00 PM 20.61 69.098 0.47 7.65 679.3 8.84
7/5/2021 8:30:00 PM 20.62 69.116 0.47 7.63 1458 8.64
7/5/2021 8:45:00 PM 20.61 69.098 0.471 7.62 957.9 8.41
7/5/2021 9:00:00 PM 20.6 69.08 0.472 7.6 994.1 8.23
7/5/2021 9:15:00 PM 20.58 69.044 0.472 7.59 1021 8.02
7/5/2021 9:30:00 PM 20.56 69.008 0.474 7.57 1033 7.92
7/5/2021 9:45:00 PM 20.54 68.972 0.475 7.56 987.7 7.72
7/5/2021 10:00:00 PM 20.51 68.918 0.475 7.54 676 7.59
7/5/2021 10:15:00 PM 20.48 68.864 0.476 7.53 820.8 7.49
7/5/2021 10:30:00 PM 20.44 68.792 0.477 7.51 791.3 7.41
7/5/2021 10:45:00 PM 20.4 68.72 0.477 7.5 846.4 7.28
7/5/2021 11:00:00 PM 20.35 68.63 0.478 7.49 616.4 7.25
7/5/2021 11:15:00 PM 20.3 68.54 0.478 7.48 1552 7.15
7/5/2021 11:30:00 PM 20.25 68.45 0.479 7.46 854.3 7.08
7/5/2021 11:45:00 PM 20.2 68.36 0.479 7.45 713.5 7.02
7/6/2021 12:00:00 AM 20.15 68.27 0.479 7.44 741 6.94
7/6/2021 12:15:00 AM 20.09 68.162 0.48 7.43 1436 6.87
7/6/2021 12:30:00 AM 20.02 68.036 0.48 7.43 1108 6.83
7/6/2021 12:45:00 AM 19.96 67.92799 0.481 7.41 1152 6.79
7/6/2021 1:00:00 AM 19.89 67.802 0.481 7.41 937.3 6.77
7/6/2021 1:15:00 AM 19.83 67.694 0.482 7.41 931.3 6.73
7/6/2021 1:30:00 AM 19.76 67.568 0.482 7.39 960.2 6.71
7/6/2021 1:45:00 AM 19.69 67.442 0.484 7.39 1112 6.72
7/6/2021 2:00:00 AM 19.62 67.316 0.483 7.38 669.4 6.68
7/6/2021 2:15:00 AM 19.54 67.172 0.484 7.38 994.9 6.69
7/6/2021 2:30:00 AM 19.46 67.028 0.484 7.37 966.7 6.68
7/6/2021 2:45:00 AM 19.38 66.884 0.485 7.37 858.8 6.66
7/6/2021 3:00:00 AM 19.3 66.74 0.486 7.36 1193 6.65
7/6/2021 3:15:00 AM 19.22 66.596 0.486 7.37 708.3 6.65
7/6/2021 3:30:00 AM 19.13 66.434 0.487 7.36 1299 6.67
7/6/2021 3:45:00 AM 19.05 66.29 0.488 7.36 1063 6.69
7/6/2021 4:00:00 AM 18.97 66.146 0.489 7.36 797.7 6.7
7/6/2021 4:15:00 AM 18.88 65.984 0.49 7.36 586.4 6.71
7/6/2021 4:30:00 AM 18.79 65.82201 0.491 7.36 843 6.74
7/6/2021 4:45:00 AM 18.7 65.66 0.492 7.36 732.4 6.77
7/6/2021 5:00:00 AM 18.61 65.498 0.493 7.36 684.3 6.8
7/6/2021 5:15:00 AM 18.51 65.318 0.494 7.35 976.3 6.81
7/6/2021 5:30:00 AM 18.42 65.156 0.494 7.36 921.4 6.82
7/6/2021 5:45:00 AM 18.33 64.994 0.496 7.36 942.1 6.83
7/6/2021 6:00:00 AM 18.24 64.832 0.497 7.36 823.4 6.9
7/6/2021 6:15:00 AM 18.16 64.688 0.498 7.36 962.8 6.97
7/6/2021 6:30:00 AM 18.09 64.562 0.499 7.36 619.8 6.99
7/6/2021 6:45:00 AM 18.01 64.418 0.499 7.36 581 7.09
7/6/2021 7:00:00 AM 17.94 64.292 0.5 7.37 1252 7.17
7/6/2021 7:15:00 AM 17.9 64.22 0.501 7.38 957 7.28
7/6/2021 7:30:00 AM 17.84 64.112 0.502 7.37 1724 7.37
7/6/2021 7:45:00 AM 17.79 64.022 0.503 7.38 1075 7.53
7/6/2021 8:00:00 AM 17.75 63.95 0.503 7.39 1088 7.71
7/6/2021 8:15:00 AM 17.71 63.878 0.504 7.4 941.6 7.88
7/6/2021 8:30:00 AM 17.68 63.824 0.505 7.42 1152 8.07
7/6/2021 8:45:00 AM 17.69 63.842 0.505 7.42 971.2 8.25
7/6/2021 9:00:00 AM 17.7 63.86 0.505 7.43 785.1 8.43
7/6/2021 9:15:00 AM 17.72 63.896 0.505 7.44 1081 8.6
7/6/2021 9:30:00 AM 17.77 63.986 0.506 7.46 964.3 8.79
7/6/2021 9:45:00 AM 17.83 64.094 0.506 7.47 795.6 8.99
7/6/2021 10:00:00 AM 17.91 64.238 0.508 7.49 721.2 9.21
7/6/2021 10:15:00 AM 18.01 64.418 0.509 7.5 806.3 9.43
7/6/2021 10:30:00 AM 18.11 64.598 0.508 7.51 1104 9.61
7/6/2021 10:45:00 AM 18.21 64.778 0.508 7.53 816.5 9.81
7/6/2021 11:00:00 AM 18.36 65.048 0.508 7.54 1100 9.99
7/6/2021 11:15:00 AM 18.52 65.336 0.508 7.55 1188 10.21
7/6/2021 11:30:00 AM 18.7 65.66 0.507 7.57 667.6 10.4
7/6/2021 11:45:00 AM 18.87 65.966 0.506 7.59 1280 10.61
7/6/2021 12:00:00 PM 19.05 66.29 0.505 7.59 880 10.77
7/6/2021 12:15:00 PM 19.23 66.614 0.504 7.61 1243 10.95
7/6/2021 12:30:00 PM 19.42 66.956 0.501 7.62 1087 11.12
7/6/2021 12:45:00 PM 19.6 67.28 0.497 7.63 669 11.25
7/6/2021 1:00:00 PM 19.75 67.55 0.496 7.64 470 11.35
7/6/2021 1:15:00 PM 19.9 67.82 0.495 7.65 1094 11.45
7/6/2021 1:30:00 PM 20 68 0.494 7.66 1096 11.46
7/6/2021 1:45:00 PM 20.18 68.324 0.492 7.67 728.3 11.57
7/6/2021 2:00:00 PM 20.38 68.684 0.483 7.68 988.2 11.67
7/6/2021 2:15:00 PM 20.57 69.026 0.483 7.69 1033 11.76
7/6/2021 2:30:00 PM 20.73 69.314 0.483 7.71 1032 11.88
7/6/2021 2:45:00 PM 20.87 69.566 0.481 7.71 1596 11.89
7/6/2021 3:00:00 PM 21.02 69.836 0.478 7.72 1318 11.88
7/6/2021 3:15:00 PM 21.13 70.034 0.481 7.72 885.2 11.83
7/6/2021 3:30:00 PM 21.23 70.214 0.471 7.73 1086 11.84
7/6/2021 3:45:00 PM 21.36 70.448 0.467 7.76 718.1 11.84
7/6/2021 4:00:00 PM 21.49 70.682 0.47 7.76 635.8 11.74
7/6/2021 4:15:00 PM 21.55 70.79 0.471 7.77 763.1 11.62
7/6/2021 4:30:00 PM 21.66 70.988 0.467 7.77 1033 11.6
7/6/2021 4:45:00 PM 21.75 71.15 0.446 7.77 1048 11.5
7/6/2021 5:00:00 PM 21.85 71.33 0.462 7.78 1756 11.45
7/6/2021 5:15:00 PM 21.92 71.456 0.449 7.78 865.3 11.28
7/6/2021 5:30:00 PM 21.96 71.528 0.45 7.78 1072 11.14
7/6/2021 5:45:00 PM 21.98 71.564 0.433 7.78 986.1 10.9
7/6/2021 6:00:00 PM 22.02 71.636 0.434 7.78 757.3 10.72
7/6/2021 6:15:00 PM 21.97 71.546 0.428 7.77 763.5 10.31
7/6/2021 6:30:00 PM 21.99 71.582 0.458 7.77 1305 10.11
7/6/2021 6:45:00 PM 21.99 71.582 0.453 7.76 868 9.81
7/6/2021 7:00:00 PM 22 71.6 0.455 7.75 1177 9.61
7/6/2021 7:15:00 PM 22 71.6 0.455 7.74 1132 9.34
7/6/2021 7:30:00 PM 22.02 71.636 0.454 7.72 889 9.14
7/6/2021 7:45:00 PM 22.01 71.618 0.453 7.73 933.6 8.96
7/6/2021 8:00:00 PM 22 71.6 0.453 7.72 736.8 8.71
7/6/2021 8:15:00 PM 21.99 71.582 0.469 7.7 818.7 8.54
7/6/2021 8:30:00 PM 21.97 71.546 0.468 7.68 1160 8.29
7/6/2021 8:45:00 PM 21.94 71.492 0.47 7.67 813.8 8.1
7/6/2021 9:00:00 PM 21.91 71.438 0.469 7.65 903.3 7.91
7/6/2021 9:15:00 PM 21.89 71.402 0.47 7.63 605.2 7.73
7/6/2021 9:30:00 PM 21.86 71.348 0.47 7.61 1573 7.56
7/6/2021 9:45:00 PM 21.84 71.312 0.471 7.6 1113 7.42
7/6/2021 10:00:00 PM 21.81 71.258 0.471 7.58 1660 7.29
7/6/2021 10:15:00 PM 21.77 71.186 0.471 7.57 859.5 7.19
7/6/2021 10:30:00 PM 21.73 71.114 0.472 7.55 987.3 7.08
7/6/2021 10:45:00 PM 21.69 71.042 0.472 7.54 1674 6.98
7/6/2021 11:00:00 PM 21.64 70.952 0.472 7.52 1288 6.93
7/6/2021 11:15:00 PM 21.58 70.844 0.473 7.51 1042 6.82
7/6/2021 11:30:00 PM 21.51 70.718 0.473 7.49 1369 6.76
7/6/2021 11:45:00 PM 21.46 70.628 0.473 7.48 1088 6.68
7/7/2021 12:00:00 AM 21.39 70.502 0.474 7.46 886.1 6.63
7/7/2021 12:15:00 AM 21.32 70.376 0.474 7.46 1221 6.59
7/7/2021 12:30:00 AM 21.25 70.25 0.475 7.45 1026 6.52
7/7/2021 12:45:00 AM 21.18 70.124 0.475 7.44 980.3 6.45
7/7/2021 1:00:00 AM 21.1 69.98 0.476 7.43 1538 6.44
7/7/2021 1:15:00 AM 21.01 69.818 0.476 7.42 839.1 6.4
7/7/2021 1:30:00 AM 20.93 69.674 0.477 7.41 931.2 6.4
7/7/2021 1:45:00 AM 20.84 69.512 0.477 7.41 1182 6.38
7/7/2021 2:00:00 AM 20.75 69.35 0.478 7.4 1269 6.37
7/7/2021 2:15:00 AM 20.66 69.188 0.479 7.4 1197 6.39
7/7/2021 2:30:00 AM 20.57 69.026 0.479 7.39 875.5 6.4
7/7/2021 2:45:00 AM 20.48 68.864 0.48 7.39 1325 6.37
7/7/2021 3:00:00 AM 20.39 68.702 0.481 7.38 1392 6.37
7/7/2021 3:15:00 AM 20.29 68.522 0.481 7.38 771.9 6.35
7/7/2021 3:30:00 AM 20.2 68.36 0.481 7.37 1034 6.37
7/7/2021 3:45:00 AM 20.1 68.18 0.483 7.37 1270 6.4
7/7/2021 4:00:00 AM 20 68 0.484 7.37 626.2 6.42
7/7/2021 4:15:00 AM 19.9 67.82 0.485 7.36 1259 6.45
7/7/2021 4:30:00 AM 19.8 67.64 0.485 7.36 1683 6.45
7/7/2021 4:45:00 AM 19.7 67.46 0.487 7.35 1001 6.48
7/7/2021 5:00:00 AM 19.59 67.262 0.488 7.35 1278 6.51
7/7/2021 5:15:00 AM 19.49 67.082 0.488 7.36 1345 6.54
7/7/2021 5:30:00 AM 19.4 66.92 0.49 7.34 1489 6.56
7/7/2021 5:45:00 AM 19.29 66.722 0.492 7.32 1077 6.58
7/7/2021 6:00:00 AM 19.19 66.542 0.493 7.32 1173 6.61
7/7/2021 6:15:00 AM 19.1 66.38 0.494 7.33 1611 6.65
7/7/2021 6:30:00 AM 19.01 66.218 0.495 7.33 854 6.72
7/7/2021 6:45:00 AM 18.92 66.056 0.496 7.34 1349 6.82
7/7/2021 7:00:00 AM 18.83 65.894 0.497 7.35 1127 6.93
7/7/2021 7:15:00 AM 18.76 65.768 0.498 7.35 870.8 7.04
7/7/2021 7:30:00 AM 18.69 65.642 0.499 7.36 1311 7.19
7/7/2021 7:45:00 AM 18.63 65.534 0.5 7.37 1401 7.34
7/7/2021 8:00:00 AM 18.57 65.426 0.501 7.38 1243 7.48
7/7/2021 8:15:00 AM 18.52 65.336 0.502 7.39 1390 7.67
7/7/2021 8:30:00 AM 18.48 65.264 0.502 7.39 1665 7.81
7/7/2021 8:45:00 AM 18.45 65.21 0.502 7.41 998.7 8.01
7/7/2021 9:00:00 AM 18.43 65.174 0.502 7.42 759.7 8.26
7/7/2021 9:15:00 AM 18.43 65.174 0.502 7.44 1234 8.44
7/7/2021 9:30:00 AM 18.44 65.192 0.502 7.44 1097 8.67
7/7/2021 9:45:00 AM 18.47 65.246 0.502 7.45 1226 8.88
7/7/2021 10:00:00 AM 18.53 65.354 0.502 7.47 1686 9.07
7/7/2021 10:15:00 AM 18.6 65.48 0.501 7.48 1446 9.34
7/7/2021 10:30:00 AM 18.7 65.66 0.501 7.5 902.4 9.58
7/7/2021 10:45:00 AM 18.8 65.84 0.501 7.51 1015 9.78
7/7/2021 11:00:00 AM 18.94 66.092 0.5 7.53 1637 10
7/7/2021 11:15:00 AM 19.1 66.38 0.5 7.54 1483 10.25
7/7/2021 11:30:00 AM 19.19 66.542 0.499 7.55 1195 10.35
7/7/2021 11:45:00 AM 19.37 66.866 0.499 7.56 803.1 10.59
7/7/2021 12:00:00 PM 19.53 67.154 0.498 7.58 1110 10.75
7/7/2021 12:15:00 PM 19.67 67.406 0.497 7.59 700 10.98
7/7/2021 12:30:00 PM 19.77 67.586 0.496 7.61 1018 11.04
7/7/2021 12:45:00 PM 19.97 67.946 0.495 7.61 1112 11.23
7/7/2021 1:00:00 PM 20.12 68.216 0.493 7.63 999.8 11.32
7/7/2021 1:15:00 PM 20.25 68.45 0.492 7.64 1093 11.44
7/7/2021 1:30:00 PM 20.31 68.558 0.488 7.64 1232 11.44
7/7/2021 1:45:00 PM 20.51 68.918 0.486 7.66 1466 11.58
7/7/2021 2:00:00 PM 20.67 69.206 0.479 7.67 1280 11.65
7/7/2021 2:15:00 PM 20.82 69.476 0.476 7.71 1327 11.77
7/7/2021 2:30:00 PM 20.99 69.782 0.47 7.72 1236 11.88
7/7/2021 2:45:00 PM 21.17 70.106 0.46 7.73 1213 11.97
7/7/2021 3:00:00 PM 21.29 70.32201 0.458 7.74 1337 11.98
7/7/2021 3:15:00 PM 21.4 70.52 0.448 7.74 1365 12.07
7/7/2021 3:30:00 PM 21.5 70.7 0.464 7.76 993.8 12.03
7/7/2021 3:45:00 PM 21.59 70.862 0.454 7.77 819.1 11.97
7/7/2021 4:00:00 PM 21.66 70.988 0.449 7.78 1816 11.88
7/7/2021 4:15:00 PM 21.74 71.132 0.446 7.78 1266 11.82
7/7/2021 4:30:00 PM 21.8 71.24 0.424 7.79 1472 11.69
7/7/2021 4:45:00 PM 21.86 71.348 0.478 7.79 804.8 11.57
7/7/2021 5:00:00 PM 21.91 71.438 0.475 7.78 966 11.42
7/7/2021 5:15:00 PM 21.94 71.492 0.473 7.79 1243 11.28
7/7/2021 5:30:00 PM 21.98 71.564 0.471 7.79 1075 11.17
7/7/2021 5:45:00 PM 21.99 71.582 0.473 7.79 809.3 10.97
7/7/2021 6:00:00 PM 21.94 71.492 0.473 7.78 1912 10.68
7/7/2021 6:15:00 PM 21.88 71.384 0.473 7.77 1157 10.15
7/7/2021 6:30:00 PM 21.85 71.33 0.467 7.75 2117 9.78
7/7/2021 6:45:00 PM 21.8 71.24 0.469 7.74 1192 9.39
7/7/2021 7:00:00 PM 21.73 71.114 0.468 7.72 1101 9.03
7/7/2021 7:15:00 PM 21.69 71.042 0.474 7.7 1248 8.72
7/7/2021 7:30:00 PM 21.65 70.97 0.476 7.69 1054 8.5
7/7/2021 7:45:00 PM 21.64 70.952 0.476 7.68 833.3 8.34
7/7/2021 8:00:00 PM 21.62 70.916 0.47 7.67 924.6 8.19
7/7/2021 8:15:00 PM 21.61 70.898 0.47 7.66 1354 8.07
7/7/2021 8:30:00 PM 21.59 70.862 0.471 7.65 1047 7.9
7/7/2021 8:45:00 PM 21.58 70.844 0.471 7.64 1387 7.78
7/7/2021 9:00:00 PM 21.54 70.772 0.472 7.63 990.4 7.61
7/7/2021 9:15:00 PM 21.5 70.7 0.473 7.61 1343 7.45
7/7/2021 9:30:00 PM 21.45 70.61 0.474 7.6 1098 7.31
7/7/2021 9:45:00 PM 21.4 70.52 0.475 7.58 933.2 7.21
7/7/2021 10:00:00 PM 21.35 70.43 0.474 7.56 982.7 7.09
7/7/2021 10:15:00 PM 21.3 70.34 0.475 7.55 987 6.99
7/7/2021 10:30:00 PM 21.25 70.25 0.476 7.53 1266 6.92
7/7/2021 10:45:00 PM 21.19 70.142 0.477 7.54 1102 6.81
7/7/2021 11:00:00 PM 21.13 70.034 0.477 7.53 755 6.78
7/7/2021 11:15:00 PM 21.07 69.926 0.478 7.52 1674 6.7
7/7/2021 11:30:00 PM 21 69.8 0.479 7.5 868.3 6.66
7/7/2021 11:45:00 PM 20.93 69.674 0.479 7.49 978.3 6.62
7/8/2021 12:00:00 AM 20.85 69.53 0.48 7.49 1151 6.55
7/8/2021 12:15:00 AM 20.77 69.386 0.48 7.47 1013 6.52
7/8/2021 12:30:00 AM 20.69 69.242 0.48 7.46 1297 6.47
7/8/2021 12:45:00 AM 20.61 69.098 0.481 7.45 1228 6.43
7/8/2021 1:00:00 AM 20.53 68.954 0.482 7.45 1419 6.41
7/8/2021 1:15:00 AM 20.5 68.9 0.483 7.43 1104 6.31
7/8/2021 1:30:00 AM 20.39 68.702 0.487 7.41 907.3 6.24
7/8/2021 1:45:00 AM 20.28 68.504 0.487 7.4 1133 6.26
7/8/2021 2:00:00 AM 20.19 68.342 0.487 7.38 891.5 6.3
7/8/2021 2:15:00 AM 20.09 68.162 0.488 7.38 1248 6.33
7/8/2021 2:30:00 AM 20 68 0.488 7.39 1338 6.36
7/8/2021 2:45:00 AM 19.9 67.82 0.489 7.39 1510 6.43
7/8/2021 3:00:00 AM 19.8 67.64 0.489 7.39 1616 6.46
7/8/2021 3:15:00 AM 19.71 67.478 0.484 7.39 893.4 6.48
7/8/2021 3:30:00 AM 19.61 67.298 0.488 7.38 1710 6.5
7/8/2021 3:45:00 AM 19.52 67.136 0.489 7.35 1182 6.52
7/8/2021 4:00:00 AM 19.44 66.992 0.49 7.36 1229 6.54
7/8/2021 4:15:00 AM 19.35 66.83 0.49 7.36 1258 6.55
7/8/2021 4:30:00 AM 19.27 66.686 0.491 7.36 1212 6.58
7/8/2021 4:45:00 AM 19.19 66.542 0.491 7.36 979.3 6.58
7/8/2021 5:00:00 AM 19.1 66.38 0.491 7.35 1141 6.56
7/8/2021 5:15:00 AM 19.02 66.236 0.49 7.35 952.3 6.56
7/8/2021 5:30:00 AM 18.94 66.092 0.49 7.35 1012 6.54
7/8/2021 5:45:00 AM 18.85 65.93 0.49 7.35 1074 6.53
7/8/2021 6:00:00 AM 18.77 65.786 0.49 7.34 911.6 6.54
7/8/2021 6:15:00 AM 18.69 65.642 0.491 7.34 1062 6.55
7/8/2021 6:30:00 AM 18.61 65.498 0.491 7.34 1593 6.58
7/8/2021 6:45:00 AM 18.53 65.354 0.492 7.34 1037 6.59
7/8/2021 7:00:00 AM 18.46 65.228 0.493 7.34 1076 6.65
7/8/2021 7:15:00 AM 18.39 65.102 0.494 7.34 1308 6.71
7/8/2021 7:30:00 AM 18.31 64.958 0.495 7.35 1500 6.8
7/8/2021 7:45:00 AM 18.25 64.85 0.496 7.35 878.2 6.91
7/8/2021 8:00:00 AM 18.2 64.76 0.497 7.36 896.2 7.02
7/8/2021 8:15:00 AM 18.14 64.652 0.498 7.36 1138 7.13
7/8/2021 8:30:00 AM 18.08 64.544 0.499 7.36 1079 7.18
7/8/2021 8:45:00 AM 18.04 64.472 0.5 7.37 1050 7.32
7/8/2021 9:00:00 AM 18 64.4 0.5 7.38 1396 7.4
7/8/2021 9:15:00 AM 18.02 64.436 0.506 7.38 1706 7.5
7/8/2021 9:30:00 AM 17.97 64.346 0.504 7.39 2044 7.62
7/8/2021 9:45:00 AM 17.92 64.256 0.503 7.39 1832 7.73
7/8/2021 10:00:00 AM 17.9 64.22 0.502 7.39 1801 7.87
7/8/2021 10:15:00 AM 17.87 64.166 0.502 7.39 1033 7.96
7/8/2021 10:30:00 AM 17.85 64.13 0.501 7.41 999.2 8.17
7/8/2021 10:45:00 AM 17.86 64.148 0.501 7.42 1047 8.4
7/8/2021 11:00:00 AM 17.86 64.148 0.5 7.44 1137 8.65
7/8/2021 11:15:00 AM 17.89 64.202 0.499 7.46 1237 8.99
7/8/2021 11:30:00 AM 17.96 64.328 0.499 7.48 1391 9.29
7/8/2021 11:45:00 AM 18.01 64.418 0.498 7.49 1651 9.58
7/8/2021 12:00:00 PM 18.03 64.454 0.497 7.51 804.1 9.74
7/8/2021 12:15:00 PM 18.08 64.544 0.496 7.52 1383 9.9
7/8/2021 12:30:00 PM 18.09 64.562 0.496 7.54 1117 10.08
7/8/2021 12:45:00 PM 18.07 64.526 0.495 7.54 1631 10.09
7/8/2021 1:00:00 PM 18.04 64.472 0.495 7.54 2367 10.03
7/8/2021 1:15:00 PM 18.02 64.436 0.494 7.55 1306 10.02
7/8/2021 1:30:00 PM 18 64.4 0.494 7.55 1434 9.96
7/8/2021 1:45:00 PM 17.99 64.382 0.493 7.55 1140 9.99
7/8/2021 2:00:00 PM 17.97 64.346 0.493 7.56 1233 9.99
7/8/2021 2:15:00 PM 17.97 64.346 0.493 7.56 1276 9.99
7/8/2021 2:30:00 PM 17.99 64.382 0.493 7.56 1183 10.01
7/8/2021 2:45:00 PM 18.01 64.418 0.493 7.57 1585 10.09
7/8/2021 3:00:00 PM 18.02 64.436 0.494 7.56 954.8 10.08
7/8/2021 3:15:00 PM 18.01 64.418 0.494 7.56 1068 10.07
7/8/2021 3:30:00 PM 18.04 64.472 0.494 7.56 1410 10.23
7/8/2021 3:45:00 PM 18.03 64.454 0.494 7.58 1078 10.35
7/8/2021 4:00:00 PM 18.04 64.472 0.493 7.59 1626 10.48
7/8/2021 4:15:00 PM 18.07 64.526 0.493 7.6 1292 10.53
7/8/2021 4:30:00 PM 18.08 64.544 0.491 7.62 1275 10.59
7/8/2021 4:45:00 PM 18.05 64.49 0.492 7.62 1068 10.48
7/8/2021 5:00:00 PM 18.02 64.436 0.492 7.62 978.7 10.31
7/8/2021 5:15:00 PM 17.98 64.364 0.491 7.62 1546 10.11
7/8/2021 5:30:00 PM 17.96 64.328 0.492 7.62 1332 9.87
7/8/2021 5:45:00 PM 17.93 64.274 0.494 7.61 988.6 9.63
7/8/2021 6:00:00 PM 17.9 64.22 0.492 7.6 964.1 9.47
7/8/2021 6:15:00 PM 18.99 66.182 0.517 7.61 1232 9.02
7/8/2021 6:30:00 PM 19.23 66.614 0.496 7.61 1000 8.65
7/8/2021 6:45:00 PM 19 66.2 0.472 7.6 946.2 8.73
7/8/2021 7:00:00 PM 19.31 66.758 0.425 7.61 1476 8.41
7/8/2021 7:15:00 PM 18.38 65.084 0.455 7.57 1466 8.59
7/8/2021 7:30:00 PM 18.14 64.652 0.461 7.56 1373 8.71
7/8/2021 7:45:00 PM 18.05 64.49 0.461 7.55 1226 8.69
7/8/2021 8:00:00 PM 18.11 64.598 0.456 7.56 811.3 8.57
7/8/2021 8:15:00 PM 18.22 64.796 0.456 7.57 762.7 8.48
7/8/2021 8:30:00 PM 18.36 65.048 0.443 7.56 796.9 8.3
7/8/2021 8:45:00 PM 18.54 65.372 0.425 7.54 780.5 8.04
7/8/2021 9:00:00 PM 18.74 65.732 0.404 7.5 810.3 7.69
7/8/2021 9:15:00 PM 18.93 66.074 0.385 7.45 801.3 7.44
7/8/2021 9:30:00 PM 19.06 66.308 0.372 7.4 930.8 7.2
7/8/2021 9:45:00 PM 19.15 66.47 0.361 7.36 871 7.01
7/8/2021 10:00:00 PM 19.22 66.596 0.353 7.33 850 6.85
7/8/2021 10:15:00 PM 19.26 66.668 0.346 7.29 901.6 6.7
7/8/2021 10:30:00 PM 19.3 66.74 0.344 7.26 879.5 6.53
7/8/2021 10:45:00 PM 19.34 66.812 0.341 7.24 876 6.44
7/8/2021 11:00:00 PM 19.36 66.848 0.339 7.22 878 6.34
7/8/2021 11:15:00 PM 19.32 66.776 0.343 7.21 851.1 6.33
7/8/2021 11:30:00 PM 19.22 66.596 0.353 7.2 878.3 6.36
7/8/2021 11:45:00 PM 19.04 66.272 0.37 7.21 933.5 6.47
7/9/2021 12:00:00 AM 18.82 65.876 0.388 7.23 861.2 6.58
7/9/2021 12:15:00 AM 18.59 65.462 0.406 7.24 938.2 6.69
7/9/2021 12:30:00 AM 18.36 65.048 0.422 7.26 856.8 6.79
7/9/2021 12:45:00 AM 18.17 64.706 0.435 7.28 960.5 6.88
7/9/2021 1:00:00 AM 17.99 64.382 0.445 7.3 868.5 6.96
7/9/2021 1:15:00 AM 17.84 64.112 0.454 7.31 868.1 7.02
7/9/2021 1:30:00 AM 17.73 63.914 0.458 7.32 888.7 7.06
7/9/2021 1:45:00 AM 17.63 63.734 0.462 7.33 888 7.06
7/9/2021 2:00:00 AM 17.55 63.59 0.466 7.33 839.1 7.06
7/9/2021 2:15:00 AM 17.49 63.482 0.469 7.33 928.3 7.08
7/9/2021 2:30:00 AM 17.44 63.392 0.471 7.34 924.8 7.08
7/9/2021 2:45:00 AM 17.4 63.32 0.472 7.33 929.1 7.08
7/9/2021 3:00:00 AM 17.35 63.23 0.474 7.34 875.7 7.08
7/9/2021 3:15:00 AM 17.29 63.122 0.476 7.34 917.7 7.07
7/9/2021 3:30:00 AM 17.24 63.032 0.478 7.34 861.5 7.05
7/9/2021 3:45:00 AM 17.2 62.96 0.48 7.33 856.1 7.07
7/9/2021 4:00:00 AM 17.15 62.87 0.482 7.34 943.3 7.08
7/9/2021 4:15:00 AM 17.1 62.78 0.484 7.34 915.8 7.06
7/9/2021 4:30:00 AM 17.06 62.708 0.485 7.34 912 7.05
7/9/2021 4:45:00 AM 17 62.6 0.487 7.34 900.4 7.06
7/9/2021 5:00:00 AM 16.96 62.528 0.488 7.33 1000 7.03
7/9/2021 5:15:00 AM 16.92 62.456 0.489 7.33 949.3 7.03
7/9/2021 5:30:00 AM 16.87 62.366 0.49 7.33 892.6 7.06
7/9/2021 5:45:00 AM 16.82 62.276 0.491 7.33 885.3 7.07
7/9/2021 6:00:00 AM 16.78 62.204 0.493 7.33 927.5 7.09
7/9/2021 6:15:00 AM 16.74 62.132 0.494 7.33 895.7 7.14
7/9/2021 6:30:00 AM 16.7 62.06 0.495 7.33 939.6 7.18
7/9/2021 6:45:00 AM 16.65 61.97 0.496 7.35 897.8 7.21
7/9/2021 7:00:00 AM 16.63 61.934 0.497 7.34 931.9 7.27
7/9/2021 7:15:00 AM 16.65 61.97 0.495 7.34 953.5 7.3
7/9/2021 7:30:00 AM 16.58 61.844 0.497 7.35 924.7 7.41
7/9/2021 7:45:00 AM 16.6 61.88 0.498 7.34 873.6 7.32
7/9/2021 8:00:00 AM 16.55 61.79 0.499 7.33 990.8 7.34
7/9/2021 8:15:00 AM 16.5 61.7 0.499 7.34 922.3 7.54
7/9/2021 8:30:00 AM 16.48 61.664 0.499 7.35 841.8 7.71
7/9/2021 8:45:00 AM 16.45 61.61 0.499 7.37 1113 7.75
7/9/2021 9:00:00 AM 16.43 61.574 0.499 7.36 943 7.79
7/9/2021 9:15:00 AM 16.43 61.574 0.499 7.38 933.1 7.9
7/9/2021 9:30:00 AM 16.44 61.592 0.498 7.38 915 8.05
7/9/2021 9:45:00 AM 16.46 61.628 0.499 7.39 843 8.14
7/9/2021 10:00:00 AM 16.5 61.7 0.499 7.39 964.4 8.33
7/9/2021 10:15:00 AM 16.55 61.79 0.499 7.4 913 8.55
7/9/2021 10:30:00 AM 16.61 61.898 0.499 7.41 873.2 8.71
7/9/2021 10:45:00 AM 16.66 61.988 0.499 7.42 925.8 8.9
7/9/2021 11:00:00 AM 16.73 62.114 0.5 7.43 874 9.1
7/9/2021 11:15:00 AM 16.85 62.33 0.501 7.45 1045 9.38
7/9/2021 11:30:00 AM 16.86 62.348 0.502 7.46 934.6 9.47
7/9/2021 11:45:00 AM 16.93 62.474 0.503 7.48 1131 9.57
7/9/2021 12:00:00 PM 17.11 62.798 0.503 7.48 943.1 9.84
7/9/2021 12:15:00 PM 17.33 63.194 0.504 7.5 1094 10
7/9/2021 12:30:00 PM 17.61 63.698 0.505 7.51 968.4 10.27
7/9/2021 12:45:00 PM 17.77 63.986 0.505 7.52 956.8 10.34
7/9/2021 1:00:00 PM 18.06 64.508 0.506 7.52 895.8 10.5
7/9/2021 1:15:00 PM 18.18 64.724 0.507 7.53 1039 10.55
7/9/2021 1:30:00 PM 18.34 65.012 0.507 7.53 969.8 10.6
7/9/2021 1:45:00 PM 18.35 65.03 0.507 7.54 961.9 10.55
7/9/2021 2:00:00 PM 18.38 65.084 0.507 7.54 962.3 10.48
7/9/2021 2:15:00 PM 18.39 65.102 0.507 7.55 1038 10.43
7/9/2021 2:30:00 PM 18.49 65.282 0.508 7.55 1031 10.44
7/9/2021 2:45:00 PM 18.61 65.498 0.508 7.57 1057 10.55
7/9/2021 3:00:00 PM 18.6 65.48 0.508 7.57 1020 10.5
7/9/2021 3:15:00 PM 18.59 65.462 0.507 7.57 1032 10.28
7/9/2021 3:30:00 PM 19.77 67.586 0.601 7.54 1141 9.46
7/9/2021 3:45:00 PM 19.23 66.614 0.563 7.5 1096 9.23
7/9/2021 4:00:00 PM 18.79 65.82201 0.529 7.5 1050 9.39
7/9/2021 4:15:00 PM 18.71 65.67799 0.52 7.5 1065 9.61
7/9/2021 4:30:00 PM 18.7 65.66 0.515 7.5 1104 9.76
7/9/2021 4:45:00 PM 18.7 65.66 0.513 7.5 1112 9.81
7/9/2021 5:00:00 PM 18.75 65.75 0.511 7.51 1056 9.87
7/9/2021 5:15:00 PM 18.73 65.714 0.511 7.52 1129 9.65
7/9/2021 5:30:00 PM 18.76 65.768 0.51 7.53 1121 9.64
7/9/2021 5:45:00 PM 18.89 66.002 0.509 7.54 1209 9.59
7/9/2021 6:00:00 PM 18.94 66.092 0.507 7.54 1171 9.46
7/9/2021 6:15:00 PM 19 66.2 0.508 7.55 1030 9.56
7/9/2021 6:30:00 PM 19.02 66.236 0.508 7.55 1116 9.57
7/9/2021 6:45:00 PM 19.01 66.218 0.507 7.56 1096 9.52
7/9/2021 7:00:00 PM 19 66.2 0.507 7.56 931.4 9.29
7/9/2021 7:15:00 PM 18.99 66.182 0.507 7.55 1034 9.1
7/9/2021 7:30:00 PM 18.99 66.182 0.506 7.54 921.4 8.98
7/9/2021 7:45:00 PM 18.98 66.164 0.506 7.54 1069 8.88
7/9/2021 8:00:00 PM 18.97 66.146 0.505 7.53 888.2 8.73
7/9/2021 8:15:00 PM 18.96 66.128 0.505 7.53 958.6 8.63
7/9/2021 8:30:00 PM 18.94 66.092 0.503 7.53 1023 8.48
7/9/2021 8:45:00 PM 18.92 66.056 0.502 7.51 1034 8.33
7/9/2021 9:00:00 PM 18.92 66.056 0.499 7.5 923.8 8.17
7/9/2021 9:15:00 PM 18.91 66.038 0.497 7.48 952.2 8.03
7/9/2021 9:30:00 PM 18.9 66.02 0.496 7.48 976.7 7.89
7/9/2021 9:45:00 PM 18.87 65.966 0.496 7.46 906.3 7.84
7/9/2021 10:00:00 PM 18.83 65.894 0.498 7.46 920.9 7.74
7/9/2021 10:15:00 PM 18.78 65.804 0.499 7.46 844.7 7.73
7/9/2021 10:30:00 PM 18.72 65.696 0.498 7.46 1021 7.68
7/9/2021 10:45:00 PM 18.66 65.588 0.499 7.46 1004 7.64
7/9/2021 11:00:00 PM 18.61 65.498 0.5 7.45 975.1 7.61
7/9/2021 11:15:00 PM 18.54 65.372 0.501 7.45 977.1 7.54
7/9/2021 11:30:00 PM 18.49 65.282 0.501 7.45 965.9 7.49
7/9/2021 11:45:00 PM 18.44 65.192 0.502 7.44 842.4 7.44
7/10/2021 12:00:00 AM 18.38 65.084 0.502 7.44 910 7.38
7/10/2021 12:15:00 AM 18.33 64.994 0.503 7.44 948.7 7.35
7/10/2021 12:30:00 AM 18.28 64.904 0.502 7.43 930.4 7.31
7/10/2021 12:45:00 AM 18.24 64.832 0.502 7.42 897.6 7.27
7/10/2021 1:00:00 AM 18.2 64.76 0.502 7.41 944 7.28
7/10/2021 1:15:00 AM 18.15 64.67 0.501 7.41 988.1 7.22
7/10/2021 1:30:00 AM 18.11 64.598 0.501 7.41 964.2 7.2
7/10/2021 1:45:00 AM 18.06 64.508 0.5 7.41 916.5 7.18
7/10/2021 2:00:00 AM 18.02 64.436 0.499 7.41 982.9 7.15
7/10/2021 2:15:00 AM 17.98 64.364 0.498 7.4 944.8 7.11
7/10/2021 2:30:00 AM 17.96 64.328 0.498 7.4 920.4 7.1
7/10/2021 2:45:00 AM 17.93 64.274 0.497 7.39 909 7.09
7/10/2021 3:00:00 AM 17.89 64.202 0.498 7.39 904 7.07
7/10/2021 3:15:00 AM 17.86 64.148 0.498 7.38 951 7.06
7/10/2021 3:30:00 AM 17.82 64.076 0.498 7.38 948.6 7.06
7/10/2021 3:45:00 AM 17.77 63.986 0.498 7.38 1059 7.06
7/10/2021 4:00:00 AM 17.71 63.878 0.498 7.38 933.4 7.08
7/10/2021 4:15:00 AM 17.65 63.77 0.498 7.38 1008 7.08
7/10/2021 4:30:00 AM 17.59 63.662 0.499 7.38 887.3 7.09
7/10/2021 4:45:00 AM 17.52 63.536 0.499 7.38 906.9 7.1
7/10/2021 5:00:00 AM 17.46 63.428 0.5 7.38 963.2 7.11
7/10/2021 5:15:00 AM 17.4 63.32 0.501 7.38 1043 7.12
7/10/2021 5:30:00 AM 17.33 63.194 0.502 7.38 966.5 7.15
7/10/2021 5:45:00 AM 17.26 63.068 0.503 7.37 981.1 7.17
7/10/2021 6:00:00 AM 17.19 62.942 0.504 7.38 937.1 7.2
7/10/2021 6:15:00 AM 17.11 62.798 0.506 7.37 1026 7.22
7/10/2021 6:30:00 AM 17.04 62.672 0.507 7.38 968.7 7.27
7/10/2021 6:45:00 AM 16.98 62.564 0.508 7.38 898.5 7.33
7/10/2021 7:00:00 AM 16.92 62.456 0.509 7.39 1076 7.42
7/10/2021 7:15:00 AM 16.87 62.366 0.51 7.39 947.5 7.49
7/10/2021 7:30:00 AM 16.82 62.276 0.511 7.4 1052 7.58
7/10/2021 7:45:00 AM 16.78 62.204 0.511 7.4 899 7.68
7/10/2021 8:00:00 AM 16.73 62.114 0.512 7.41 956.8 7.8
7/10/2021 8:15:00 AM 16.69 62.042 0.512 7.41 1001 7.88
7/10/2021 8:30:00 AM 16.67 62.006 0.513 7.42 917.8 8
7/10/2021 8:45:00 AM 16.66 61.988 0.514 7.43 895 8.17
7/10/2021 9:00:00 AM 16.68 62.024 0.514 7.43 980.3 8.39
7/10/2021 9:15:00 AM 16.7 62.06 0.514 7.45 969.4 8.61
7/10/2021 9:30:00 AM 16.75 62.15 0.514 7.46 949.1 8.86
7/10/2021 9:45:00 AM 16.8 62.24 0.514 7.47 896.3 9.08
7/10/2021 10:00:00 AM 16.85 62.33 0.514 7.48 879 9.24
7/10/2021 10:15:00 AM 16.92 62.456 0.514 7.49 923.1 9.4
7/10/2021 10:30:00 AM 17 62.6 0.514 7.49 1060 9.53
7/10/2021 10:45:00 AM 17.14 62.852 0.514 7.51 1020 9.7
7/10/2021 11:00:00 AM 17.28 63.104 0.514 7.52 869.4 9.95
7/10/2021 11:15:00 AM 17.21 62.978 0.514 7.53 977.7 9.98
7/10/2021 11:30:00 AM 17.38 63.284 0.514 7.54 937 10.21
7/10/2021 11:45:00 AM 17.58 63.644 0.514 7.55 859.2 10.46
7/10/2021 12:00:00 PM 17.71 63.878 0.514 7.55 892.5 10.64
7/10/2021 12:15:00 PM 17.81 64.058 0.514 7.56 865.3 10.73
7/10/2021 12:30:00 PM 18.03 64.454 0.512 7.57 950.7 10.88
7/10/2021 12:45:00 PM 18.22 64.796 0.513 7.58 839.3 11
7/10/2021 1:00:00 PM 18.25 64.85 0.512 7.59 910.6 11.01
7/10/2021 1:15:00 PM 18.48 65.264 0.512 7.59 926.7 11.16
7/10/2021 1:30:00 PM 18.6 65.48 0.512 7.61 969.7 11.23
7/10/2021 1:45:00 PM 18.7 65.66 0.51 7.61 885.3 11.27
7/10/2021 2:00:00 PM 18.71 65.67799 0.511 7.62 851.1 11.26
7/10/2021 2:15:00 PM 18.76 65.768 0.509 7.62 964.6 11.3
7/10/2021 2:30:00 PM 18.82 65.876 0.51 7.63 883.4 11.33
7/10/2021 2:45:00 PM 18.88 65.984 0.509 7.63 889.4 11.34
7/10/2021 3:00:00 PM 18.96 66.128 0.509 7.64 1076 11.37
7/10/2021 3:15:00 PM 19.15 66.47 0.507 7.64 926.4 11.45
7/10/2021 3:30:00 PM 19.26 66.668 0.506 7.65 980.8 11.42
7/10/2021 3:45:00 PM 19.36 66.848 0.506 7.65 938.4 11.41
7/10/2021 4:00:00 PM 19.35 66.83 0.504 7.65 1023 11.26
7/10/2021 4:15:00 PM 19.5 67.1 0.505 7.65 885.7 11.27
7/10/2021 4:30:00 PM 19.64 67.352 0.503 7.66 980.4 11.27
7/10/2021 4:45:00 PM 19.6 67.28 0.503 7.65 981.9 11.15
7/10/2021 5:00:00 PM 19.54 67.172 0.503 7.65 1057 11
7/10/2021 5:15:00 PM 19.6 67.28 0.502 7.66 1250 10.96
7/10/2021 5:30:00 PM 19.59 67.262 0.502 7.66 1296 10.91
7/10/2021 5:45:00 PM 19.53 67.154 0.501 7.66 1055 10.68
7/10/2021 6:00:00 PM 19.5 67.1 0.501 7.66 922.2 10.53
7/10/2021 6:15:00 PM 19.46 67.028 0.501 7.65 805.8 10.4
7/10/2021 6:30:00 PM 19.45 67.01 0.5 7.64 904.4 10.25
7/10/2021 6:45:00 PM 19.44 66.992 0.501 7.64 902.3 10.13
7/10/2021 7:00:00 PM 19.42 66.956 0.502 7.63 870.2 9.82
7/10/2021 7:15:00 PM 19.4 66.92 0.502 7.62 810 9.65
7/10/2021 7:30:00 PM 19.38 66.884 0.501 7.62 914 9.51
7/10/2021 7:45:00 PM 19.35 66.83 0.5 7.61 902.5 9.32
7/10/2021 8:00:00 PM 19.33 66.794 0.5 7.6 865.8 9.12
7/10/2021 8:15:00 PM 19.3 66.74 0.499 7.58 929.9 8.92
7/10/2021 8:30:00 PM 19.27 66.686 0.499 7.58 903.2 8.75
7/10/2021 8:45:00 PM 19.23 66.614 0.497 7.57 1011 8.55
7/10/2021 9:00:00 PM 19.2 66.56 0.5 7.57 926.3 8.39
7/10/2021 9:15:00 PM 19.16 66.488 0.5 7.55 897.8 8.25
7/10/2021 9:30:00 PM 19.13 66.434 0.499 7.54 836.9 8.13
7/10/2021 9:45:00 PM 19.09 66.362 0.498 7.53 841.1 8.01
7/10/2021 10:00:00 PM 19.05 66.29 0.496 7.52 968.9 7.92
7/10/2021 10:15:00 PM 19.01 66.218 0.497 7.51 745.2 7.81
7/10/2021 10:30:00 PM 18.97 66.146 0.496 7.51 1023 7.71
7/10/2021 10:45:00 PM 18.92 66.056 0.498 7.5 936.5 7.65
7/10/2021 11:00:00 PM 18.88 65.984 0.496 7.49 1030 7.54
7/10/2021 11:15:00 PM 18.82 65.876 0.496 7.48 1050 7.46
7/10/2021 11:30:00 PM 18.77 65.786 0.496 7.48 998.9 7.41
7/10/2021 11:45:00 PM 18.71 65.67799 0.496 7.46 1068 7.33
7/11/2021 12:00:00 AM 18.66 65.588 0.497 7.45 904 7.26
7/11/2021 12:15:00 AM 18.6 65.48 0.497 7.44 963.4 7.23
7/11/2021 12:30:00 AM 18.55 65.39 0.498 7.44 941.2 7.17
7/11/2021 12:45:00 AM 18.5 65.3 0.498 7.44 881.3 7.14
7/11/2021 1:00:00 AM 18.44 65.192 0.498 7.42 888.6 7.09
7/11/2021 1:15:00 AM 18.39 65.102 0.499 7.42 981.1 7.08
7/11/2021 1:30:00 AM 18.33 64.994 0.499 7.41 916.6 7.03
7/11/2021 1:45:00 AM 18.28 64.904 0.5 7.41 939.2 7.01
7/11/2021 2:00:00 AM 18.23 64.814 0.5 7.4 877.2 6.98
7/11/2021 2:15:00 AM 18.18 64.724 0.501 7.39 970.2 6.99
7/11/2021 2:30:00 AM 18.13 64.634 0.501 7.39 906 6.97
7/11/2021 2:45:00 AM 18.08 64.544 0.501 7.38 895.9 6.94
7/11/2021 3:00:00 AM 18.03 64.454 0.502 7.38 947.2 6.95
7/11/2021 3:15:00 AM 17.98 64.364 0.502 7.38 958.5 6.92
7/11/2021 3:30:00 AM 17.93 64.274 0.5 7.37 987.3 6.92
7/11/2021 3:45:00 AM 17.89 64.202 0.503 7.38 923 6.91
7/11/2021 4:00:00 AM 17.84 64.112 0.502 7.37 1009 6.92
7/11/2021 4:15:00 AM 17.8 64.04 0.503 7.37 1031 6.94
7/11/2021 4:30:00 AM 17.76 63.968 0.502 7.37 934.4 6.95
7/11/2021 4:45:00 AM 17.72 63.896 0.503 7.37 923.2 6.97
7/11/2021 5:00:00 AM 17.68 63.824 0.504 7.37 1017 6.96
7/11/2021 5:15:00 AM 17.65 63.77 0.504 7.37 1011 6.97
7/11/2021 5:30:00 AM 17.6 63.68 0.506 7.37 851.2 6.99
7/11/2021 5:45:00 AM 17.57 63.626 0.506 7.37 936.1 6.99
7/11/2021 6:00:00 AM 17.53 63.554 0.506 7.37 871.1 7
7/11/2021 6:15:00 AM 17.48 63.464 0.508 7.37 907.2 7.02
7/11/2021 6:30:00 AM 17.44 63.392 0.509 7.37 831.9 7.06
7/11/2021 6:45:00 AM 17.41 63.338 0.51 7.37 929.4 7.07
7/11/2021 7:00:00 AM 17.37 63.266 0.511 7.37 897.6 7.14
7/11/2021 7:15:00 AM 17.34 63.212 0.512 7.37 897 7.19
7/11/2021 7:30:00 AM 17.3 63.14 0.513 7.38 867.7 7.28
7/11/2021 7:45:00 AM 17.28 63.104 0.513 7.38 934.5 7.43
7/11/2021 8:00:00 AM 17.27 63.086 0.514 7.39 916.9 7.58
7/11/2021 8:15:00 AM 17.27 63.086 0.513 7.39 927.2 7.78
7/11/2021 8:30:00 AM 17.26 63.068 0.515 7.4 994.5 7.92
7/11/2021 8:45:00 AM 17.27 63.086 0.516 7.42 953.2 8.13
7/11/2021 9:00:00 AM 17.27 63.086 0.516 7.42 879.9 8.33
7/11/2021 9:15:00 AM 17.3 63.14 0.515 7.44 910.5 8.52
7/11/2021 9:30:00 AM 17.3 63.14 0.518 7.44 936.8 8.7
7/11/2021 9:45:00 AM 17.33 63.194 0.515 7.46 937.4 8.92
7/11/2021 10:00:00 AM 17.38 63.284 0.517 7.47 873.1 9.16
7/11/2021 10:15:00 AM 17.44 63.392 0.517 7.48 937.3 9.42
7/11/2021 10:30:00 AM 17.48 63.464 0.516 7.49 915.1 9.61
7/11/2021 10:45:00 AM 17.52 63.536 0.516 7.5 850.4 9.78
7/11/2021 11:00:00 AM 17.54 63.572 0.517 7.51 987.2 9.92
7/11/2021 11:15:00 AM 17.56 63.608 0.515 7.52 902.1 10.01
7/11/2021 11:30:00 AM 17.56 63.608 0.517 7.53 879.3 10.06
7/11/2021 11:45:00 AM 17.57 63.626 0.517 7.53 925.7 10.09
7/11/2021 12:00:00 PM 17.56 63.608 0.516 7.54 916.7 10.13
7/11/2021 12:15:00 PM 17.64 63.752 0.515 7.54 858.8 10.3
7/11/2021 12:30:00 PM 17.76 63.968 0.514 7.55 849.7 10.53
7/11/2021 12:45:00 PM 17.88 64.184 0.513 7.57 902.9 10.76
7/11/2021 1:00:00 PM 18.06 64.508 0.514 7.58 880.1 11.04
7/11/2021 1:15:00 PM 18.28 64.904 0.513 7.59 879.9 11.34
7/11/2021 1:30:00 PM 18.42 65.156 0.512 7.6 818.8 11.47
7/11/2021 1:45:00 PM 18.5 65.3 0.511 7.61 963.8 11.52
7/11/2021 2:00:00 PM 18.54 65.372 0.511 7.63 859.5 11.54
7/11/2021 2:15:00 PM 18.67 65.606 0.511 7.63 884.4 11.61
7/11/2021 2:30:00 PM 18.76 65.768 0.511 7.64 954.7 11.57
7/11/2021 2:45:00 PM 18.93 66.074 0.51 7.64 975.4 11.72
7/11/2021 3:00:00 PM 19.05 66.29 0.508 7.65 1250 11.75
7/11/2021 3:15:00 PM 19.03 66.254 0.504 7.65 1276 11.63
7/11/2021 3:30:00 PM 19.07 66.326 0.506 7.65 1177 11.55
7/11/2021 3:45:00 PM 19.23 66.614 0.506 7.66 875.2 11.66
7/11/2021 4:00:00 PM 19.29 66.722 0.504 7.66 874.3 11.61
7/11/2021 4:15:00 PM 19.29 66.722 0.504 7.67 915.9 11.6
7/11/2021 4:30:00 PM 19.21 66.578 0.502 7.66 920.6 11.29
7/11/2021 4:45:00 PM 19.18 66.524 0.502 7.66 934.6 10.89
7/11/2021 5:00:00 PM 19.26 66.668 0.502 7.66 825.8 10.95
7/11/2021 5:15:00 PM 19.19 66.542 0.504 7.65 847.1 10.67
7/11/2021 5:30:00 PM 19.14 66.452 0.502 7.64 930.2 10.44
7/11/2021 5:45:00 PM 19.09 66.362 0.499 7.64 896.6 10.18
7/11/2021 6:00:00 PM 19.08 66.344 0.501 7.62 867.8 9.97
7/11/2021 6:15:00 PM 19.03 66.254 0.501 7.61 841.3 9.75
7/11/2021 6:30:00 PM 18.97 66.146 0.499 7.61 880.6 9.52
7/11/2021 6:45:00 PM 18.95 66.11 0.5 7.59 990.5 9.36
7/11/2021 7:00:00 PM 18.91 66.038 0.502 7.59 999 9.15
7/11/2021 7:15:00 PM 18.89 66.002 0.502 7.58 928.9 8.96
7/11/2021 7:30:00 PM 20.93 69.674 0.432 7.63 1097 8.25
7/11/2021 7:45:00 PM 20.08 68.144 0.439 7.58 1123 8.17
7/11/2021 8:00:00 PM 19.46 67.028 0.456 7.54 967.3 8.12
7/11/2021 8:15:00 PM 19.02 66.236 0.454 7.53 1143 8.23
7/11/2021 8:30:00 PM 18.96 66.128 0.449 7.56 471.7 8.35
7/11/2021 8:45:00 PM 19.18 66.524 0.427 7.58 372.8 8.16
7/11/2021 9:00:00 PM 19.45 67.01 0.407 7.58 360.4 7.94
7/11/2021 9:15:00 PM 19.71 67.478 0.358 7.54 391.6 7.65
7/11/2021 9:30:00 PM 19.93 67.874 0.32 7.48 415.5 7.35
7/11/2021 9:45:00 PM 20.06 68.108 0.299 7.42 396.5 7.14
7/11/2021 10:00:00 PM 20.18 68.324 0.277 7.36 417.8 6.92
7/11/2021 10:15:00 PM 20.3 68.54 0.259 7.32 424.8 6.79
7/11/2021 10:30:00 PM 20.36 68.648 0.259 7.3 415.5 6.71
7/11/2021 10:45:00 PM 20.28 68.504 0.277 7.27 482.7 6.68
7/11/2021 11:00:00 PM 20.05 68.09 0.313 7.26 439 6.75
7/11/2021 11:15:00 PM 19.71 67.478 0.359 7.28 412.5 6.86
7/11/2021 11:30:00 PM 19.49 67.082 0.386 7.31 375.5 6.94
7/11/2021 11:45:00 PM 19.45 67.01 0.386 7.32 341.1 6.91
7/12/2021 12:00:00 AM 19.52 67.136 0.365 7.31 388.8 6.81
7/12/2021 12:15:00 AM 19.88 67.784 0.345 7.28 419.4 6.56
7/12/2021 12:30:00 AM 20.24 68.432 0.331 7.24 390.8 6.25
7/12/2021 12:45:00 AM 20.39 68.702 0.323 7.21 374.8 6.08
7/12/2021 1:00:00 AM 20.41 68.738 0.319 7.2 362.1 6.04
7/12/2021 1:15:00 AM 20.36 68.648 0.317 7.19 341.1 6.02
7/12/2021 1:30:00 AM 20.27 68.486 0.319 7.18 359.3 6.02
7/12/2021 1:45:00 AM 20.13 68.234 0.324 7.16 363.3 6.04
7/12/2021 2:00:00 AM 19.98 67.964 0.33 7.16 373.1 6.06
7/12/2021 2:15:00 AM 19.82 67.676 0.337 7.15 353.1 6.08
7/12/2021 2:30:00 AM 19.69 67.442 0.344 7.14 352.7 6.09
7/12/2021 2:45:00 AM 19.56 67.208 0.351 7.15 361.2 6.12
7/12/2021 3:00:00 AM 19.44 66.992 0.358 7.14 359.8 6.17
7/12/2021 3:15:00 AM 19.3 66.74 0.366 7.14 384.6 6.18
7/12/2021 3:30:00 AM 19.17 66.506 0.375 7.14 349.8 6.23
7/12/2021 3:45:00 AM 19.03 66.254 0.383 7.14 360.8 6.3
7/12/2021 4:00:00 AM 18.9 66.02 0.391 7.15 399 6.34
7/12/2021 4:15:00 AM 18.78 65.804 0.397 7.16 340 6.37
7/12/2021 4:30:00 AM 18.66 65.588 0.403 7.16 388.8 6.46
7/12/2021 4:45:00 AM 18.55 65.39 0.407 7.16 421.5 6.51
7/12/2021 5:00:00 AM 18.44 65.192 0.41 7.17 359.4 6.57
7/12/2021 5:15:00 AM 18.34 65.012 0.413 7.17 394.2 6.59
7/12/2021 5:30:00 AM 18.25 64.85 0.418 7.17 407.5 6.59
7/12/2021 5:45:00 AM 18.16 64.688 0.42 7.17 327.7 6.58
7/12/2021 6:00:00 AM 18.08 64.544 0.423 7.17 374.6 6.56
7/12/2021 6:15:00 AM 18 64.4 0.426 7.18 371.8 6.53
7/12/2021 6:30:00 AM 17.93 64.274 0.43 7.18 406.8 6.5
7/12/2021 6:45:00 AM 17.86 64.148 0.433 7.19 379.5 6.57
7/12/2021 7:00:00 AM 17.81 64.058 0.435 7.19 387 6.63
7/12/2021 7:15:00 AM 17.79 64.022 0.436 7.2 413 6.71
7/12/2021 7:30:00 AM 17.74 63.932 0.44 7.19 409.4 6.73
7/12/2021 7:45:00 AM 17.65 63.77 0.445 7.2 399.8 6.88
7/12/2021 8:00:00 AM 17.6 63.68 0.447 7.21 381.8 6.98
7/12/2021 8:15:00 AM 17.56 63.608 0.448 7.22 390.5 7.04
7/12/2021 8:30:00 AM 17.54 63.572 0.449 7.22 415.8 7.14
7/12/2021 8:45:00 AM 17.54 63.572 0.45 7.23 458.1 7.2
7/12/2021 9:00:00 AM 17.56 63.608 0.45 7.24 420 7.3
7/12/2021 9:15:00 AM 17.6 63.68 0.45 7.24 445.1 7.39
7/12/2021 9:30:00 AM 17.63 63.734 0.451 7.25 358.2 7.48
7/12/2021 9:45:00 AM 17.69 63.842 0.453 7.25 464.7 7.62
7/12/2021 10:00:00 AM 17.78 64.004 0.454 7.26 429.7 7.76
7/12/2021 10:15:00 AM 17.83 64.094 0.455 7.27 449.5 7.87
7/12/2021 10:30:00 AM 17.92 64.256 0.457 7.27 465.6 7.95
7/12/2021 10:45:00 AM 18.04 64.472 0.46 7.28 447.7 8.13
7/12/2021 11:00:00 AM 18.09 64.562 0.462 7.3 445.1 8.2
7/12/2021 11:15:00 AM 18.23 64.814 0.464 7.31 472.3 8.39
7/12/2021 11:30:00 AM 18.4 65.12 0.467 7.33 431 8.59
7/12/2021 11:45:00 AM 18.64 65.552 0.47 7.35 433.8 8.86
7/12/2021 12:00:00 PM 18.81 65.858 0.471 7.36 434.3 9.04
7/12/2021 12:15:00 PM 18.98 66.164 0.474 7.38 371 9.22
7/12/2021 12:30:00 PM 19.14 66.452 0.476 7.39 422.2 9.39
7/12/2021 12:45:00 PM 19.27 66.686 0.479 7.41 499.5 9.51
7/12/2021 1:00:00 PM 19.4 66.92 0.483 7.42 467.9 9.65
7/12/2021 1:15:00 PM 19.49 67.082 0.486 7.44 342.2 9.71
7/12/2021 1:30:00 PM 19.63 67.334 0.488 7.45 403.7 9.83
7/12/2021 1:45:00 PM 19.82 67.676 0.487 7.47 442.7 9.97
7/12/2021 2:00:00 PM 19.88 67.784 0.49 7.48 436.8 9.97
7/12/2021 2:15:00 PM 19.97 67.946 0.488 7.48 420.5 9.99
7/12/2021 2:30:00 PM 20.11 68.198 0.487 7.5 514.9 10.03
7/12/2021 2:45:00 PM 20.13 68.234 0.487 7.5 429.9 10.01
7/12/2021 3:00:00 PM 20.1 68.18 0.49 7.5 448.1 9.8
7/12/2021 3:15:00 PM 20.38 68.684 0.486 7.49 512.8 9.29
7/12/2021 3:30:00 PM 20.4 68.72 0.513 7.48 452.2 9.04
7/12/2021 3:45:00 PM 20.27 68.486 0.508 7.47 526 9.09
7/12/2021 4:00:00 PM 20.27 68.486 0.505 7.48 463 9.21
7/12/2021 4:15:00 PM 20.43 68.774 0.498 7.5 499.5 9.45
7/12/2021 4:30:00 PM 20.4 68.72 0.496 7.5 495.8 9.4
7/12/2021 4:45:00 PM 20.38 68.684 0.498 7.49 543.3 9.2
7/12/2021 5:00:00 PM 20.31 68.558 0.499 7.48 612.7 8.88
7/12/2021 5:15:00 PM 20.24 68.432 0.494 7.46 516.9 8.62
7/12/2021 5:30:00 PM 20.25 68.45 0.497 7.45 468.9 8.32
7/12/2021 5:45:00 PM 20.25 68.45 0.508 7.45 570 8.23
7/12/2021 6:00:00 PM 20.26 68.468 0.501 7.44 555.2 8.16
7/12/2021 6:15:00 PM 20.3 68.54 0.496 7.44 554 8.16
7/12/2021 6:30:00 PM 20.34 68.612 0.493 7.42 487.1 8.09
7/12/2021 6:45:00 PM 20.34 68.612 0.49 7.42 524.7 8.05
7/12/2021 7:00:00 PM 20.32 68.576 0.491 7.41 526.8 7.98
7/12/2021 7:15:00 PM 20.29 68.522 0.493 7.4 518 7.9
7/12/2021 7:30:00 PM 20.26 68.468 0.495 7.39 556.8 7.82
7/12/2021 7:45:00 PM 20.24 68.432 0.498 7.39 365.7 7.78
7/12/2021 8:00:00 PM 20.23 68.414 0.501 7.39 543.6 7.62
7/12/2021 8:15:00 PM 20.21 68.378 0.504 7.38 500.3 7.55
7/12/2021 8:30:00 PM 20.16 68.288 0.503 7.38 510 7.55
7/12/2021 8:45:00 PM 20.11 68.198 0.506 7.38 551.9 7.51
7/12/2021 9:00:00 PM 20.06 68.108 0.506 7.38 492.7 7.41
7/12/2021 9:15:00 PM 20.01 68.018 0.507 7.37 594.8 7.35
7/12/2021 9:30:00 PM 19.96 67.92799 0.509 7.36 454.1 7.32
7/12/2021 9:45:00 PM 19.93 67.874 0.51 7.36 457.2 7.28
7/12/2021 10:00:00 PM 19.89 67.802 0.51 7.36 517.5 7.24
7/12/2021 10:15:00 PM 19.86 67.748 0.511 7.36 557.2 7.21
7/12/2021 10:30:00 PM 19.82 67.676 0.51 7.35 597.7 7.14
7/12/2021 10:45:00 PM 19.78 67.604 0.508 7.34 551.8 7.06
7/12/2021 11:00:00 PM 19.75 67.55 0.503 7.33 532.1 6.95
7/12/2021 11:15:00 PM 19.73 67.514 0.5 7.32 557.4 6.84
7/12/2021 11:30:00 PM 19.7 67.46 0.496 7.32 540.7 6.76
7/12/2021 11:45:00 PM 19.66 67.388 0.496 7.3 501 6.76
7/13/2021 12:00:00 AM 19.61 67.298 0.496 7.3 568.1 6.75
7/13/2021 12:15:00 AM 19.55 67.19 0.498 7.3 497.8 6.76
7/13/2021 12:30:00 AM 19.49 67.082 0.499 7.3 599.3 6.78
7/13/2021 12:45:00 AM 19.42 66.956 0.5 7.3 618.1 6.79
7/13/2021 1:00:00 AM 19.34 66.812 0.5 7.3 611.3 6.81
7/13/2021 1:15:00 AM 19.25 66.65 0.5 7.3 629.8 6.83
7/13/2021 1:30:00 AM 19.15 66.47 0.5 7.3 687 6.82
7/13/2021 1:45:00 AM 19.04 66.272 0.499 7.29 635.9 6.83
7/13/2021 2:00:00 AM 18.94 66.092 0.498 7.29 562.7 6.82
7/13/2021 2:15:00 AM 18.83 65.894 0.499 7.29 679 6.83
7/13/2021 2:30:00 AM 18.73 65.714 0.5 7.29 612.2 6.84
7/13/2021 2:45:00 AM 18.63 65.534 0.501 7.29 660 6.88
7/13/2021 3:00:00 AM 18.51 65.318 0.5 7.29 620.9 6.92
7/13/2021 3:15:00 AM 18.4 65.12 0.5 7.29 652.7 6.97
7/13/2021 3:30:00 AM 18.29 64.922 0.5 7.29 648.1 7.01
7/13/2021 3:45:00 AM 18.18 64.724 0.501 7.29 665.1 7.02
7/13/2021 4:00:00 AM 18.09 64.562 0.501 7.28 533.9 6.92
7/13/2021 4:15:00 AM 17.97 64.346 0.499 7.28 518.7 6.97
7/13/2021 4:30:00 AM 17.88 64.184 0.497 7.28 533.3 6.99
7/13/2021 4:45:00 AM 17.79 64.022 0.495 7.28 476.3 7
7/13/2021 5:00:00 AM 17.71 63.878 0.492 7.28 560.9 7.04
7/13/2021 5:15:00 AM 17.65 63.77 0.491 7.27 529.1 7.07
7/13/2021 5:30:00 AM 17.57 63.626 0.49 7.27 589.9 7.12
7/13/2021 5:45:00 AM 17.49 63.482 0.489 7.27 583 7.14
7/13/2021 6:00:00 AM 17.41 63.338 0.489 7.27 548.4 7.18
7/13/2021 6:15:00 AM 17.34 63.212 0.49 7.27 536.2 7.24
7/13/2021 6:30:00 AM 17.28 63.104 0.49 7.28 490.7 7.29
7/13/2021 6:45:00 AM 17.21 62.978 0.491 7.28 490 7.34
7/13/2021 7:00:00 AM 17.15 62.87 0.493 7.28 481.3 7.39
7/13/2021 7:15:00 AM 17.09 62.762 0.493 7.29 481.4 7.46
7/13/2021 7:30:00 AM 17.02 62.636 0.495 7.29 473.7 7.57
7/13/2021 7:45:00 AM 16.97 62.546 0.495 7.3 521.6 7.64
7/13/2021 8:00:00 AM 16.92 62.456 0.496 7.3 529.5 7.73
7/13/2021 8:15:00 AM 16.91 62.438 0.497 7.31 491.8 7.85
7/13/2021 8:30:00 AM 16.9 62.42 0.497 7.32 373.7 7.95
7/13/2021 8:45:00 AM 16.87 62.366 0.498 7.33 471.5 8.04
7/13/2021 9:00:00 AM 16.89 62.402 0.5 7.34 489.9 8.21
7/13/2021 9:15:00 AM 16.98 62.564 0.502 7.36 486.9 8.45
7/13/2021 9:30:00 AM 17.05 62.69 0.5 7.36 466.1 8.62
7/13/2021 9:45:00 AM 17.09 62.762 0.5 7.37 463.4 8.76
7/13/2021 10:00:00 AM 17.12 62.816 0.501 7.38 401.4 8.86
7/13/2021 10:15:00 AM 17.24 63.032 0.501 7.4 434.7 9.05
7/13/2021 10:30:00 AM 17.31 63.158 0.501 7.41 522.4 9.2
7/13/2021 10:45:00 AM 17.32 63.176 0.501 7.42 514.5 9.25
7/13/2021 11:00:00 AM 17.33 63.194 0.499 7.43 511.9 9.32
7/13/2021 11:15:00 AM 17.34 63.212 0.499 7.43 502.2 9.38
7/13/2021 11:30:00 AM 17.47 63.446 0.499 7.45 476 9.5
7/13/2021 11:45:00 AM 17.65 63.77 0.5 7.46 408.4 9.69
7/13/2021 12:00:00 PM 17.82 64.076 0.5 7.47 491.3 9.81
7/13/2021 12:15:00 PM 18.1 64.58 0.5 7.49 470.2 10.04
7/13/2021 12:30:00 PM 18.34 65.012 0.501 7.5 498.1 10.21
7/13/2021 12:45:00 PM 18.52 65.336 0.502 7.52 417.6 10.33
7/13/2021 1:00:00 PM 18.69 65.642 0.499 7.53 434 10.39
7/13/2021 1:15:00 PM 18.88 65.984 0.499 7.54 454.5 10.5
7/13/2021 1:30:00 PM 19.07 66.326 0.498 7.56 409.7 10.62
7/13/2021 1:45:00 PM 19.27 66.686 0.493 7.56 384.4 10.71
7/13/2021 2:00:00 PM 19.41 66.938 0.487 7.57 352.5 10.73
7/13/2021 2:15:00 PM 19.56 67.208 0.493 7.58 319.4 10.73
7/13/2021 2:30:00 PM 19.58 67.244 0.489 7.58 433.8 10.63
7/13/2021 2:45:00 PM 19.65 67.37 0.487 7.58 323.4 10.52
7/13/2021 3:00:00 PM 19.7 67.46 0.481 7.59 382.3 10.54
7/13/2021 3:15:00 PM 19.8 67.64 0.474 7.6 303.8 10.55
7/13/2021 3:30:00 PM 20 68 0.467 7.61 290.2 10.65
7/13/2021 3:45:00 PM 20.22 68.396 0.468 7.62 325 10.67
7/13/2021 4:00:00 PM 20.27 68.486 0.463 7.62 365.2 10.57
7/13/2021 4:15:00 PM 20.46 68.828 0.468 7.62 393.6 10.57
7/13/2021 4:30:00 PM 20.5 68.9 0.468 7.61 387.4 10.46
7/13/2021 4:45:00 PM 20.54 68.972 0.468 7.61 324.7 10.31
7/13/2021 5:00:00 PM 20.64 69.152 0.471 7.61 342.8 10.14
7/13/2021 5:15:00 PM 20.67 69.206 0.48 7.6 355.6 10.03
7/13/2021 5:30:00 PM 20.81 69.458 0.482 7.6 314.3 10.03
7/13/2021 5:45:00 PM 20.93 69.674 0.479 7.63 312.8 9.99
7/13/2021 6:00:00 PM 20.98 69.764 0.475 7.63 300 9.84
7/13/2021 6:15:00 PM 21 69.8 0.479 7.62 317.9 9.55
7/13/2021 6:30:00 PM 21.01 69.818 0.479 7.6 325.3 9.27
7/13/2021 6:45:00 PM 21.02 69.836 0.477 7.59 333.9 9.05
7/13/2021 7:00:00 PM 21.03 69.854 0.476 7.56 384.7 8.86
7/13/2021 7:15:00 PM 21.06 69.908 0.474 7.56 395.5 8.73
7/13/2021 7:30:00 PM 21.1 69.98 0.476 7.55 292.3 8.53
7/13/2021 7:45:00 PM 21.12 70.016 0.476 7.5 312.7 8.39
7/13/2021 8:00:00 PM 21.13 70.034 0.478 7.53 330.9 8.22
7/13/2021 8:15:00 PM 21.12 70.016 0.48 7.52 336.7 8.04
7/13/2021 8:30:00 PM 21.12 70.016 0.48 7.5 378.4 7.86
7/13/2021 8:45:00 PM 21.26 70.268 0.483 7.49 354.2 7.34
7/13/2021 9:00:00 PM 21.57 70.826 0.501 7.51 448.7 7.31
7/13/2021 9:15:00 PM 21.35 70.43 0.431 7.53 575.2 7.23
7/13/2021 9:30:00 PM 21.03 69.854 0.451 7.5 539.7 7.12
7/13/2021 9:45:00 PM 20.87 69.566 0.462 7.47 501.8 7.08
7/13/2021 10:00:00 PM 20.89 69.602 0.464 7.46 318.1 7.22
7/13/2021 10:15:00 PM 20.95 69.71 0.439 7.45 352.4 7.19
7/13/2021 10:30:00 PM 20.99 69.782 0.415 7.45 348.4 7.05
7/13/2021 10:45:00 PM 21.01 69.818 0.371 7.42 351.9 6.88
7/13/2021 11:00:00 PM 21.02 69.836 0.335 7.38 367.2 6.73
7/13/2021 11:15:00 PM 21.01 69.818 0.309 7.34 419.9 6.58
7/13/2021 11:30:00 PM 21.04 69.872 0.286 7.29 418 6.44
7/13/2021 11:45:00 PM 21.04 69.872 0.278 7.26 386.2 6.4
7/14/2021 12:00:00 AM 20.93 69.674 0.298 7.23 389.8 6.43
7/14/2021 12:15:00 AM 20.63 69.134 0.349 7.22 426.5 6.49
7/14/2021 12:30:00 AM 20.33 68.594 0.396 7.25 399 6.56
7/14/2021 12:45:00 AM 20.25 68.45 0.402 7.26 325.3 6.54
7/14/2021 1:00:00 AM 20.46 68.828 0.369 7.25 398.3 6.33
7/14/2021 1:15:00 AM 20.94 69.692 0.325 7.23 437.7 5.81
7/14/2021 1:30:00 AM 21.1 69.98 0.297 7.19 335.6 5.62
7/14/2021 1:45:00 AM 21.09 69.962 0.285 7.16 337.1 5.63
7/14/2021 2:00:00 AM 20.98 69.764 0.283 7.16 301 5.69
7/14/2021 2:15:00 AM 20.78 69.404 0.288 7.15 271.5 5.75
7/14/2021 2:30:00 AM 20.54 68.972 0.298 7.14 245.1 5.85
7/14/2021 2:45:00 AM 20.33 68.594 0.306 7.13 284.7 5.92
7/14/2021 3:00:00 AM 20.13 68.234 0.316 7.12 270 5.97
7/14/2021 3:15:00 AM 19.93 67.874 0.325 7.11 273.3 6.04
7/14/2021 3:30:00 AM 19.73 67.514 0.335 7.1 265.6 6.11
7/14/2021 3:45:00 AM 19.52 67.136 0.345 7.08 244.5 6.19
7/14/2021 4:00:00 AM 19.32 66.776 0.355 7.06 229 6.28
7/14/2021 4:15:00 AM 19.13 66.434 0.365 7.08 247.4 6.37
7/14/2021 4:30:00 AM 18.95 66.11 0.374 7.08 228.3 6.46
7/14/2021 4:45:00 AM 18.78 65.804 0.383 7.09 240.1 6.55
7/14/2021 5:00:00 AM 18.61 65.498 0.392 7.1 209.6 6.64
7/14/2021 5:15:00 AM 18.45 65.21 0.399 7.13 249.1 6.73
7/14/2021 5:30:00 AM 18.28 64.904 0.403 7.13 265.3 6.82
7/14/2021 5:45:00 AM 18.12 64.616 0.408 7.14 252.2 6.87
7/14/2021 6:00:00 AM 17.95 64.31 0.41 7.15 300.5 6.97
7/14/2021 6:15:00 AM 17.8 64.04 0.414 7.15 247.8 7.05
7/14/2021 6:30:00 AM 17.66 63.788 0.416 7.16 298.7 7.07
7/14/2021 6:45:00 AM 17.53 63.554 0.418 7.16 254.2 7.13
7/14/2021 7:00:00 AM 17.4 63.32 0.421 7.17 258.8 7.16
7/14/2021 7:15:00 AM 17.29 63.122 0.423 7.17 297 7.22
7/14/2021 7:30:00 AM 17.18 62.924 0.426 7.18 268.9 7.23
7/14/2021 7:45:00 AM 17.07 62.726 0.427 7.19 270.5 7.33
7/14/2021 8:00:00 AM 16.99 62.582 0.43 7.19 253.6 7.39
7/14/2021 8:15:00 AM 16.92 62.456 0.43 7.19 293.6 7.46
7/14/2021 8:30:00 AM 16.87 62.366 0.432 7.2 284.5 7.45
7/14/2021 8:45:00 AM 16.83 62.294 0.432 7.2 267 7.57
7/14/2021 9:00:00 AM 16.8 62.24 0.432 7.21 278.5 7.65
7/14/2021 9:15:00 AM 16.79 62.222 0.434 7.22 302 7.76
7/14/2021 9:30:00 AM 16.8 62.24 0.437 7.22 312.3 7.72
7/14/2021 9:45:00 AM 16.82 62.276 0.439 7.23 280.7 7.95
7/14/2021 10:00:00 AM 16.83 62.294 0.441 7.25 307.5 8.1
7/14/2021 10:15:00 AM 16.84 62.312 0.444 7.25 294.3 8.22
7/14/2021 10:30:00 AM 16.83 62.294 0.446 7.26 302.7 8.3
7/14/2021 10:45:00 AM 16.84 62.312 0.448 7.27 315.1 8.42
7/14/2021 11:00:00 AM 16.85 62.33 0.451 7.28 302.6 8.51
7/14/2021 11:15:00 AM 16.9 62.42 0.453 7.29 257.7 8.64
7/14/2021 11:30:00 AM 16.98 62.564 0.454 7.31 306.4 8.8
7/14/2021 11:45:00 AM 17.1 62.78 0.457 7.32 315.7 8.98
7/14/2021 12:00:00 PM 17.18 62.924 0.457 7.33 251.9 9.1
7/14/2021 12:15:00 PM 17.33 63.194 0.458 7.35 331.3 9.26
7/14/2021 12:30:00 PM 17.28 63.104 0.458 7.35 334.9 9.2
7/14/2021 12:45:00 PM 17.36 63.248 0.46 7.35 322.2 9.24
7/14/2021 1:00:00 PM 17.44 63.392 0.462 7.36 334.8 9.25
7/14/2021 1:15:00 PM 17.55 63.59 0.464 7.38 334.4 9.4
7/14/2021 1:30:00 PM 17.75 63.95 0.466 7.39 294 9.57
7/14/2021 1:45:00 PM 17.96 64.328 0.466 7.39 304.5 9.72
7/14/2021 2:00:00 PM 18.04 64.472 0.468 7.41 326.7 9.78
7/14/2021 2:15:00 PM 18.02 64.436 0.468 7.41 334.1 9.71
7/14/2021 2:30:00 PM 18.18 64.724 0.471 7.43 327.1 9.79
7/14/2021 2:45:00 PM 18.4 65.12 0.468 7.44 333 9.95
7/14/2021 3:00:00 PM 18.48 65.264 0.47 7.45 371.6 9.93
7/14/2021 3:15:00 PM 18.62 65.516 0.47 7.46 368.6 9.97
7/14/2021 3:30:00 PM 18.61 65.498 0.471 7.46 360.6 9.86
7/14/2021 3:45:00 PM 18.73 65.714 0.469 7.46 334 9.89
7/14/2021 4:00:00 PM 18.76 65.768 0.473 7.46 360.2 9.85
7/14/2021 4:15:00 PM 18.91 66.038 0.471 7.47 366.6 9.86
7/14/2021 4:30:00 PM 18.98 66.164 0.47 7.47 322.2 9.8
7/14/2021 4:45:00 PM 19.14 66.452 0.472 7.48 392.7 9.84
7/14/2021 5:00:00 PM 19.22 66.596 0.469 7.48 380.9 9.82
7/14/2021 5:15:00 PM 19.29 66.722 0.47 7.48 399.8 9.75
7/14/2021 5:30:00 PM 19.33 66.794 0.47 7.47 482.1 9.6
7/14/2021 5:45:00 PM 19.32 66.776 0.472 7.46 478 9.38
7/14/2021 6:00:00 PM 19.34 66.812 0.472 7.45 487.6 9.26
7/14/2021 6:15:00 PM 19.4 66.92 0.469 7.45 428.8 9.22
7/14/2021 6:30:00 PM 19.44 66.992 0.47 7.45 438 9.19
7/14/2021 6:45:00 PM 19.45 67.01 0.471 7.45 466.7 9.11
7/14/2021 7:00:00 PM 19.46 67.028 0.467 7.44 437.7 9.01
7/14/2021 7:15:00 PM 19.46 67.028 0.467 7.43 411.7 8.87
7/14/2021 7:30:00 PM 19.46 67.028 0.467 7.42 468.6 8.71
7/14/2021 7:45:00 PM 19.45 67.01 0.467 7.41 432.9 8.6
7/14/2021 8:00:00 PM 19.43 66.974 0.467 7.4 459.2 8.51
7/14/2021 8:15:00 PM 19.39 66.902 0.469 7.4 462.3 8.44
7/14/2021 8:30:00 PM 19.33 66.794 0.476 7.39 469.5 8.34
7/14/2021 8:45:00 PM 19.27 66.686 0.477 7.38 484.2 8.21
7/14/2021 9:00:00 PM 19.21 66.578 0.476 7.37 485.7 8.1
7/14/2021 9:15:00 PM 19.16 66.488 0.479 7.36 452.7 8.01
7/14/2021 9:30:00 PM 19.1 66.38 0.479 7.35 469.1 7.93
7/14/2021 9:45:00 PM 19.05 66.29 0.48 7.35 478.1 7.87
7/14/2021 10:00:00 PM 18.98 66.164 0.482 7.34 443 7.79
7/14/2021 10:15:00 PM 18.91 66.038 0.483 7.34 460.9 7.72
7/14/2021 10:30:00 PM 18.84 65.912 0.484 7.33 574.3 7.68
7/14/2021 10:45:00 PM 18.76 65.768 0.485 7.31 538.4 7.64
7/14/2021 11:00:00 PM 18.68 65.624 0.486 7.31 544.4 7.58
7/14/2021 11:15:00 PM 18.61 65.498 0.488 7.31 537 7.53
7/14/2021 11:30:00 PM 18.53 65.354 0.489 7.3 537.3 7.48
7/14/2021 11:45:00 PM 18.45 65.21 0.491 7.3 502.3 7.42
7/15/2021 12:00:00 AM 18.38 65.084 0.492 7.29 522.2 7.36
7/15/2021 12:15:00 AM 18.3 64.94 0.493 7.28 505.6 7.3
7/15/2021 12:30:00 AM 18.23 64.814 0.494 7.28 511.3 7.26
7/15/2021 12:45:00 AM 18.15 64.67 0.494 7.28 509.2 7.25
7/15/2021 1:00:00 AM 18.06 64.508 0.494 7.27 512.3 7.22
7/15/2021 1:15:00 AM 17.97 64.346 0.494 7.27 517.1 7.23
7/15/2021 1:30:00 AM 17.88 64.184 0.494 7.27 539.8 7.27
7/15/2021 1:45:00 AM 17.78 64.004 0.494 7.27 556.2 7.29
7/15/2021 2:00:00 AM 17.69 63.842 0.494 7.26 512.8 7.34
7/15/2021 2:15:00 AM 17.6 63.68 0.493 7.26 563.5 7.38
7/15/2021 2:30:00 AM 17.5 63.5 0.493 7.26 567 7.39
7/15/2021 2:45:00 AM 17.41 63.338 0.493 7.26 604.1 7.42
7/15/2021 3:00:00 AM 17.33 63.194 0.493 7.26 595.6 7.46
7/15/2021 3:15:00 AM 17.24 63.032 0.493 7.27 583.5 7.47
7/15/2021 3:30:00 AM 17.15 62.87 0.494 7.26 592.6 7.49
7/15/2021 3:45:00 AM 17.06 62.708 0.494 7.26 594.7 7.5
7/15/2021 4:00:00 AM 16.97 62.546 0.494 7.26 618.4 7.53
7/15/2021 4:15:00 AM 16.88 62.384 0.494 7.26 622.8 7.57
7/15/2021 4:30:00 AM 16.79 62.222 0.493 7.27 634.2 7.6
7/15/2021 4:45:00 AM 16.7 62.06 0.493 7.25 655.9 7.62
7/15/2021 5:00:00 AM 16.61 61.898 0.493 7.26 628.2 7.65
7/15/2021 5:15:00 AM 16.52 61.736 0.494 7.26 605.7 7.67
7/15/2021 5:30:00 AM 16.43 61.574 0.495 7.26 660.4 7.7
7/15/2021 5:45:00 AM 16.34 61.412 0.494 7.26 594.6 7.71
7/15/2021 6:00:00 AM 16.26 61.268 0.495 7.26 659.6 7.74
7/15/2021 6:15:00 AM 16.17 61.106 0.495 7.26 658.7 7.76
7/15/2021 6:30:00 AM 16.1 60.98 0.494 7.26 651 7.81
7/15/2021 6:45:00 AM 16.03 60.854 0.494 7.27 677 7.84
7/15/2021 7:00:00 AM 15.97 60.746 0.494 7.27 647.4 7.9
7/15/2021 7:15:00 AM 15.91 60.638 0.494 7.27 647.2 7.98
7/15/2021 7:30:00 AM 15.85 60.53 0.494 7.28 669.3 8.04
7/15/2021 7:45:00 AM 15.8 60.44 0.495 7.28 646.3 8.11
7/15/2021 8:00:00 AM 15.77 60.386 0.495 7.29 627.8 8.2
7/15/2021 8:15:00 AM 15.74 60.332 0.495 7.29 643.8 8.28
7/15/2021 8:30:00 AM 15.71 60.278 0.495 7.3 681.3 8.36
7/15/2021 8:45:00 AM 15.67 60.206 0.495 7.3 610.5 8.41
7/15/2021 9:00:00 AM 15.67 60.206 0.494 7.31 713.4 8.52
7/15/2021 9:15:00 AM 15.68 60.224 0.495 7.31 663.8 8.63
7/15/2021 9:30:00 AM 15.7 60.26 0.495 7.32 672.6 8.76
7/15/2021 9:45:00 AM 15.75 60.35 0.495 7.34 662.5 8.95
7/15/2021 10:00:00 AM 15.8 60.44 0.493 7.35 699.3 9.08
7/15/2021 10:15:00 AM 15.86 60.548 0.493 7.35 644.6 9.25
7/15/2021 10:30:00 AM 15.95 60.71 0.493 7.37 697.2 9.43
7/15/2021 10:45:00 AM 16.06 60.908 0.494 7.38 724.2 9.6
7/15/2021 11:00:00 AM 16.2 61.16 0.493 7.39 622.5 9.75
7/15/2021 11:15:00 AM 16.34 61.412 0.493 7.4 663.2 9.91
7/15/2021 11:30:00 AM 16.47 61.646 0.492 7.42 649.4 10.05
7/15/2021 11:45:00 AM 16.54 61.772 0.492 7.43 698.5 10.08
7/15/2021 12:00:00 PM 16.69 62.042 0.491 7.44 638.2 10.19
7/15/2021 12:15:00 PM 16.88 62.384 0.491 7.46 668.2 10.36
7/15/2021 12:30:00 PM 17.07 62.726 0.49 7.47 626.8 10.53
7/15/2021 12:45:00 PM 17.24 63.032 0.491 7.49 751.1 10.65
7/15/2021 1:00:00 PM 17.29 63.122 0.487 7.48 766.5 10.6
7/15/2021 1:15:00 PM 17.42 63.356 0.488 7.49 705.1 10.6
7/15/2021 1:30:00 PM 17.6 63.68 0.486 7.5 750.4 10.7
7/15/2021 1:45:00 PM 17.82 64.076 0.486 7.52 727.9 10.81
7/15/2021 2:00:00 PM 18.05 64.49 0.487 7.53 658.6 10.99
7/15/2021 2:15:00 PM 18.25 64.85 0.484 7.54 628 11.09
7/15/2021 2:30:00 PM 18.43 65.174 0.485 7.56 641.6 11.09
7/15/2021 2:45:00 PM 18.56 65.408 0.485 7.56 703.9 11.06
7/15/2021 3:00:00 PM 18.67 65.606 0.486 7.57 786.8 11.05
7/15/2021 3:15:00 PM 18.84 65.912 0.484 7.58 566.3 11.09
7/15/2021 3:30:00 PM 18.93 66.074 0.483 7.58 587 11.03
7/15/2021 3:45:00 PM 19.06 66.308 0.479 7.58 676.2 11
7/15/2021 4:00:00 PM 19.17 66.506 0.474 7.59 664.4 10.98
7/15/2021 4:15:00 PM 19.29 66.722 0.479 7.59 590.8 10.91
7/15/2021 4:30:00 PM 19.38 66.884 0.476 7.59 651.3 10.83
7/15/2021 4:45:00 PM 19.47 67.046 0.48 7.59 606 10.77
7/15/2021 5:00:00 PM 19.53 67.154 0.48 7.58 625.3 10.62
7/15/2021 5:15:00 PM 19.57 67.226 0.474 7.57 641.6 10.43
7/15/2021 5:30:00 PM 19.63 67.334 0.473 7.57 648.9 10.28
7/15/2021 5:45:00 PM 19.71 67.478 0.473 7.56 607.9 10.23
7/15/2021 6:00:00 PM 19.76 67.568 0.478 7.56 571.1 10.15
7/15/2021 6:15:00 PM 19.81 67.658 0.479 7.56 645.3 10.08
7/15/2021 6:30:00 PM 19.84 67.712 0.478 7.56 575.6 9.94
7/15/2021 6:45:00 PM 19.87 67.766 0.48 7.55 577.5 9.76
7/15/2021 7:00:00 PM 19.87 67.766 0.482 7.53 590.1 9.53
7/15/2021 7:15:00 PM 19.86 67.748 0.485 7.52 615.7 9.32
7/15/2021 7:30:00 PM 19.85 67.73 0.486 7.5 609.5 9.13
7/15/2021 7:45:00 PM 19.83 67.694 0.485 7.49 630.4 8.91
7/15/2021 8:00:00 PM 19.81 67.658 0.487 7.47 637.7 8.74
7/15/2021 8:15:00 PM 19.77 67.586 0.491 7.46 627.4 8.58
7/15/2021 8:30:00 PM 19.73 67.514 0.493 7.45 634 8.45
7/15/2021 8:45:00 PM 19.68 67.424 0.493 7.43 513.7 8.31
7/15/2021 9:00:00 PM 19.62 67.316 0.492 7.42 559.2 8.21
7/15/2021 9:15:00 PM 19.57 67.226 0.494 7.41 601.8 8.08
7/15/2021 9:30:00 PM 19.51 67.118 0.494 7.4 608.7 7.97
7/15/2021 9:45:00 PM 19.45 67.01 0.495 7.38 515.1 7.87
7/15/2021 10:00:00 PM 19.4 66.92 0.496 7.38 577.1 7.77
7/15/2021 10:15:00 PM 19.34 66.812 0.497 7.37 554.4 7.69
7/15/2021 10:30:00 PM 19.28 66.704 0.498 7.37 550.9 7.61
7/15/2021 10:45:00 PM 19.22 66.596 0.499 7.36 580.4 7.55
7/15/2021 11:00:00 PM 19.16 66.488 0.5 7.35 586.6 7.49
7/15/2021 11:15:00 PM 19.1 66.38 0.501 7.34 578.7 7.43
7/15/2021 11:30:00 PM 19.04 66.272 0.501 7.34 563.8 7.39
7/15/2021 11:45:00 PM 18.98 66.164 0.501 7.33 588.8 7.35
7/16/2021 12:00:00 AM 18.92 66.056 0.502 7.32 582.8 7.29
7/16/2021 12:15:00 AM 18.85 65.93 0.504 7.32 607.3 7.28
7/16/2021 12:30:00 AM 18.78 65.804 0.504 7.31 602.2 7.23
7/16/2021 12:45:00 AM 18.7 65.66 0.505 7.3 625.8 7.22
7/16/2021 1:00:00 AM 18.62 65.516 0.506 7.3 572.1 7.21
7/16/2021 1:15:00 AM 18.53 65.354 0.506 7.29 596.3 7.19
7/16/2021 1:30:00 AM 18.44 65.192 0.508 7.3 640.9 7.18
7/16/2021 1:45:00 AM 18.35 65.03 0.508 7.29 636.9 7.19
7/16/2021 2:00:00 AM 18.26 64.868 0.509 7.29 611 7.2
7/16/2021 2:15:00 AM 18.17 64.706 0.51 7.28 646.7 7.2
7/16/2021 2:30:00 AM 18.08 64.544 0.51 7.29 700.3 7.21
7/16/2021 2:45:00 AM 17.98 64.364 0.511 7.28 686.4 7.21
7/16/2021 3:00:00 AM 17.9 64.22 0.511 7.27 649.5 7.22
7/16/2021 3:15:00 AM 17.81 64.058 0.512 7.28 640.6 7.24
7/16/2021 3:30:00 AM 17.72 63.896 0.512 7.28 658.3 7.27
7/16/2021 3:45:00 AM 17.62 63.716 0.513 7.29 646.5 7.28
7/16/2021 4:00:00 AM 17.53 63.554 0.514 7.29 671.8 7.32
7/16/2021 4:15:00 AM 17.44 63.392 0.514 7.28 677.2 7.34
7/16/2021 4:30:00 AM 17.34 63.212 0.515 7.28 673.7 7.37
7/16/2021 4:45:00 AM 17.24 63.032 0.515 7.28 677.6 7.41
7/16/2021 5:00:00 AM 17.15 62.87 0.515 7.28 679 7.43
7/16/2021 5:15:00 AM 17.05 62.69 0.515 7.29 711.1 7.46
7/16/2021 5:30:00 AM 16.96 62.528 0.515 7.28 704.9 7.48
7/16/2021 5:45:00 AM 16.86 62.348 0.516 7.29 664.8 7.52
7/16/2021 6:00:00 AM 16.77 62.186 0.516 7.28 708 7.54
7/16/2021 6:15:00 AM 16.68 62.024 0.516 7.29 697.4 7.58
7/16/2021 6:30:00 AM 16.6 61.88 0.516 7.3 718.2 7.62
7/16/2021 6:45:00 AM 16.52 61.736 0.517 7.3 712 7.67
7/16/2021 7:00:00 AM 16.45 61.61 0.517 7.3 710 7.74
7/16/2021 7:15:00 AM 16.37 61.466 0.517 7.3 717.1 7.81
7/16/2021 7:30:00 AM 16.31 61.358 0.518 7.31 705.9 7.89
7/16/2021 7:45:00 AM 16.25 61.25 0.518 7.31 680.1 7.98
7/16/2021 8:00:00 AM 16.21 61.178 0.518 7.32 705.9 8.09
7/16/2021 8:15:00 AM 16.16 61.088 0.518 7.33 693.8 8.22
7/16/2021 8:30:00 AM 16.14 61.052 0.518 7.34 669.4 8.31
7/16/2021 8:45:00 AM 16.12 61.016 0.519 7.34 674 8.43
7/16/2021 9:00:00 AM 16.12 61.016 0.518 7.35 719.8 8.58
7/16/2021 9:15:00 AM 16.12 61.016 0.518 7.36 716.5 8.73
7/16/2021 9:30:00 AM 16.15 61.07 0.517 7.37 664.7 8.87
7/16/2021 9:45:00 AM 16.2 61.16 0.517 7.38 710.3